FR2377 / EI-DPG 7700 Squawk Report (17th of September, 2021)

Aircraft B738 Reg No. EI-DPG Age 14 years old
Model 737 Jet engines 2 First flight 17-01-07
Registered 26-01-07 Rollout 04-01-07 Delivered 26-01-07
Construction No. 33607 Line No. 2163 Series 8AS
ADSHEX 4CA4EB Airline name Ryanair Owner N/A
Airfield based Dublin~Co Dublin~EI First tracked N/A

Flight history for EI-DPG

Route Flight No Date Playback
Ibiza (IBZ) - Bristol (BRS) FR8265 2021-10-22 12:46:00
Bristol (BRS) - Ibiza (IBZ) FR8264 2021-10-22 08:00:00
Alicante (ALC) - Bristol (BRS) FR8297 2021-10-22 05:46:00
Bristol (BRS) - Alicante (ALC) FR8296 2021-10-21 20:16:00
Faro (FAO) - Bristol (BRS) FR8249 2021-10-21 17:24:00
Bristol (BRS) - Faro (FAO) FR8248 2021-10-21 13:56:00
Alicante (ALC) - Bristol (BRS) FR8297 2021-10-20 22:36:00
Bristol (BRS) - Alicante (ALC) FR8296 2021-10-20 20:13:00
Ireland West Knock (NOC) - Bristol (BRS) FR8203 2021-10-20 17:15:00
Bristol (BRS) - Ireland West Knock (NOC) FR8202 2021-10-20 12:27:00
Lech Walesa (GDN) - Bristol (BRS) FR8255 2021-10-20 11:16:00
Bristol (BRS) - Lech Walesa (GDN) FR8254 2021-10-20 08:03:00
Budapest Ferenc Liszt (BUD) - Bristol (BRS) FR8207 2021-10-20 05:11:00
Bristol (BRS) - Budapest Ferenc Liszt (BUD) FR8206 2021-10-19 17:58:00
Henri Coanda (OTP) - Bristol (BRS) FR5342 2021-10-19 14:58:00
Bristol (BRS) - Henri Coanda (OTP) FR5341 2021-10-19 08:46:00
Alicante (ALC) - Bristol (BRS) FR8297 2021-10-19 05:42:00
Bristol (BRS) - Alicante (ALC) FR8296 2021-10-18 19:28:00
Bergerac-Roumanière (EGC) - Bristol (BRS) N/A 2021-10-18 16:40:00
Bristol (BRS) - Bergerac-Roumanière (EGC) FR6026 2021-10-18 15:18:00
Time Lat Lon Altitude Heading Speed Vertical Rate
2021-09-17 10:14:12 GMT 55.950169 -3.360250 0 244 0
2021-09-17 10:13:47 GMT 55.950165 -3.360235 0 244 0
2021-09-17 10:13:34 GMT 55.950169 -3.360250 0 244 0
2021-09-17 10:13:30 GMT 55.950165 -3.360235 0 244 0
2021-09-17 10:13:20 GMT 55.950169 -3.360250 0 244 0
2021-09-17 10:13:14 GMT 55.950157 -3.360250 0 244 2
2021-09-17 10:13:10 GMT 55.950176 -3.360193 0 244 3
2021-09-17 10:13:00 GMT 55.950256 -3.359881 0 244 6
2021-09-17 10:12:53 GMT 55.950344 -3.359585 0 244 8
2021-09-17 10:12:48 GMT 55.950417 -3.359299 0 241 7
2021-09-17 10:12:42 GMT 55.950485 -3.359007 0 205 5
2021-09-17 10:12:39 GMT 55.950520 -3.358903 0 174 5
2021-09-17 10:12:33 GMT 55.950623 -3.358903 0 120 8
2021-09-17 10:12:29 GMT 55.950703 -3.359132 0 118 11
2021-09-17 10:12:23 GMT 55.950855 -3.359649 0 115 13
2021-09-17 10:12:20 GMT 55.950954 -3.360048 0 109 14
2021-09-17 10:12:13 GMT 55.951077 -3.360765 0 106 16
2021-09-17 10:12:09 GMT 55.951172 -3.361234 0 106 15
2021-09-17 10:12:03 GMT 55.951286 -3.361859 0 109 13
2021-09-17 10:11:59 GMT 55.951355 -3.362233 0 98 12
2021-09-17 10:11:52 GMT 55.951332 -3.362825 0 59 12
2021-09-17 10:11:49 GMT 55.951229 -3.363148 0 59 16
2021-09-17 10:11:42 GMT 55.950947 -3.363941 0 59 22
2021-09-17 10:11:39 GMT 55.950771 -3.364459 0 59 24
2021-09-17 10:11:33 GMT 55.950367 -3.365657 0 59 24
2021-09-17 10:11:28 GMT 55.950142 -3.366332 0 59 23
2021-09-17 10:11:22 GMT 55.949844 -3.367224 0 59 22
2021-09-17 10:11:19 GMT 55.949673 -3.367705 0 59 22
2021-09-17 10:11:10 GMT 55.949249 -3.368974 0 59 21
2021-09-17 10:11:05 GMT 55.949005 -3.369670 0 59 21
2021-09-17 10:10:55 GMT 55.948483 -3.371236 0 59 20
2021-09-17 10:10:47 GMT 55.948093 -3.372387 0 59 20
2021-09-17 10:10:16 GMT 55.946743 -3.376382 0 59 19
2021-09-17 10:10:05 GMT 55.946228 -3.377901 0 59 18
2021-09-17 10:10:02 GMT 55.946106 -3.378232 0 59 18
2021-09-17 10:09:58 GMT 55.945930 -3.378774 0 59 18
We lost coverage of the aircraft here for a total of 6 minutes
2021-09-17 10:03:55 GMT 55.944134 -3.389594 0 222 10 0
2021-09-17 10:03:51 GMT 55.944233 -3.389432 0 236 10 0
2021-09-17 10:03:40 GMT 55.944511 -3.388638 0 239 13 0
2021-09-17 10:03:36 GMT 55.944675 -3.388145 0 239 16 0
2021-09-17 10:03:17 GMT 55.945663 -3.385248 0 239 33 0
2021-09-17 10:03:14 GMT 55.945957 -3.384390 0 239 36 0
2021-09-17 10:03:03 GMT 55.946880 -3.381667 0 239 49 0
2021-09-17 10:02:50 GMT 55.948906 -3.375716 150 239 84 0
2021-09-17 10:02:43 GMT 55.950436 -3.371172 150 239 107 -64
2021-09-17 10:02:39 GMT 55.951508 -3.367996 175 239 117 -64
2021-09-17 10:02:30 GMT 55.954834 -3.358321 225 239 129 -704
2021-09-17 10:02:23 GMT 55.956490 -3.353405 300 239 128 -640
2021-09-17 10:02:18 GMT 55.957993 -3.348916 350 240 129 -640
2021-09-17 10:02:12 GMT 55.959732 -3.343839 400 240 129 -640
2021-09-17 10:02:08 GMT 55.960922 -3.340260 450 240 129 -768
2021-09-17 10:02:02 GMT 55.962753 -3.334767 525 240 129 -640
2021-09-17 10:01:59 GMT 55.963989 -3.331105 575 239 129 -704
2021-09-17 10:01:56 GMT 55.965145 -3.327742 625 239 128 -576
2021-09-17 10:01:52 GMT 55.965820 -3.325778 725 238 126 -640
2021-09-17 10:01:49 GMT 55.967243 -3.321733 700 239 124 -512
2021-09-17 10:01:45 GMT 55.969620 -3.314625 775 240 125 -576
2021-09-17 10:01:41 GMT 55.969345 -3.315541 750 240 126 -640
2021-09-17 10:01:38 GMT 55.970261 -3.312794 800 239 126 -576
2021-09-17 10:01:32 GMT 55.972366 -3.306469 875 240 127 -640
2021-09-17 10:01:28 GMT 55.974087 -3.301392 925 240 128 -704
2021-09-17 10:01:25 GMT 55.974087 -3.301392 925 240 128 -704
2021-09-17 10:01:24 GMT 55.974365 -3.300447 950 240 128 -704
2021-09-17 10:01:22 GMT 55.975021 -3.298562 950 240 128 -704
2021-09-17 10:01:17 GMT 55.977299 -3.291779 1,050 239 126 -640
2021-09-17 10:01:14 GMT 55.977299 -3.291779 1,050 240 126 -640
2021-09-17 10:01:13 GMT 55.977577 -3.290920 1,050 240 126 -576
2021-09-17 10:01:12 GMT 55.978230 -3.289032 1,075 239 127 -704
2021-09-17 10:01:09 GMT 55.978832 -3.287230 1,100 239 127 -704
2021-09-17 10:01:08 GMT 55.979416 -3.285495 1,125 239 126 -704
2021-09-17 10:01:06 GMT 55.979782 -3.284413 1,150 239 127 -640
2021-09-17 10:01:05 GMT 55.980045 -3.283625 1,150 238 126 -640
2021-09-17 10:01:01 GMT 55.981300 -3.280020 1,200 239 125 -704
2021-09-17 10:00:58 GMT 55.982464 -3.276587 1,250 240 125 -704
2021-09-17 10:00:56 GMT 55.982803 -3.275590 1,250 240 125 -704
2021-09-17 10:00:54 GMT 55.983490 -3.273343 1,275 240 125 -768
2021-09-17 10:00:52 GMT 55.984085 -3.271679 1,300 240 125 -768
2021-09-17 10:00:51 GMT 55.984653 -3.269978 1,325 240 126 -704
2021-09-17 10:00:49 GMT 55.984909 -3.269098 1,350 240 127 -704
2021-09-17 10:00:48 GMT 55.985229 -3.268183 1,350 240 128 -640
2021-09-17 10:00:44 GMT 55.986374 -3.264771 1,375 240 129 -640
2021-09-17 10:00:43 GMT 55.986652 -3.263884 1,400 240 129 -448
2021-09-17 10:00:41 GMT 55.987350 -3.261909 1,425 240 129 -512
2021-09-17 10:00:40 GMT 55.987976 -3.260026 1,450 240 128 -640
2021-09-17 10:00:38 GMT 55.988205 -3.259277 1,450 240 128 -576
2021-09-17 10:00:37 GMT 55.988842 -3.257446 1,475 240 126 -384
2021-09-17 10:00:35 GMT 55.989120 -3.256588 1,475 240 126 -448
2021-09-17 10:00:34 GMT 55.990005 -3.253927 1,500 239 125 -576
2021-09-17 10:00:32 GMT 55.990005 -3.253927 1,500 239 124 -576
2021-09-17 10:00:30 GMT 55.990612 -3.252125 1,525 238 122 -640
2021-09-17 10:00:27 GMT 55.991913 -3.248457 1,575 239 121 -640
2021-09-17 10:00:24 GMT 55.992241 -3.247404 1,575 239 121 -768
2021-09-17 10:00:23 GMT 55.992985 -3.245258 1,625 240 121 -832
2021-09-17 10:00:21 GMT 55.993286 -3.244296 1,625 240 121 -832
2021-09-17 10:00:20 GMT 55.993546 -3.243456 1,650 240 121 -832
2021-09-17 10:00:18 GMT 55.994156 -3.241716 1,675 239 123 -768
2021-09-17 10:00:17 GMT 55.994431 -3.240884 1,675 239 124 -704
2021-09-17 10:00:15 GMT 55.995079 -3.238993 1,700 239 125 -704
2021-09-17 10:00:14 GMT 55.995407 -3.238049 1,725 239 125 -704
2021-09-17 10:00:13 GMT 55.995758 -3.236972 1,725 239 126 -704
2021-09-17 10:00:12 GMT 55.996384 -3.235130 1,750 240 126 -640
2021-09-17 10:00:09 GMT 55.997177 -3.232810 1,800 240 126 -704
2021-09-17 10:00:06 GMT 55.997818 -3.230813 1,825 240 126 -704
2021-09-17 10:00:04 GMT 55.998413 -3.228982 1,850 239 127 -704
2021-09-17 10:00:03 GMT 55.998734 -3.228066 1,850 239 127 -640
2021-09-17 10:00:01 GMT 55.999603 -3.225569 1,875 239 127 -640
2021-09-17 09:59:59 GMT 55.999920 -3.224573 1,900 239 128 -640
2021-09-17 09:59:58 GMT 56.000946 -3.221569 1,925 239 128 -704
2021-09-17 09:59:56 GMT 56.000946 -3.221569 1,925 239 128 -768
2021-09-17 09:59:55 GMT 56.001270 -3.220625 1,950 239 130 -768
2021-09-17 09:59:52 GMT 56.002201 -3.217878 1,975 239 131 -704
2021-09-17 09:59:50 GMT 56.002995 -3.215647 2,025 239 130 -768
2021-09-17 09:59:48 GMT 56.003311 -3.214666 2,025 239 130 -768
2021-09-17 09:59:46 GMT 56.004181 -3.212169 2,075 239 131 -768
2021-09-17 09:59:43 GMT 56.004948 -3.209896 2,125 239 131 -704
2021-09-17 09:59:40 GMT 56.005787 -3.207407 2,125 240 134 -512
2021-09-17 09:59:39 GMT 56.006252 -3.205948 2,125 240 136 -512
2021-09-17 09:59:38 GMT 56.006561 -3.205095 2,125 239 137 -448
2021-09-17 09:59:36 GMT 56.007202 -3.203180 2,150 239 137 -448
2021-09-17 09:59:35 GMT 56.007568 -3.202098 2,150 240 139 -576
2021-09-17 09:59:34 GMT 56.007843 -3.201266 2,175 240 140 -704
2021-09-17 09:59:32 GMT 56.008629 -3.198910 2,200 240 140 -832
2021-09-17 09:59:31 GMT 56.008942 -3.197937 2,200 240 141 -832
2021-09-17 09:59:28 GMT 56.010315 -3.193859 2,250 239 143 -640
2021-09-17 09:59:27 GMT 56.010582 -3.192987 2,275 239 142 -768
2021-09-17 09:59:25 GMT 56.010956 -3.192043 2,275 239 142 -768
2021-09-17 09:59:24 GMT 56.011280 -3.191013 2,300 239 142 -832
2021-09-17 09:59:22 GMT 56.011978 -3.188953 2,325 239 142 -832
2021-09-17 09:59:21 GMT 56.012257 -3.188181 2,325 239 142 -832
2021-09-17 09:59:20 GMT 56.012970 -3.186202 2,350 238 141 -896
2021-09-17 09:59:18 GMT 56.013336 -3.185120 2,375 239 140 -832
2021-09-17 09:59:17 GMT 56.013657 -3.184121 2,400 239 140 -832
2021-09-17 09:59:15 GMT 56.014214 -3.182602 2,400 239 140 -832
2021-09-17 09:59:13 GMT 56.014957 -3.180456 2,425 239 140 -768
2021-09-17 09:59:11 GMT 56.016308 -3.176422 2,475 239 140 -704
2021-09-17 09:59:08 GMT 56.016308 -3.176422 2,475 240 140 -768
2021-09-17 09:59:06 GMT 56.016960 -3.174534 2,500 240 140 -768
2021-09-17 09:59:05 GMT 56.017380 -3.173246 2,525 240 140 -704
2021-09-17 09:59:03 GMT 56.017868 -3.171803 2,550 240 140 -704
2021-09-17 09:59:02 GMT 56.018356 -3.170242 2,575 240 139 -704
2021-09-17 09:59:01 GMT 56.018726 -3.169127 2,575 240 139 -640
2021-09-17 09:58:59 GMT 56.019379 -3.167142 2,600 240 140 -640
2021-09-17 09:58:58 GMT 56.019791 -3.165977 2,600 240 140 -640
2021-09-17 09:58:57 GMT 56.020065 -3.165144 2,625 240 140 -640
2021-09-17 09:58:56 GMT 56.021011 -3.162260 2,650 240 141 -640
2021-09-17 09:58:54 GMT 56.021011 -3.162260 2,650 241 140 -640
2021-09-17 09:58:53 GMT 56.021439 -3.160983 2,675 241 141 -704
2021-09-17 09:58:50 GMT 56.022408 -3.157969 2,700 242 141 -832
2021-09-17 09:58:48 GMT 56.022995 -3.155823 2,725 244 142 -832
2021-09-17 09:58:47 GMT 56.023293 -3.154793 2,750 245 143 -768
2021-09-17 09:58:46 GMT 56.023895 -3.152561 2,775 246 143 -896
2021-09-17 09:58:44 GMT 56.024185 -3.151578 2,800 246 143 -896
2021-09-17 09:58:43 GMT 56.024452 -3.150501 2,800 246 143 -896
2021-09-17 09:58:42 GMT 56.025291 -3.147326 2,825 246 140 -640
2021-09-17 09:58:40 GMT 56.025291 -3.147326 2,850 246 140 -512
2021-09-17 09:58:37 GMT 56.025970 -3.144587 2,850 247 140 -640
2021-09-17 09:58:36 GMT 56.026318 -3.143034 2,875 248 142 -768
2021-09-17 09:58:34 GMT 56.026829 -3.140888 2,900 248 142 -768
2021-09-17 09:58:33 GMT 56.027061 -3.139858 2,925 247 142 -768
2021-09-17 09:58:32 GMT 56.027344 -3.138677 2,925 248 143 -704
2021-09-17 09:58:30 GMT 56.027847 -3.136597 2,950 247 143 -768
2021-09-17 09:58:29 GMT 56.028133 -3.135395 2,975 247 144 -768
2021-09-17 09:58:28 GMT 56.028442 -3.134266 2,975 246 144 -832
2021-09-17 09:58:27 GMT 56.029221 -3.130937 3,000 247 145 -832
2021-09-17 09:58:25 GMT 56.029221 -3.130937 3,025 247 144 -768
2021-09-17 09:58:23 GMT 56.029953 -3.128024 3,050 249 145 -832
2021-09-17 09:58:21 GMT 56.030182 -3.126898 3,075 250 145 -896
2021-09-17 09:58:20 GMT 56.030647 -3.124666 3,100 251 145 -896
2021-09-17 09:58:18 GMT 56.030972 -3.123035 3,125 252 146 -1024
2021-09-17 09:58:17 GMT 56.031113 -3.122435 3,125 252 146 -1024
2021-09-17 09:58:15 GMT 56.031509 -3.120117 3,175 253 147 -1088
2021-09-17 09:58:13 GMT 56.031967 -3.117704 3,200 252 148 -1024
2021-09-17 09:58:12 GMT 56.032135 -3.116684 3,225 252 147 -1024
2021-09-17 09:58:11 GMT 56.032368 -3.115482 3,225 252 147 -1088
2021-09-17 09:58:09 GMT 56.032791 -3.113126 3,275 252 147 -960
2021-09-17 09:58:07 GMT 56.033203 -3.111045 3,300 253 147 -704
2021-09-17 09:58:06 GMT 56.033478 -3.109381 3,325 254 148 -704
2021-09-17 09:58:05 GMT 56.033661 -3.108215 3,325 256 147 -640
2021-09-17 09:58:02 GMT 56.034119 -3.105219 3,350 262 149 -448
2021-09-17 09:58:01 GMT 56.034210 -3.103471 3,350 270 150 -576
2021-09-17 09:58:00 GMT 56.034256 -3.101058 3,375 277 151 -448
2021-09-17 09:57:58 GMT 56.034229 -3.099861 3,375 277 151 -448
2021-09-17 09:57:57 GMT 56.034184 -3.098574 3,400 280 153 -448
2021-09-17 09:57:55 GMT 56.033936 -3.095981 3,400 281 153 -320
2021-09-17 09:57:54 GMT 56.033844 -3.094815 3,425 282 154 -320
2021-09-17 09:57:52 GMT 56.033531 -3.092222 3,425 282 155 -320
2021-09-17 09:57:51 GMT 56.033253 -3.089819 3,425 282 156 -320
2021-09-17 09:57:48 GMT 56.032879 -3.086815 3,450 282 157 -384
2021-09-17 09:57:47 GMT 56.032600 -3.084240 3,450 282 157 -448
2021-09-17 09:57:45 GMT 56.032459 -3.083124 3,475 283 157 -448
2021-09-17 09:57:44 GMT 56.032322 -3.081837 3,475 283 157 -448
2021-09-17 09:57:42 GMT 56.032043 -3.079519 3,500 283 156 -512
2021-09-17 09:57:41 GMT 56.031857 -3.078318 3,500 283 156 -512
2021-09-17 09:57:40 GMT 56.031693 -3.077004 3,500 284 157 -384
2021-09-17 09:57:39 GMT 56.031326 -3.074341 3,525 284 157 -320
2021-09-17 09:57:35 GMT 56.030880 -3.070679 3,550 284 158 -384
2021-09-17 09:57:33 GMT 56.030506 -3.067932 3,575 284 158 -448
2021-09-17 09:57:30 GMT 56.029999 -3.064270 3,575 284 158 -576
2021-09-17 09:57:29 GMT 56.029854 -3.062954 3,575 284 158 -576
2021-09-17 09:57:28 GMT 56.029678 -3.061690 3,600 285 159 -576
2021-09-17 09:57:25 GMT 56.029202 -3.058491 3,625 286 160 -576
2021-09-17 09:57:24 GMT 56.028946 -3.056779 3,625 286 160 -576
2021-09-17 09:57:21 GMT 56.028179 -3.052568 3,675 295 163 -704
2021-09-17 09:57:19 GMT 56.027527 -3.049955 3,700 299 164 -704
2021-09-17 09:57:18 GMT 56.027203 -3.048792 3,700 301 166 -704
2021-09-17 09:57:15 GMT 56.026085 -3.045702 3,725 310 170 -448
2021-09-17 09:57:12 GMT 56.024593 -3.042526 3,750 315 173 -384
2021-09-17 09:57:09 GMT 56.022766 -3.039634 3,875 352 194 -576
2021-09-17 09:57:05 GMT 56.020172 -3.036690 3,825 337 185 -512
2021-09-17 09:57:02 GMT 56.017426 -3.034544 3,850 347 191 -448
2021-09-17 09:56:58 GMT 56.014584 -3.033085 3,850 350 193 -448
2021-09-17 09:56:54 GMT 56.009583 -3.031644 3,900 352 194 -576
2021-09-17 09:56:51 GMT 56.007477 -3.030978 3,925 351 194 -512
2021-09-17 09:56:50 GMT 56.006531 -3.030767 3,925 351 194 -384
2021-09-17 09:56:46 GMT 56.003586 -3.029896 3,975 351 195 -256
2021-09-17 09:56:43 GMT 56.000885 -3.029064 3,975 351 195 -256
2021-09-17 09:56:42 GMT 55.999409 -3.028622 3,975 351 195 -256
2021-09-17 09:56:41 GMT 55.998524 -3.028278 3,975 351 195 -320
2021-09-17 09:56:40 GMT 55.996849 -3.027763 3,975 351 196 -320
2021-09-17 09:56:38 GMT 55.995895 -3.027482 4,000 351 196 -320
2021-09-17 09:56:37 GMT 55.995026 -3.027233 4,000 351 197 -320
2021-09-17 09:56:36 GMT 55.993359 -3.026648 4,000 351 198 -384
2021-09-17 09:56:34 GMT 55.992416 -3.026400 4,025 351 199 -384
2021-09-17 09:56:32 GMT 55.990952 -3.025984 4,025 351 199 -448
2021-09-17 09:56:31 GMT 55.989624 -3.025568 4,050 351 201 -576
2021-09-17 09:56:30 GMT 55.988655 -3.025274 4,050 351 203 -640
2021-09-17 09:56:27 GMT 55.985962 -3.024403 4,075 351 203 -640
2021-09-17 09:56:25 GMT 55.980652 -3.022822 4,175 351 206 -576
2021-09-17 09:56:22 GMT 55.980652 -3.022822 4,175 351 209 -704
2021-09-17 09:56:18 GMT 55.974133 -3.020897 4,250 351 210 -960
2021-09-17 09:56:15 GMT 55.974133 -3.020897 4,250 351 212 -1024
2021-09-17 09:56:12 GMT 55.971405 -3.020158 4,325 351 212 -1024
2021-09-17 09:56:09 GMT 55.969570 -3.019524 4,325 351 212 -960
2021-09-17 09:56:08 GMT 55.968594 -3.019266 4,350 350 212 -960
2021-09-17 09:56:05 GMT 55.966217 -3.018494 4,375 350 212 -768
2021-09-17 09:56:03 GMT 55.963623 -3.017661 4,400 350 213 -704
2021-09-17 09:56:01 GMT 55.962112 -3.017162 4,425 350 213 -640
2021-09-17 09:56:00 GMT 55.960968 -3.016829 4,450 350 214 -576
2021-09-17 09:55:58 GMT 55.954971 -3.014832 4,475 350 214 -512
2021-09-17 09:55:54 GMT 55.950714 -3.013430 4,525 350 219 -704
2021-09-17 09:55:51 GMT 55.950714 -3.013430 4,525 350 219 -704
2021-09-17 09:55:48 GMT 55.947968 -3.012584 4,575 350 221 -704
2021-09-17 09:55:46 GMT 55.946854 -3.012228 4,575 350 221 -704
2021-09-17 09:55:44 GMT 55.944717 -3.011502 4,600 350 222 -704
2021-09-17 09:55:43 GMT 55.943710 -3.011169 4,625 350 223 -640
2021-09-17 09:55:41 GMT 55.941833 -3.010504 4,625 350 224 -576
2021-09-17 09:55:40 GMT 55.940941 -3.010168 4,650 350 224 -512
2021-09-17 09:55:38 GMT 55.938538 -3.009338 4,650 349 227 -512
2021-09-17 09:55:37 GMT 55.937496 -3.009052 4,675 349 227 -512
2021-09-17 09:55:35 GMT 55.934921 -3.008090 4,700 349 228 -576
2021-09-17 09:55:30 GMT 55.930252 -3.006425 4,875 348 234 -1216
2021-09-17 09:55:27 GMT 55.927158 -3.005362 4,875 348 234 -1216
2021-09-17 09:55:23 GMT 55.923622 -3.003988 4,825 348 233 -896
2021-09-17 09:55:20 GMT 55.919998 -3.002597 4,875 348 234 -1280
2021-09-17 09:55:18 GMT 55.916176 -3.001156 4,975 348 234 -1408
2021-09-17 09:55:14 GMT 55.912491 -2.999767 5,050 348 234 -1472
2021-09-17 09:55:13 GMT 55.912491 -2.999767 5,050 348 234 -1472
2021-09-17 09:55:11 GMT 55.910496 -2.999010 5,100 348 234 -1472
2021-09-17 09:55:10 GMT 55.909424 -2.998581 5,125 348 234 -1536
2021-09-17 09:55:08 GMT 55.906303 -2.997379 5,200 349 232 -1856
2021-09-17 09:55:06 GMT 55.905094 -2.996950 5,250 349 231 -2048
2021-09-17 09:55:05 GMT 55.903976 -2.996521 5,275 349 231 -2048
2021-09-17 09:55:04 GMT 55.901928 -2.995749 5,350 349 231 -1856
2021-09-17 09:55:02 GMT 55.900589 -2.995273 5,375 349 231 -1728
2021-09-17 09:55:00 GMT 55.898941 -2.994690 5,425 349 231 -1664
2021-09-17 09:54:57 GMT 55.894730 -2.993275 5,550 349 230 -1792
2021-09-17 09:54:52 GMT 55.889919 -2.991629 5,700 349 230 -1792
2021-09-17 09:54:48 GMT 55.885025 -2.989863 5,825 349 230 -1856
2021-09-17 09:54:43 GMT 55.879944 -2.988032 5,950 349 230 -1664
2021-09-17 09:54:41 GMT 55.878845 -2.987615 5,975 349 230 -1664
2021-09-17 09:54:40 GMT 55.877838 -2.987282 6,000 349 230 -1600
2021-09-17 09:54:39 GMT 55.875778 -2.986533 6,050 349 231 -1408
2021-09-17 09:54:36 GMT 55.872437 -2.985368 6,125 349 231 -1280
2021-09-17 09:54:33 GMT 55.870285 -2.984619 6,175 349 232 -1280
2021-09-17 09:54:31 GMT 55.868134 -2.983818 6,200 349 233 -1280
2021-09-17 09:54:30 GMT 55.866920 -2.983389 6,225 349 233 -1280
2021-09-17 09:54:28 GMT 55.864037 -2.982359 6,275 349 234 -1280
2021-09-17 09:54:27 GMT 55.864037 -2.982359 6,300 349 234 -1344
2021-09-17 09:54:26 GMT 55.862545 -2.981844 6,325 349 235 -1280
2021-09-17 09:54:25 GMT 55.860397 -2.981040 6,375 349 236 -1216
2021-09-17 09:54:23 GMT 55.859379 -2.980728 6,375 349 236 -1216
2021-09-17 09:54:21 GMT 55.857239 -2.979956 6,425 349 238 -1152
2021-09-17 09:54:19 GMT 55.853897 -2.978710 6,475 349 239 -1216
2021-09-17 09:54:16 GMT 55.849594 -2.977212 6,575 349 240 -1344
2021-09-17 09:54:14 GMT 55.849594 -2.977212 6,575 349 240 -1472
2021-09-17 09:54:11 GMT 55.846996 -2.976265 6,625 349 241 -1472
2021-09-17 09:54:09 GMT 55.845383 -2.975714 6,650 349 242 -1408
2021-09-17 09:54:08 GMT 55.843597 -2.975063 6,700 349 245 -768
2021-09-17 09:54:06 GMT 55.840942 -2.974132 6,725 349 245 -768
2021-09-17 09:54:05 GMT 55.839935 -2.973716 6,725 349 247 -640
2021-09-17 09:54:04 GMT 55.838745 -2.973300 6,750 349 250 -576
2021-09-17 09:54:03 GMT 55.836182 -2.972384 6,775 349 251 -576
2021-09-17 09:54:00 GMT 55.834900 -2.971968 6,775 349 252 -576
2021-09-17 09:53:59 GMT 55.831558 -2.970720 6,800 349 255 -640
2021-09-17 09:53:57 GMT 55.830891 -2.970514 6,825 349 255 -704
2021-09-17 09:53:55 GMT 55.828995 -2.969804 6,825 349 256 -832
2021-09-17 09:53:53 GMT 55.826935 -2.969055 6,850 349 258 -960
2021-09-17 09:53:52 GMT 55.825817 -2.968626 6,900 349 258 -1024
2021-09-17 09:53:50 GMT 55.823364 -2.967723 6,900 349 259 -960
2021-09-17 09:53:49 GMT 55.822090 -2.967253 6,925 349 261 -704
2021-09-17 09:53:47 GMT 55.819519 -2.966392 6,975 349 262 -384
2021-09-17 09:53:43 GMT 55.812687 -2.963991 7,000 349 264 -384
2021-09-17 09:53:41 GMT 55.812687 -2.963991 7,000 349 264 -320
2021-09-17 09:53:40 GMT 55.811508 -2.963562 7,000 349 265 -320
2021-09-17 09:53:37 GMT 55.807709 -2.962230 7,025 349 268 -384
2021-09-17 09:53:35 GMT 55.805237 -2.961315 7,025 349 269 -448
2021-09-17 09:53:34 GMT 55.803844 -2.960815 7,050 349 269 -448
2021-09-17 09:53:31 GMT 55.799789 -2.959401 7,075 349 272 -512
2021-09-17 09:53:28 GMT 55.795509 -2.957811 7,100 349 274 -448
2021-09-17 09:53:25 GMT 55.793880 -2.957211 7,100 349 275 -448
2021-09-17 09:53:24 GMT 55.791508 -2.956352 7,125 349 277 -512
2021-09-17 09:53:21 GMT 55.788162 -2.955156 7,150 349 278 -640
2021-09-17 09:53:19 GMT 55.785553 -2.954240 7,175 349 279 -832
2021-09-17 09:53:18 GMT 55.784225 -2.953741 7,175 349 280 -960
2021-09-17 09:53:17 GMT 55.781822 -2.952919 7,225 349 280 -1088
2021-09-17 09:53:15 GMT 55.780792 -2.952492 7,275 349 281 -1216
2021-09-17 09:53:13 GMT 55.774513 -2.950258 7,325 349 282 -1216
2021-09-17 09:53:10 GMT 55.774513 -2.950258 7,375 349 283 -1088
2021-09-17 09:53:08 GMT 55.771317 -2.949080 7,375 349 283 -1088
2021-09-17 09:53:06 GMT 55.768742 -2.948112 7,425 349 283 -960
2021-09-17 09:53:04 GMT 55.767288 -2.947582 7,475 349 284 -896
2021-09-17 09:53:01 GMT 55.763214 -2.946084 7,475 349 286 -768
2021-09-17 09:52:59 GMT 55.759598 -2.944752 7,550 348 288 -512
2021-09-17 09:52:56 GMT 55.755802 -2.943306 7,550 348 288 -512
2021-09-17 09:52:55 GMT 55.754498 -2.942791 7,550 348 289 -448
2021-09-17 09:52:53 GMT 55.749390 -2.940840 7,575 348 289 -576
2021-09-17 09:52:51 GMT 55.749390 -2.940840 7,575 348 290 -768
2021-09-17 09:52:49 GMT 55.746643 -2.939758 7,625 348 290 -1024
2021-09-17 09:52:48 GMT 55.745407 -2.939259 7,625 348 289 -1216
2021-09-17 09:52:47 GMT 55.743942 -2.938676 7,650 348 289 -1408
2021-09-17 09:52:45 GMT 55.741791 -2.937813 7,775 348 289 -1920
2021-09-17 09:52:43 GMT 55.738625 -2.936611 7,775 348 288 -2048
2021-09-17 09:52:42 GMT 55.737305 -2.936096 7,825 348 287 -2368
2021-09-17 09:52:41 GMT 55.736023 -2.935597 7,850 348 287 -2368
2021-09-17 09:52:40 GMT 55.734669 -2.935066 7,900 348 287 -2368
2021-09-17 09:52:38 GMT 55.732086 -2.934099 7,975 348 287 -2368
2021-09-17 09:52:37 GMT 55.729313 -2.933006 8,050 348 286 -2048
2021-09-17 09:52:35 GMT 55.728569 -2.932749 8,075 348 286 -1856
2021-09-17 09:52:33 GMT 55.725914 -2.931719 8,125 348 286 -1792
2021-09-17 09:52:32 GMT 55.724304 -2.931186 8,175 348 287 -1408
2021-09-17 09:52:31 GMT 55.723076 -2.930689 8,175 348 288 -1088
2021-09-17 09:52:28 GMT 55.719177 -2.929271 8,225 348 289 -640
2021-09-17 09:52:27 GMT 55.715561 -2.927856 8,250 348 290 -576
2021-09-17 09:52:25 GMT 55.715561 -2.927856 8,250 348 291 -576
2021-09-17 09:52:24 GMT 55.710983 -2.926109 8,275 348 291 -640
2021-09-17 09:52:22 GMT 55.710983 -2.926109 8,275 348 291 -704
2021-09-17 09:52:20 GMT 55.708317 -2.925024 8,325 348 293 -832
2021-09-17 09:52:18 GMT 55.706177 -2.924252 8,325 348 294 -960
2021-09-17 09:52:16 GMT 55.703430 -2.923112 8,375 348 294 -1024
2021-09-17 09:52:15 GMT 55.702286 -2.922696 8,375 348 295 -1024
2021-09-17 09:52:14 GMT 55.699310 -2.921531 8,425 348 295 -1024
2021-09-17 09:52:12 GMT 55.698029 -2.920948 8,450 348 296 -1024
2021-09-17 09:52:11 GMT 55.696495 -2.920389 8,450 348 296 -1024
2021-09-17 09:52:09 GMT 55.693935 -2.919359 8,500 348 296 -960
2021-09-17 09:52:08 GMT 55.692490 -2.918784 8,525 348 296 -960
2021-09-17 09:52:07 GMT 55.691002 -2.918243 8,525 348 297 -960
2021-09-17 09:52:03 GMT 55.686020 -2.916355 8,575 348 297 -1024
2021-09-17 09:52:02 GMT 55.684578 -2.915754 8,625 349 299 -960
2021-09-17 09:52:01 GMT 55.683289 -2.915289 8,625 349 299 -960
2021-09-17 09:51:59 GMT 55.680573 -2.914295 8,675 349 300 -1024
2021-09-17 09:51:58 GMT 55.679409 -2.913866 8,675 349 300 -1088
2021-09-17 09:51:57 GMT 55.677502 -2.913094 8,700 349 300 -1152
2021-09-17 09:51:54 GMT 55.674500 -2.912043 8,750 349 300 -1280
2021-09-17 09:51:52 GMT 55.670937 -2.910690 8,825 349 300 -1664
2021-09-17 09:51:50 GMT 55.668098 -2.909660 8,875 349 300 -1920
2021-09-17 09:51:48 GMT 55.664047 -2.908201 9,000 349 299 -2304
2021-09-17 09:51:44 GMT 55.660507 -2.906914 9,100 349 298 -2368
2021-09-17 09:51:42 GMT 55.657242 -2.905717 9,200 349 298 -2368
2021-09-17 09:51:39 GMT 55.652390 -2.903970 9,375 349 298 -2112
2021-09-17 09:51:36 GMT 55.649551 -2.902888 9,400 349 298 -1984
2021-09-17 09:51:34 GMT 55.645191 -2.901335 9,500 349 298 -1920
2021-09-17 09:51:32 GMT 55.643829 -2.900807 9,525 349 298 -1920
2021-09-17 09:51:31 GMT 55.642410 -2.900307 9,575 349 298 -1920
2021-09-17 09:51:29 GMT 55.639702 -2.899275 9,625 349 299 -1984
2021-09-17 09:51:28 GMT 55.638351 -2.898846 9,675 349 299 -1984
2021-09-17 09:51:27 GMT 55.636917 -2.898310 9,700 349 299 -1984
2021-09-17 09:51:26 GMT 55.634171 -2.897311 9,775 349 299 -2048
2021-09-17 09:51:23 GMT 55.631470 -2.896312 9,825 349 300 -2112
2021-09-17 09:51:21 GMT 55.629272 -2.895480 9,900 349 300 -2112
2021-09-17 09:51:20 GMT 55.627808 -2.894981 9,925 349 300 -2112
2021-09-17 09:51:18 GMT 55.625153 -2.893982 10,000 348 300 -2176
2021-09-17 09:51:17 GMT 55.623360 -2.893353 10,050 348 300 -2176
2021-09-17 09:51:16 GMT 55.622086 -2.892817 10,075 348 300 -2240
2021-09-17 09:51:15 GMT 55.619171 -2.891722 10,150 348 300 -2240
2021-09-17 09:51:13 GMT 55.618378 -2.891464 10,175 348 300 -2112
2021-09-17 09:51:12 GMT 55.613846 -2.889737 10,250 348 301 -1664
2021-09-17 09:51:10 GMT 55.613846 -2.889737 10,275 348 302 -1472
2021-09-17 09:51:09 GMT 55.612328 -2.889147 10,300 348 302 -1152
2021-09-17 09:51:07 GMT 55.609955 -2.888203 10,350 348 304 -896
2021-09-17 09:51:05 GMT 55.607071 -2.887074 10,375 348 304 -896
2021-09-17 09:51:03 GMT 55.604187 -2.885992 10,400 348 305 -896
2021-09-17 09:51:02 GMT 55.602692 -2.885456 10,425 348 306 -896
2021-09-17 09:51:01 GMT 55.601433 -2.884941 10,425 348 307 -960
2021-09-17 09:51:00 GMT 55.598736 -2.883911 10,475 348 307 -960
2021-09-17 09:50:58 GMT 55.597412 -2.883412 10,475 348 308 -1152
2021-09-17 09:50:56 GMT 55.595444 -2.882579 10,500 348 308 -1152
2021-09-17 09:50:55 GMT 55.593426 -2.881851 10,550 348 308 -1216
2021-09-17 09:50:52 GMT 55.587700 -2.879448 10,625 346 309 -1472
2021-09-17 09:50:50 GMT 55.586212 -2.878847 10,650 346 309 -1536
2021-09-17 09:50:49 GMT 55.585007 -2.878335 10,675 345 309 -1600
2021-09-17 09:50:46 GMT 55.581604 -2.876616 10,750 343 308 -1664
2021-09-17 09:50:45 GMT 55.579742 -2.875588 10,800 341 308 -1664
2021-09-17 09:50:44 GMT 55.576447 -2.873424 10,850 338 308 -1600
2021-09-17 09:50:42 GMT 55.575691 -2.872925 10,875 336 308 -1472
2021-09-17 09:50:40 GMT 55.572464 -2.870178 10,925 333 307 -1344
2021-09-17 09:50:38 GMT 55.570152 -2.868032 10,975 330 308 -1344
2021-09-17 09:50:34 GMT 55.566330 -2.863770 11,050 325 307 -1472
2021-09-17 09:50:32 GMT 55.564636 -2.861606 11,075 322 307 -1536
2021-09-17 09:50:30 GMT 55.562935 -2.859192 11,125 320 306 -1536
2021-09-17 09:50:29 GMT 55.560883 -2.856029 11,150 319 306 -1600
2021-09-17 09:50:27 GMT 55.559258 -2.853441 11,300 316 306 -1856
2021-09-17 09:50:25 GMT 55.556000 -2.847691 11,325 315 304 -2112
2021-09-17 09:50:23 GMT 55.555069 -2.846042 11,475 315 304 -2240
2021-09-17 09:50:21 GMT 55.553066 -2.842455 11,475 315 304 -2240
2021-09-17 09:50:20 GMT 55.552094 -2.840632 11,475 315 303 -2432
2021-09-17 09:50:19 GMT 55.549484 -2.835971 11,625 315 301 -2688
2021-09-17 09:50:16 GMT 55.547882 -2.833058 11,675 315 301 -2880
2021-09-17 09:50:15 GMT 55.546875 -2.831227 11,725 315 299 -3008
2021-09-17 09:50:14 GMT 55.546314 -2.830267 11,750 315 298 -3008
2021-09-17 09:50:12 GMT 55.541977 -2.822488 11,925 315 296 -2752
2021-09-17 09:50:10 GMT 55.541977 -2.822488 11,950 315 295 -2624
2021-09-17 09:50:08 GMT 55.540466 -2.819824 12,100 315 294 -2304
2021-09-17 09:50:06 GMT 55.538403 -2.816019 12,100 315 294 -2112
2021-09-17 09:50:05 GMT 55.537308 -2.814081 12,150 315 294 -1984
2021-09-17 09:50:04 GMT 55.536354 -2.812328 12,175 315 294 -1792
2021-09-17 09:50:01 GMT 55.532909 -2.806234 12,300 315 295 -1088
2021-09-17 09:49:58 GMT 55.530491 -2.801943 12,350 315 296 -1088
2021-09-17 09:49:55 GMT 55.527695 -2.796853 12,350 315 296 -1024
2021-09-17 09:49:54 GMT 55.526642 -2.795022 12,375 315 297 -1088
2021-09-17 09:49:53 GMT 55.525635 -2.793191 12,425 315 299 -1088
2021-09-17 09:49:51 GMT 55.524078 -2.790444 12,450 315 299 -1088
2021-09-17 09:49:50 GMT 55.522614 -2.787864 12,450 315 299 -1088
2021-09-17 09:49:48 GMT 55.518852 -2.781258 12,500 315 301 -1088
2021-09-17 09:49:46 GMT 55.518852 -2.781258 12,525 315 301 -1088
2021-09-17 09:49:45 GMT 55.517944 -2.779624 12,525 315 301 -1088
2021-09-17 09:49:43 GMT 55.515793 -2.775796 12,600 315 302 -1152
2021-09-17 09:49:41 GMT 55.513264 -2.771301 12,625 315 304 -1088
2021-09-17 09:49:39 GMT 55.512333 -2.769670 12,625 315 304 -1088
2021-09-17 09:49:38 GMT 55.511215 -2.767782 12,650 315 305 -1088
2021-09-17 09:49:35 GMT 55.508282 -2.762547 12,700 315 306 -1024
2021-09-17 09:49:34 GMT 55.506912 -2.760148 12,725 315 307 -960
2021-09-17 09:49:32 GMT 55.505302 -2.757311 12,775 315 307 -960
2021-09-17 09:49:31 GMT 55.502277 -2.751904 12,800 315 309 -896
2021-09-17 09:49:29 GMT 55.502277 -2.751904 12,825 315 309 -896
2021-09-17 09:49:28 GMT 55.500183 -2.748213 12,875 315 311 -832
2021-09-17 09:49:25 GMT 55.497803 -2.744085 12,875 315 311 -832
2021-09-17 09:49:24 GMT 55.495010 -2.739008 12,900 315 312 -832
2021-09-17 09:49:22 GMT 55.495010 -2.739008 12,925 315 313 -960
2021-09-17 09:49:21 GMT 55.492828 -2.735252 12,950 315 313 -960
2021-09-17 09:49:19 GMT 55.491806 -2.733348 13,000 315 316 -1408
2021-09-17 09:49:17 GMT 55.489655 -2.729520 13,000 315 316 -1408
2021-09-17 09:49:15 GMT 55.487549 -2.725775 13,050 315 316 -1408
2021-09-17 09:49:13 GMT 55.484711 -2.720614 13,125 315 315 -1920
2021-09-17 09:49:11 GMT 55.483566 -2.718617 13,200 315 315 -2240
2021-09-17 09:49:10 GMT 55.482559 -2.716786 13,200 315 315 -2240
2021-09-17 09:49:08 GMT 55.480728 -2.713457 13,275 315 316 -2240
2021-09-17 09:49:06 GMT 55.478676 -2.709761 13,350 315 316 -2240
2021-09-17 09:49:05 GMT 55.477604 -2.707787 13,375 315 316 -2176
2021-09-17 09:49:03 GMT 55.475277 -2.703667 13,450 315 316 -2176
2021-09-17 09:49:01 GMT 55.473404 -2.700306 13,500 315 316 -2112
2021-09-17 09:49:00 GMT 55.472065 -2.697830 13,575 315 316 -2048
2021-09-17 09:48:59 GMT 55.471161 -2.696228 13,600 315 318 -1984
2021-09-17 09:48:57 GMT 55.469227 -2.692766 13,650 315 318 -1920
2021-09-17 09:48:56 GMT 55.468185 -2.690901 13,700 315 318 -1920
2021-09-17 09:48:55 GMT 55.467133 -2.689070 13,725 315 319 -1920
2021-09-17 09:48:54 GMT 55.466034 -2.687073 13,750 315 319 -1920
2021-09-17 09:48:53 GMT 55.463882 -2.683244 13,825 315 320 -1856
2021-09-17 09:48:51 GMT 55.462803 -2.681265 13,850 315 321 -1856
2021-09-17 09:48:49 GMT 55.460659 -2.677488 13,925 315 321 -1856
2021-09-17 09:48:48 GMT 55.459625 -2.675670 13,950 315 321 -1856
2021-09-17 09:48:47 GMT 55.458481 -2.673590 14,000 315 322 -1856
2021-09-17 09:48:45 GMT 55.456467 -2.670011 14,050 315 322 -1920
2021-09-17 09:48:44 GMT 55.455414 -2.668180 14,100 315 322 -1920
2021-09-17 09:48:43 GMT 55.453400 -2.664601 14,100 315 323 -1920
2021-09-17 09:48:41 GMT 55.452374 -2.662725 14,175 315 323 -1920
2021-09-17 09:48:40 GMT 55.451397 -2.661009 14,200 315 323 -1920
2021-09-17 09:48:39 GMT 55.450378 -2.659191 14,225 315 323 -1920
2021-09-17 09:48:38 GMT 55.448227 -2.655445 14,300 315 325 -1984
2021-09-17 09:48:36 GMT 55.447174 -2.653614 14,325 315 325 -1984
2021-09-17 09:48:33 GMT 55.444107 -2.648204 14,425 316 325 -1984
2021-09-17 09:48:32 GMT 55.443008 -2.646251 14,475 316 325 -1984
2021-09-17 09:48:29 GMT 55.440269 -2.641546 14,550 316 327 -1920
2021-09-17 09:48:28 GMT 55.438732 -2.638799 14,600 316 327 -1920
2021-09-17 09:48:27 GMT 55.437469 -2.636557 14,625 315 328 -1920
2021-09-17 09:48:25 GMT 55.435287 -2.632807 14,700 315 328 -1984
2021-09-17 09:48:23 GMT 55.433258 -2.629125 14,775 315 328 -2176
2021-09-17 09:48:21 GMT 55.431061 -2.625329 14,850 315 328 -2368
2021-09-17 09:48:19 GMT 55.427902 -2.619755 15,000 315 328 -2560
2021-09-17 09:48:16 GMT 55.425293 -2.615231 15,075 315 328 -2432
2021-09-17 09:48:14 GMT 55.423653 -2.612249 15,125 315 328 -2368
2021-09-17 09:48:12 GMT 55.421043 -2.607755 15,225 315 328 -2368
2021-09-17 09:48:10 GMT 55.419323 -2.604675 15,300 315 328 -2368
2021-09-17 09:48:08 GMT 55.416046 -2.598913 15,400 315 327 -2496
2021-09-17 09:48:06 GMT 55.415085 -2.597136 15,500 315 327 -2624
2021-09-17 09:48:04 GMT 55.412888 -2.593339 15,600 315 327 -2688
2021-09-17 09:48:03 GMT 55.411926 -2.591642 15,625 315 327 -2816
2021-09-17 09:48:01 GMT 55.409733 -2.587696 15,700 315 326 -2944
2021-09-17 09:48:00 GMT 55.408676 -2.585907 15,800 315 325 -3008
2021-09-17 09:47:59 GMT 55.407639 -2.584034 15,800 315 325 -2944
2021-09-17 09:47:57 GMT 55.405426 -2.580091 15,875 315 325 -2816
2021-09-17 09:47:56 GMT 55.404465 -2.578394 15,925 315 324 -2752
2021-09-17 09:47:55 GMT 55.402313 -2.574598 16,025 315 324 -2688
2021-09-17 09:47:53 GMT 55.401260 -2.572740 16,075 316 324 -2688
2021-09-17 09:47:52 GMT 55.400234 -2.570967 16,100 316 324 -2752
2021-09-17 09:47:50 GMT 55.397953 -2.566972 16,200 316 323 -2752
2021-09-17 09:47:49 GMT 55.396885 -2.565058 16,250 316 323 -2816
2021-09-17 09:47:47 GMT 55.394741 -2.561313 16,350 316 323 -2944
2021-09-17 09:47:46 GMT 55.393616 -2.559411 16,400 316 321 -2944
2021-09-17 09:47:45 GMT 55.392654 -2.557795 16,450 316 321 -2944
2021-09-17 09:47:43 GMT 55.390686 -2.554402 16,550 316 321 -2816
2021-09-17 09:47:42 GMT 55.389713 -2.552740 16,600 316 321 -2688
2021-09-17 09:47:41 GMT 55.388306 -2.550282 16,650 317 321 -2624
2021-09-17 09:47:39 GMT 55.386688 -2.547580 16,725 317 321 -2432
2021-09-17 09:47:38 GMT 55.385559 -2.545597 16,775 317 321 -2432
2021-09-17 09:47:37 GMT 55.383476 -2.542170 16,850 317 320 -2560
2021-09-17 09:47:34 GMT 55.381760 -2.539215 16,900 317 319 -2624
2021-09-17 09:47:33 GMT 55.380661 -2.537357 16,950 317 319 -2752
2021-09-17 09:47:32 GMT 55.379566 -2.535511 17,100 317 318 -3072
2021-09-17 09:47:30 GMT 55.376770 -2.530814 17,100 317 318 -3136
2021-09-17 09:47:29 GMT 55.375671 -2.528956 17,200 317 316 -3136
2021-09-17 09:47:28 GMT 55.374710 -2.527340 17,225 317 316 -3136
2021-09-17 09:47:27 GMT 55.373611 -2.525482 17,300 317 316 -3136
2021-09-17 09:47:25 GMT 55.371460 -2.521928 17,400 318 315 -3136
2021-09-17 09:47:23 GMT 55.369263 -2.518373 17,500 318 315 -3008
2021-09-17 09:47:20 GMT 55.364914 -2.511265 17,700 318 314 -2624
2021-09-17 09:47:18 GMT 55.363953 -2.509730 17,725 318 314 -2368
2021-09-17 09:47:17 GMT 55.362900 -2.508046 17,750 318 314 -2112
2021-09-17 09:47:15 GMT 55.360851 -2.504633 17,825 317 314 -1664
2021-09-17 09:47:13 GMT 55.357681 -2.499390 17,875 317 314 -1600
2021-09-17 09:47:11 GMT 55.356709 -2.497892 17,975 317 314 -1536
2021-09-17 09:47:09 GMT 55.353424 -2.492442 18,000 317 314 -1344
2021-09-17 09:47:07 GMT 55.352287 -2.490484 18,025 316 314 -1280
2021-09-17 09:47:06 GMT 55.351074 -2.488487 18,050 316 315 -1152
2021-09-17 09:47:05 GMT 55.349121 -2.485091 18,100 315 315 -960
2021-09-17 09:47:03 GMT 55.348099 -2.483326 18,100 315 315 -896
2021-09-17 09:47:02 GMT 55.347214 -2.481745 18,125 315 316 -832
2021-09-17 09:47:00 GMT 55.344746 -2.477334 18,150 315 318 -704
2021-09-17 09:46:59 GMT 55.343765 -2.475559 18,175 315 317 -768
2021-09-17 09:46:57 GMT 55.341766 -2.472007 18,175 314 318 -768
2021-09-17 09:46:55 GMT 55.340694 -2.470010 18,200 314 318 -960
2021-09-17 09:46:54 GMT 55.339577 -2.467929 18,225 314 319 -1088
2021-09-17 09:46:53 GMT 55.338638 -2.466269 18,275 314 320 -1024
2021-09-17 09:46:51 GMT 55.336086 -2.461603 18,300 314 320 -1024
2021-09-17 09:46:50 GMT 55.334976 -2.459564 18,300 313 322 -896
2021-09-17 09:46:48 GMT 55.333385 -2.456526 18,325 312 321 -960
2021-09-17 09:46:47 GMT 55.332230 -2.454233 18,350 312 321 -1024
2021-09-17 09:46:46 GMT 55.331360 -2.452617 18,375 311 322 -1152
2021-09-17 09:46:43 GMT 55.325985 -2.441046 18,500 309 322 -1536
2021-09-17 09:46:41 GMT 55.325985 -2.441046 18,500 311 322 -1728
2021-09-17 09:46:39 GMT 55.324081 -2.436945 18,575 312 323 -1920
2021-09-17 09:46:37 GMT 55.322754 -2.434360 18,625 314 322 -2240
2021-09-17 09:46:35 GMT 55.318115 -2.425731 18,800 315 321 -2752
2021-09-17 09:46:33 GMT 55.318115 -2.425731 18,825 315 320 -3072
2021-09-17 09:46:32 GMT 55.317093 -2.423900 18,875 315 318 -3200
2021-09-17 09:46:31 GMT 55.316071 -2.422069 18,925 315 317 -3264
2021-09-17 09:46:30 GMT 55.315063 -2.420304 18,975 315 316 -3264
2021-09-17 09:46:28 GMT 55.312996 -2.416659 19,075 315 315 -3264
2021-09-17 09:46:26 GMT 55.311878 -2.414662 19,150 315 313 -3264
2021-09-17 09:46:25 GMT 55.310715 -2.412630 19,200 315 313 -3264
2021-09-17 09:46:24 GMT 55.309662 -2.410772 19,250 315 312 -3264
2021-09-17 09:46:21 GMT 55.306183 -2.404633 19,525 315 309 -3200
2021-09-17 09:46:19 GMT 55.303619 -2.400109 19,550 315 306 -2880
2021-09-17 09:46:16 GMT 55.301651 -2.396635 19,650 315 306 -2880
2021-09-17 09:46:15 GMT 55.300194 -2.394021 19,725 315 305 -2688
2021-09-17 09:46:14 GMT 55.298859 -2.391627 19,775 315 304 -2432
2021-09-17 09:46:13 GMT 55.297897 -2.389930 19,800 315 304 -2240
2021-09-17 09:46:12 GMT 55.296982 -2.388315 19,825 315 303 -2048
2021-09-17 09:46:10 GMT 55.294968 -2.384760 19,900 315 303 -1664
2021-09-17 09:46:09 GMT 55.293957 -2.383034 19,925 315 304 -1216
2021-09-17 09:46:07 GMT 55.289070 -2.374379 19,975 315 304 -512
2021-09-17 09:46:04 GMT 55.287964 -2.372481 19,975 315 308 0
2021-09-17 09:46:02 GMT 55.285172 -2.367554 19,975 315 308 0
2021-09-17 09:46:00 GMT 55.285172 -2.367554 19,975 315 308 0
2021-09-17 09:45:57 GMT 55.282181 -2.362393 19,975 315 309 0
2021-09-17 09:45:54 GMT 55.279495 -2.357698 19,975 316 311 0
2021-09-17 09:45:53 GMT 55.276218 -2.351907 19,975 316 311 0
2021-09-17 09:45:51 GMT 55.276218 -2.351907 19,975 316 313 0
2021-09-17 09:45:50 GMT 55.275009 -2.349826 19,975 316 314 64
2021-09-17 09:45:49 GMT 55.273937 -2.347995 19,975 316 316 64
2021-09-17 09:45:48 GMT 55.270725 -2.342335 19,975 316 318 0
2021-09-17 09:45:46 GMT 55.270725 -2.342335 19,975 316 319 0
2021-09-17 09:45:45 GMT 55.269562 -2.340411 19,975 316 320 64
2021-09-17 09:45:44 GMT 55.267982 -2.337591 19,975 316 322 128
2021-09-17 09:45:42 GMT 55.266861 -2.335645 19,975 316 323 128
2021-09-17 09:45:40 GMT 55.264675 -2.331848 19,975 316 324 128
2021-09-17 09:45:39 GMT 55.263657 -2.330071 19,950 316 326 64
2021-09-17 09:45:38 GMT 55.262421 -2.327971 19,950 316 328 64
2021-09-17 09:45:36 GMT 55.260204 -2.324108 19,950 316 330 0
2021-09-17 09:45:35 GMT 55.259171 -2.322235 19,950 316 330 0
2021-09-17 09:45:34 GMT 55.257111 -2.318681 19,975 316 332 -64
2021-09-17 09:45:32 GMT 55.256058 -2.316823 19,975 316 334 -64
2021-09-17 09:45:31 GMT 55.254593 -2.314318 19,975 316 335 -64
2021-09-17 09:45:30 GMT 55.252625 -2.310926 19,975 316 336 -64
2021-09-17 09:45:27 GMT 55.250290 -2.306887 19,975 307 337 -960
2021-09-17 09:45:25 GMT 55.248287 -2.303467 19,975 316 338 0
2021-09-17 09:45:23 GMT 55.245960 -2.299472 19,975 316 338 -128
2021-09-17 09:45:22 GMT 55.244610 -2.297141 20,000 315 338 -192
2021-09-17 09:45:20 GMT 55.242371 -2.293234 20,000 314 338 -448
2021-09-17 09:45:19 GMT 55.241352 -2.291398 20,000 314 338 -576
2021-09-17 09:45:16 GMT 55.236885 -2.283076 20,075 312 338 -1024
2021-09-17 09:45:14 GMT 55.235779 -2.280875 20,075 312 338 -960
2021-09-17 09:45:13 GMT 55.234882 -2.279080 20,100 311 338 -960
2021-09-17 09:45:10 GMT 55.231705 -2.272635 20,150 310 338 -960
2021-09-17 09:45:08 GMT 55.230103 -2.269161 20,175 309 338 -960
2021-09-17 09:45:07 GMT 55.229111 -2.267012 20,200 308 338 -960
2021-09-17 09:45:06 GMT 55.227806 -2.264099 20,225 308 338 -960
2021-09-17 09:45:05 GMT 55.227219 -2.262860 20,225 307 338 -960
2021-09-17 09:45:04 GMT 55.225246 -2.258273 20,250 307 337 -960
2021-09-17 09:45:02 GMT 55.224289 -2.256075 20,275 306 337 -1024
2021-09-17 09:45:01 GMT 55.223419 -2.253894 20,300 306 337 -1024
2021-09-17 09:44:59 GMT 55.221451 -2.248966 20,325 305 337 -1024
2021-09-17 09:44:58 GMT 55.220497 -2.246621 20,350 304 336 -1024
2021-09-17 09:44:56 GMT 55.218914 -2.242459 20,375 303 337 -1024
2021-09-17 09:44:55 GMT 55.218063 -2.240080 20,400 302 337 -1024
2021-09-17 09:44:54 GMT 55.217194 -2.237715 20,425 302 337 -1024
2021-09-17 09:44:53 GMT 55.216507 -2.235718 20,425 301 337 -960
2021-09-17 09:44:51 GMT 55.214912 -2.231057 20,475 300 337 -1024
2021-09-17 09:44:50 GMT 55.214073 -2.228560 20,475 300 337 -1024
2021-09-17 09:44:49 GMT 55.212444 -2.223566 20,525 300 338 -1024
2021-09-17 09:44:47 GMT 55.211559 -2.220820 20,550 300 338 -1024
2021-09-17 09:44:46 GMT 55.210861 -2.218656 20,550 300 338 -1024
2021-09-17 09:44:44 GMT 55.209324 -2.213995 20,575 300 338 -1088
2021-09-17 09:44:43 GMT 55.208580 -2.211664 20,625 300 339 -1088
2021-09-17 09:44:42 GMT 55.207741 -2.209001 20,625 300 339 -1152
2021-09-17 09:44:40 GMT 55.206207 -2.204340 20,675 300 340 -1280
2021-09-17 09:44:38 GMT 55.204605 -2.199528 20,700 300 340 -1536
2021-09-17 09:44:36 GMT 55.203041 -2.194686 20,775 300 340 -1664
2021-09-17 09:44:34 GMT 55.201550 -2.190108 20,825 300 340 -1664
2021-09-17 09:44:33 GMT 55.200806 -2.187777 20,850 300 340 -1664
2021-09-17 09:44:32 GMT 55.200012 -2.185281 20,875 300 340 -1664
2021-09-17 09:44:30 GMT 55.198334 -2.180301 20,950 300 342 -1664
2021-09-17 09:44:28 GMT 55.197144 -2.176585 21,000 300 342 -1664
2021-09-17 09:44:26 GMT 55.195816 -2.172546 21,000 300 342 -1664
2021-09-17 09:44:24 GMT 55.194241 -2.167719 21,125 300 342 -1728
2021-09-17 09:44:22 GMT 55.192978 -2.163903 21,125 300 342 -1728
2021-09-17 09:44:20 GMT 55.190735 -2.156955 21,200 300 342 -1792
2021-09-17 09:44:17 GMT 55.188236 -2.149492 21,300 300 343 -1792
2021-09-17 09:44:16 GMT 55.185818 -2.142084 21,375 300 343 -1792
2021-09-17 09:44:14 GMT 55.185818 -2.142084 21,400 300 344 -1792
2021-09-17 09:44:12 GMT 55.183456 -2.134983 21,475 300 344 -1728
2021-09-17 09:44:10 GMT 55.182587 -2.132317 21,525 300 344 -1728
2021-09-17 09:44:08 GMT 55.181442 -2.128763 21,575 300 344 -1728
2021-09-17 09:44:07 GMT 55.179703 -2.123512 21,625 301 344 -1728
2021-09-17 09:44:04 GMT 55.178329 -2.119473 21,675 301 344 -1728
2021-09-17 09:44:03 GMT 55.177483 -2.116866 21,725 301 344 -1728
2021-09-17 09:44:00 GMT 55.174576 -2.108163 21,800 301 345 -1664
2021-09-17 09:43:58 GMT 55.173431 -2.104797 21,875 301 345 -1664
2021-09-17 09:43:56 GMT 55.171829 -2.099924 21,900 301 345 -1664
2021-09-17 09:43:55 GMT 55.170914 -2.097177 21,950 301 345 -1664
2021-09-17 09:43:54 GMT 55.170227 -2.095157 21,975 301 345 -1664
2021-09-17 09:43:51 GMT 55.167984 -2.088372 22,025 301 345 -1664
2021-09-17 09:43:50 GMT 55.166702 -2.084656 22,075 301 346 -1664
2021-09-17 09:43:48 GMT 55.165054 -2.079647 22,125 301 346 -1728
2021-09-17 09:43:46 GMT 55.163937 -2.076333 22,175 301 346 -1728
2021-09-17 09:43:45 GMT 55.162674 -2.072619 22,225 301 346 -1728
2021-09-17 09:43:44 GMT 55.161747 -2.069924 22,250 301 346 -1792
2021-09-17 09:43:43 GMT 55.160957 -2.067594 22,275 301 346 -1792
2021-09-17 09:43:42 GMT 55.158863 -2.061351 22,350 301 346 -1792
2021-09-17 09:43:40 GMT 55.157700 -2.057856 22,400 301 347 -1792
2021-09-17 09:43:37 GMT 55.156815 -2.055192 22,425 301 347 -1792
2021-09-17 09:43:36 GMT 55.155697 -2.051946 22,475 301 347 -1728
2021-09-17 09:43:33 GMT 55.153648 -2.045704 22,550 301 347 -1728
2021-09-17 09:43:32 GMT 55.152439 -2.042209 22,600 301 347 -1728
2021-09-17 09:43:30 GMT 55.150543 -2.036510 22,750 301 348 -1728
2021-09-17 09:43:28 GMT 55.147659 -2.028028 22,750 301 348 -1728
2021-09-17 09:43:26 GMT 55.147659 -2.028028 22,750 301 348 -1728
2021-09-17 09:43:25 GMT 55.144775 -2.019384 22,800 301 348 -1728
2021-09-17 09:43:23 GMT 55.144775 -2.019384 22,850 301 348 -1728
2021-09-17 09:43:21 GMT 55.143173 -2.014618 22,950 301 349 -1728
2021-09-17 09:43:19 GMT 55.140568 -2.006836 22,975 301 349 -1728
2021-09-17 09:43:18 GMT 55.140568 -2.006836 23,000 301 349 -1728
2021-09-17 09:43:16 GMT 55.138916 -2.001774 23,075 301 349 -1728
2021-09-17 09:43:14 GMT 55.137726 -1.998263 23,125 301 349 -1728
2021-09-17 09:43:12 GMT 55.136124 -1.993372 23,200 301 349 -1728
2021-09-17 09:43:11 GMT 55.135216 -1.990689 23,200 300 350 -1728
2021-09-17 09:43:09 GMT 55.133678 -1.985945 23,250 300 350 -1728
2021-09-17 09:43:07 GMT 55.132050 -1.981118 23,325 300 350 -1792
2021-09-17 09:43:05 GMT 55.130493 -1.976327 23,375 300 351 -1792
2021-09-17 09:43:03 GMT 55.128662 -1.970592 23,475 299 350 -1792
2021-09-17 09:43:02 GMT 55.127811 -1.967884 23,475 299 351 -1792
2021-09-17 09:43:00 GMT 55.126324 -1.963224 23,575 299 351 -1792
2021-09-17 09:42:59 GMT 55.125412 -1.960252 23,575 299 351 -1792
2021-09-17 09:42:58 GMT 55.123444 -1.953951 23,625 299 352 -1792
2021-09-17 09:42:56 GMT 55.123444 -1.953951 23,650 299 352 -1792
2021-09-17 09:42:55 GMT 55.122620 -1.951285 23,675 299 352 -1792
2021-09-17 09:42:53 GMT 55.120968 -1.945995 23,750 299 352 -1792
2021-09-17 09:42:52 GMT 55.120224 -1.943581 23,775 299 352 -1792
2021-09-17 09:42:51 GMT 55.119385 -1.940918 23,800 299 352 -1792
2021-09-17 09:42:50 GMT 55.117290 -1.934010 23,875 299 353 -1792
2021-09-17 09:42:48 GMT 55.117290 -1.934010 23,875 299 353 -1792
2021-09-17 09:42:47 GMT 55.116501 -1.931430 23,950 299 353 -1792
2021-09-17 09:42:45 GMT 55.114883 -1.926162 23,975 299 353 -1792
2021-09-17 09:42:44 GMT 55.114124 -1.923773 24,000 299 353 -1792
2021-09-17 09:42:42 GMT 55.112457 -1.918407 24,125 299 353 -1792
2021-09-17 09:42:40 GMT 55.110764 -1.912994 24,125 299 353 -1728
2021-09-17 09:42:38 GMT 55.109703 -1.909457 24,175 299 354 -1728
2021-09-17 09:42:37 GMT 55.108658 -1.906047 24,200 299 354 -1728
2021-09-17 09:42:36 GMT 55.107010 -1.900877 24,225 299 354 -1728
2021-09-17 09:42:34 GMT 55.106323 -1.898615 24,300 299 354 -1728
2021-09-17 09:42:33 GMT 55.105637 -1.896353 24,325 299 354 -1728
2021-09-17 09:42:32 GMT 55.104813 -1.893688 24,350 299 354 -1792
2021-09-17 09:42:31 GMT 55.102570 -1.886498 24,425 299 355 -1728
2021-09-17 09:42:28 GMT 55.101379 -1.882701 24,475 299 355 -1728
2021-09-17 09:42:26 GMT 55.099365 -1.876158 24,550 299 356 -1728
2021-09-17 09:42:25 GMT 55.099365 -1.876158 24,550 299 356 -1728
2021-09-17 09:42:24 GMT 55.098267 -1.872523 24,600 299 356 -1728
2021-09-17 09:42:21 GMT 55.096016 -1.865345 24,675 299 356 -1728
2021-09-17 09:42:20 GMT 55.095200 -1.862667 24,725 299 357 -1792
2021-09-17 09:42:19 GMT 55.094387 -1.860019 24,750 299 357 -1792
2021-09-17 09:42:16 GMT 55.092106 -1.852694 24,825 299 357 -1792
2021-09-17 09:42:14 GMT 55.090622 -1.847965 24,875 299 358 -1792
2021-09-17 09:42:13 GMT 55.089752 -1.845138 24,925 299 358 -1792
2021-09-17 09:42:11 GMT 55.088287 -1.840460 24,975 299 358 -1792
2021-09-17 09:42:09 GMT 55.085869 -1.832553 25,100 299 359 -1792
2021-09-17 09:42:07 GMT 55.084305 -1.827527 25,125 299 359 -1792
2021-09-17 09:42:05 GMT 55.083481 -1.825023 25,150 299 359 -1792
2021-09-17 09:42:04 GMT 55.082703 -1.822399 25,200 299 359 -1792
2021-09-17 09:42:03 GMT 55.081787 -1.819530 25,225 299 360 -1792
2021-09-17 09:42:01 GMT 55.080235 -1.814492 25,275 299 360 -1792
2021-09-17 09:42:00 GMT 55.078651 -1.809498 25,350 299 360 -1792
2021-09-17 09:41:58 GMT 55.077850 -1.806847 25,375 299 360 -1792
2021-09-17 09:41:56 GMT 55.076202 -1.801435 25,425 299 360 -1792
2021-09-17 09:41:55 GMT 55.075333 -1.798688 25,475 299 361 -1792
2021-09-17 09:41:53 GMT 55.072136 -1.788441 25,575 299 362 -1856
2021-09-17 09:41:51 GMT 55.072136 -1.788441 25,600 299 362 -1792
2021-09-17 09:41:49 GMT 55.071251 -1.785694 25,600 299 362 -1792
2021-09-17 09:41:48 GMT 55.070572 -1.783420 25,725 299 362 -1792
2021-09-17 09:41:46 GMT 55.068459 -1.776706 25,725 299 362 -1792
2021-09-17 09:41:44 GMT 55.066818 -1.771384 25,800 299 362 -1792
2021-09-17 09:41:43 GMT 55.065903 -1.768476 25,825 299 362 -1792
2021-09-17 09:41:41 GMT 55.064827 -1.764970 25,850 299 362 -1792
2021-09-17 09:41:39 GMT 55.063244 -1.759893 25,925 299 363 -1856
2021-09-17 09:41:37 GMT 55.061428 -1.754150 25,975 299 363 -1856
2021-09-17 09:41:35 GMT 55.059425 -1.747742 26,075 299 364 -1856
2021-09-17 09:41:34 GMT 55.058681 -1.745328 26,100 299 364 -1856
2021-09-17 09:41:33 GMT 55.057842 -1.742665 26,150 299 364 -1856
2021-09-17 09:41:31 GMT 55.056866 -1.739585 26,250 299 364 -1856
2021-09-17 09:41:29 GMT 55.054779 -1.732851 26,250 299 364 -1856
2021-09-17 09:41:28 GMT 55.052353 -1.725186 26,325 299 364 -1856
2021-09-17 09:41:26 GMT 55.052353 -1.725186 26,825 299 365 -1856
2021-09-17 09:41:25 GMT 55.051559 -1.722606 26,375 299 365 -1792
2021-09-17 09:41:22 GMT 55.049606 -1.716291 26,450 299 365 -1792
2021-09-17 09:41:21 GMT 55.048904 -1.714034 26,475 299 365 -1792
2021-09-17 09:41:20 GMT 55.047604 -1.709872 26,500 299 365 -1792
2021-09-17 09:41:18 GMT 55.046391 -1.706044 26,575 299 366 -1792
2021-09-17 09:41:17 GMT 55.045555 -1.703463 26,600 299 366 -1792
2021-09-17 09:41:16 GMT 55.044434 -1.699811 26,625 299 366 -1792
2021-09-17 09:41:15 GMT 55.043552 -1.696972 26,675 299 366 -1792
2021-09-17 09:41:13 GMT 55.041779 -1.691329 26,750 299 366 -1792
2021-09-17 09:41:11 GMT 55.039967 -1.685652 26,800 299 367 -1792
2021-09-17 09:41:10 GMT 55.039177 -1.682989 26,825 299 367 -1792
2021-09-17 09:41:09 GMT 55.036972 -1.676061 26,925 299 367 -1792
2021-09-17 09:41:07 GMT 55.036972 -1.676061 26,925 299 367 -1792
2021-09-17 09:41:06 GMT 55.036057 -1.673153 26,950 299 368 -1792
2021-09-17 09:41:04 GMT 55.034428 -1.668091 27,000 299 368 -1856
2021-09-17 09:41:02 GMT 55.033218 -1.664267 27,050 299 368 -1856
2021-09-17 09:41:01 GMT 55.031982 -1.660390 27,100 299 368 -1856
2021-09-17 09:41:00 GMT 55.031170 -1.657770 27,125 299 368 -1856
2021-09-17 09:40:59 GMT 55.030289 -1.654896 27,175 299 369 -1856
2021-09-17 09:40:57 GMT 55.028610 -1.649697 27,225 299 369 -1856
2021-09-17 09:40:55 GMT 55.025398 -1.639626 27,325 300 369 -1856
2021-09-17 09:40:53 GMT 55.025398 -1.639626 27,350 300 370 -1856
2021-09-17 09:40:52 GMT 55.024658 -1.637367 27,375 300 370 -1856
2021-09-17 09:40:49 GMT 55.022369 -1.630177 27,475 300 371 -1792
2021-09-17 09:40:47 GMT 55.019810 -1.622148 27,575 300 371 -1792
2021-09-17 09:40:45 GMT 55.018982 -1.619514 27,600 300 371 -1856
2021-09-17 09:40:44 GMT 55.018181 -1.617154 27,625 300 371 -1856
2021-09-17 09:40:42 GMT 55.015686 -1.609336 27,675 300 371 -1856
2021-09-17 09:40:41 GMT 55.015686 -1.609336 27,700 300 372 -1856
2021-09-17 09:40:40 GMT 55.014458 -1.605585 27,775 300 372 -1856
2021-09-17 09:40:39 GMT 55.013077 -1.601177 27,800 300 372 -1856
2021-09-17 09:40:37 GMT 55.012207 -1.598511 27,825 300 372 -1856
2021-09-17 09:40:36 GMT 55.011292 -1.595681 27,875 300 372 -1856
2021-09-17 09:40:35 GMT 55.009243 -1.589355 27,950 300 373 -1856
2021-09-17 09:40:33 GMT 55.006989 -1.582274 28,000 300 373 -1856
2021-09-17 09:40:31 GMT 55.006989 -1.582274 28,025 300 373 -1856
2021-09-17 09:40:30 GMT 55.006264 -1.580034 28,050 300 374 -1856
2021-09-17 09:40:28 GMT 55.003601 -1.571772 28,150 300 374 -1856
2021-09-17 09:40:27 GMT 55.003601 -1.571772 28,150 300 375 -1856
2021-09-17 09:40:26 GMT 55.002865 -1.569464 28,175 300 375 -1856
2021-09-17 09:40:24 GMT 55.001190 -1.564220 28,250 300 375 -1920
2021-09-17 09:40:22 GMT 54.999561 -1.559060 28,300 300 375 -1920
2021-09-17 09:40:21 GMT 54.997650 -1.553067 28,375 299 375 -1920
2021-09-17 09:40:19 GMT 54.996918 -1.550849 28,400 299 375 -1920
2021-09-17 09:40:18 GMT 54.996071 -1.548157 28,425 299 375 -1920
2021-09-17 09:40:16 GMT 54.994812 -1.544145 28,500 299 375 -1920
2021-09-17 09:40:15 GMT 54.993416 -1.539751 28,525 299 376 -1920
2021-09-17 09:40:13 GMT 54.992531 -1.537004 28,575 299 376 -1920
2021-09-17 09:40:12 GMT 54.991646 -1.534174 28,600 299 376 -1920
2021-09-17 09:40:11 GMT 54.988632 -1.524595 28,700 299 376 -1856
2021-09-17 09:40:09 GMT 54.988632 -1.524595 28,725 299 376 -1856
2021-09-17 09:40:07 GMT 54.987411 -1.520691 28,750 299 377 -1856
2021-09-17 09:40:05 GMT 54.985733 -1.515447 28,825 299 378 -1856
2021-09-17 09:40:04 GMT 54.984924 -1.512963 28,850 299 378 -1856
2021-09-17 09:40:03 GMT 54.981628 -1.502623 28,950 299 378 -1856
2021-09-17 09:40:00 GMT 54.980850 -1.500118 29,000 299 379 -1920
2021-09-17 09:39:59 GMT 54.979889 -1.497210 29,025 299 379 -1920
2021-09-17 09:39:56 GMT 54.977680 -1.490229 29,125 299 379 -1920
2021-09-17 09:39:54 GMT 54.976318 -1.485901 29,200 299 379 -1920
2021-09-17 09:39:53 GMT 54.975494 -1.483238 29,200 299 379 -1920
2021-09-17 09:39:51 GMT 54.974003 -1.478660 29,325 299 379 -1920
2021-09-17 09:39:49 GMT 54.972282 -1.473250 29,325 299 380 -1856
2021-09-17 09:39:48 GMT 54.971329 -1.470310 29,425 299 380 -1856
2021-09-17 09:39:46 GMT 54.969254 -1.463762 29,450 299 380 -1856
2021-09-17 09:39:43 GMT 54.965157 -1.450778 29,550 299 381 -1856
2021-09-17 09:39:41 GMT 54.965157 -1.450778 29,650 299 381 -1856
2021-09-17 09:39:39 GMT 54.963364 -1.445187 29,650 299 381 -1856
2021-09-17 09:39:38 GMT 54.962585 -1.442763 29,675 299 381 -1856
2021-09-17 09:39:37 GMT 54.961761 -1.440291 29,725 299 381 -1920
2021-09-17 09:39:36 GMT 54.960159 -1.435251 29,750 299 381 -1920
2021-09-17 09:39:34 GMT 54.959339 -1.432551 29,875 299 381 -1920
2021-09-17 09:39:32 GMT 54.957138 -1.425799 29,875 299 382 -1920
2021-09-17 09:39:30 GMT 54.955719 -1.421356 29,925 299 382 -1920
2021-09-17 09:39:27 GMT 54.953247 -1.413520 30,025 299 382 -1920
2021-09-17 09:39:26 GMT 54.952309 -1.410578 30,050 299 383 -1856
2021-09-17 09:39:25 GMT 54.950592 -1.405200 30,125 299 383 -1856
2021-09-17 09:39:22 GMT 54.949036 -1.400272 30,200 299 384 -1856
2021-09-17 09:39:20 GMT 54.947235 -1.394681 30,300 299 384 -1856
2021-09-17 09:39:18 GMT 54.945095 -1.387856 30,325 299 385 -1920
2021-09-17 09:39:17 GMT 54.944641 -1.386378 30,400 299 385 -1920
2021-09-17 09:39:15 GMT 54.942860 -1.380782 30,400 299 385 -1920
2021-09-17 09:39:14 GMT 54.941929 -1.377869 30,450 299 385 -1920
2021-09-17 09:39:12 GMT 54.940292 -1.372645 30,600 299 386 -1920
2021-09-17 09:39:10 GMT 54.938919 -1.368202 30,600 299 386 -1920
2021-09-17 09:39:08 GMT 54.936855 -1.361722 30,625 299 386 -1920
2021-09-17 09:39:07 GMT 54.934341 -1.353815 30,725 299 386 -1920
2021-09-17 09:39:05 GMT 54.934341 -1.353815 30,725 299 386 -1920
2021-09-17 09:39:03 GMT 54.931824 -1.345825 30,825 299 388 -1920
2021-09-17 09:39:01 GMT 54.930943 -1.343079 30,925 299 388 -1920
2021-09-17 09:38:59 GMT 54.929214 -1.337666 30,925 299 388 -1920
2021-09-17 09:38:58 GMT 54.928383 -1.334922 30,950 299 388 -1920
2021-09-17 09:38:57 GMT 54.927078 -1.330761 31,000 299 388 -1984
2021-09-17 09:38:55 GMT 54.923859 -1.320702 31,125 299 388 -1984
2021-09-17 09:38:53 GMT 54.923859 -1.320702 31,125 299 388 -1984
2021-09-17 09:38:51 GMT 54.921261 -1.312533 31,175 299 389 -1984
2021-09-17 09:38:49 GMT 54.920376 -1.309620 31,325 299 390 -1920
2021-09-17 09:38:47 GMT 54.918457 -1.303657 31,325 299 390 -1920
2021-09-17 09:38:46 GMT 54.916698 -1.298051 31,400 299 390 -1920
2021-09-17 09:38:44 GMT 54.915939 -1.295740 31,425 299 390 -1920
2021-09-17 09:38:43 GMT 54.915070 -1.292913 31,500 299 390 -1920
2021-09-17 09:38:41 GMT 54.913284 -1.287339 31,500 299 390 -1920
2021-09-17 09:38:40 GMT 54.912415 -1.284568 31,550 300 391 -1920
2021-09-17 09:38:39 GMT 54.911575 -1.281905 31,600 299 392 -1920
2021-09-17 09:38:37 GMT 54.909946 -1.276828 31,625 299 392 -1920
2021-09-17 09:38:36 GMT 54.908707 -1.272960 31,675 299 392 -1984
2021-09-17 09:38:34 GMT 54.907013 -1.267756 31,750 300 392 -1984
2021-09-17 09:38:32 GMT 54.905293 -1.262346 31,800 300 392 -1984
2021-09-17 09:38:29 GMT 54.902920 -1.254938 31,950 300 393 -1984
2021-09-17 09:38:27 GMT 54.901100 -1.249195 31,975 300 393 -1984
2021-09-17 09:38:26 GMT 54.900284 -1.246706 32,000 300 393 -1984
2021-09-17 09:38:25 GMT 54.899426 -1.244035 32,050 300 394 -1984
2021-09-17 09:38:24 GMT 54.898495 -1.241205 32,050 300 394 -1984
2021-09-17 09:38:22 GMT 54.896633 -1.235379 32,125 300 394 -1920
2021-09-17 09:38:21 GMT 54.895748 -1.232633 32,150 300 394 -1920
2021-09-17 09:38:20 GMT 54.893143 -1.224410 32,250 300 396 -1920
2021-09-17 09:38:18 GMT 54.893143 -1.224410 32,250 300 396 -1920
2021-09-17 09:38:16 GMT 54.891312 -1.218755 32,325 300 396 -1984
2021-09-17 09:38:14 GMT 54.888474 -1.209950 32,400 300 396 -1984
2021-09-17 09:38:13 GMT 54.888474 -1.209950 32,425 300 396 -1984
2021-09-17 09:38:12 GMT 54.886623 -1.204168 32,475 300 397 -1984
2021-09-17 09:38:09 GMT 54.884903 -1.198802 32,550 300 397 -1920
2021-09-17 09:38:08 GMT 54.884392 -1.197177 32,575 300 397 -1920
2021-09-17 09:38:06 GMT 54.882576 -1.191517 32,625 300 398 -1792
2021-09-17 09:38:03 GMT 54.879730 -1.182807 32,725 300 399 -1600
2021-09-17 09:38:02 GMT 54.878769 -1.179819 32,750 300 399 -1600
2021-09-17 09:38:00 GMT 54.876850 -1.173873 32,800 300 399 -1408
2021-09-17 09:37:59 GMT 54.876335 -1.172291 32,850 300 400 -1152
2021-09-17 09:37:57 GMT 54.874420 -1.166247 32,850 300 400 -1152
2021-09-17 09:37:54 GMT 54.872288 -1.159557 32,925 300 401 -1024
2021-09-17 09:37:53 GMT 54.870026 -1.152676 32,925 300 402 -1024
2021-09-17 09:37:51 GMT 54.868698 -1.148475 32,975 300 402 -960
2021-09-17 09:37:50 GMT 54.868191 -1.146823 33,000 300 402 -960
2021-09-17 09:37:49 GMT 54.865398 -1.138333 33,025 300 402 -960
2021-09-17 09:37:46 GMT 54.864372 -1.135087 33,050 300 402 -960
2021-09-17 09:37:45 GMT 54.863487 -1.132341 33,075 300 402 -960
2021-09-17 09:37:44 GMT 54.862518 -1.129330 33,075 300 402 -960
2021-09-17 09:37:42 GMT 54.859909 -1.121171 33,125 300 402 -1024
2021-09-17 09:37:40 GMT 54.859158 -1.118941 33,150 300 402 -960
2021-09-17 09:37:38 GMT 54.857117 -1.112527 33,200 300 402 -960
2021-09-17 09:37:36 GMT 54.855293 -1.106873 33,250 300 402 -960
2021-09-17 09:37:33 GMT 54.852951 -1.099602 33,250 300 402 -960
2021-09-17 09:37:32 GMT 54.851196 -1.094138 33,300 300 403 -960
2021-09-17 09:37:30 GMT 54.850204 -1.091120 33,300 300 403 -960
2021-09-17 09:37:29 GMT 54.848312 -1.085233 33,350 300 403 -960
2021-09-17 09:37:27 GMT 54.847382 -1.082320 33,350 300 403 -960
2021-09-17 09:37:26 GMT 54.844822 -1.074330 33,400 300 403 -960
2021-09-17 09:37:24 GMT 54.843887 -1.071409 33,425 300 403 -960
2021-09-17 09:37:21 GMT 54.842167 -1.066173 33,450 300 403 -960
2021-09-17 09:37:20 GMT 54.841190 -1.063010 33,475 300 403 -960
2021-09-17 09:37:19 GMT 54.840260 -1.060264 33,475 300 403 -960
2021-09-17 09:37:17 GMT 54.838303 -1.054203 33,525 300 403 -960
2021-09-17 09:37:15 GMT 54.836441 -1.048445 33,550 300 403 -960
2021-09-17 09:37:14 GMT 54.835556 -1.045699 33,575 300 403 -1024
2021-09-17 09:37:13 GMT 54.834595 -1.042732 33,625 300 404 -1024
2021-09-17 09:37:11 GMT 54.832672 -1.036835 33,625 300 404 -1024
2021-09-17 09:37:09 GMT 54.830795 -1.031099 33,700 300 404 -1024
2021-09-17 09:37:07 GMT 54.828899 -1.025141 33,700 300 404 -1024
2021-09-17 09:37:05 GMT 54.826244 -1.016984 33,750 300 404 -1024
2021-09-17 09:37:02 GMT 54.823547 -1.008661 33,800 300 404 -1024
2021-09-17 09:37:00 GMT 54.822384 -1.005083 33,800 300 404 -1024
2021-09-17 09:36:58 GMT 54.818939 -0.994346 33,875 300 405 -1024
2021-09-17 09:36:56 GMT 54.818939 -0.994346 33,875 300 405 -1024
2021-09-17 09:36:55 GMT 54.817078 -0.988603 33,900 300 405 -1024
2021-09-17 09:36:53 GMT 54.816147 -0.985700 33,925 300 405 -1024
2021-09-17 09:36:51 GMT 54.814636 -0.981095 33,950 300 405 -1024
2021-09-17 09:36:49 GMT 54.812794 -0.975453 34,000 300 405 -1024
2021-09-17 09:36:47 GMT 54.810093 -0.967047 34,025 300 405 -1024
2021-09-17 09:36:46 GMT 54.810093 -0.967047 34,050 300 405 -1024
2021-09-17 09:36:44 GMT 54.808651 -0.962635 34,075 300 405 -1024
2021-09-17 09:36:43 GMT 54.807301 -0.958474 34,075 300 406 -1024
2021-09-17 09:36:42 GMT 54.806370 -0.955478 34,100 300 406 -1024
2021-09-17 09:36:41 GMT 54.803345 -0.946073 34,150 300 406 -1024
2021-09-17 09:36:39 GMT 54.803345 -0.946073 34,150 300 406 -960
2021-09-17 09:36:38 GMT 54.802414 -0.943209 34,175 300 406 -960
2021-09-17 09:36:36 GMT 54.800766 -0.938039 34,200 300 406 -960
2021-09-17 09:36:35 GMT 54.799896 -0.935336 34,250 300 406 -1024
2021-09-17 09:36:33 GMT 54.797943 -0.929343 34,250 300 406 -960
2021-09-17 09:36:32 GMT 54.796967 -0.926244 34,325 300 406 -960
2021-09-17 09:36:30 GMT 54.795914 -0.923013 34,325 300 406 -960
2021-09-17 09:36:28 GMT 54.793167 -0.914450 34,350 300 406 -1024
2021-09-17 09:36:27 GMT 54.792252 -0.911623 34,375 300 406 -1024
2021-09-17 09:36:26 GMT 54.790356 -0.905789 34,400 300 406 -1024
2021-09-17 09:36:23 GMT 54.788727 -0.900717 34,425 300 406 -1024
2021-09-17 09:36:22 GMT 54.787903 -0.898132 34,450 300 406 -1024
2021-09-17 09:36:21 GMT 54.786987 -0.895386 34,475 300 406 -1024
2021-09-17 09:36:20 GMT 54.786072 -0.892558 34,475 300 406 -1024
2021-09-17 09:36:17 GMT 54.783325 -0.884066 34,525 300 406 -1024
2021-09-17 09:36:15 GMT 54.781265 -0.877775 34,575 300 407 -1024
2021-09-17 09:36:14 GMT 54.780396 -0.874948 34,600 300 407 -1024
2021-09-17 09:36:12 GMT 54.778904 -0.870417 34,600 300 407 -1024
2021-09-17 09:36:10 GMT 54.777466 -0.865981 34,625 300 407 -1024
2021-09-17 09:36:09 GMT 54.776112 -0.861927 34,650 300 407 -1024
2021-09-17 09:36:07 GMT 54.773849 -0.854995 34,700 300 408 -1024
2021-09-17 09:36:05 GMT 54.772064 -0.849421 34,725 300 408 -1024
2021-09-17 09:36:04 GMT 54.771103 -0.846594 34,750 300 409 -1024
2021-09-17 09:36:03 GMT 54.770103 -0.843450 34,775 300 409 -1024
2021-09-17 09:36:01 GMT 54.768150 -0.837541 34,800 300 409 -1024
2021-09-17 09:35:59 GMT 54.766342 -0.832053 34,825 300 409 -1024
2021-09-17 09:35:58 GMT 54.765354 -0.829052 34,850 300 409 -1024
2021-09-17 09:35:57 GMT 54.764519 -0.826472 34,875 300 410 -1024
2021-09-17 09:35:56 GMT 54.762516 -0.820312 34,900 300 410 -1024
2021-09-17 09:35:54 GMT 54.761726 -0.817899 34,925 300 410 -1024
2021-09-17 09:35:53 GMT 54.760796 -0.815069 34,950 300 410 -1024
2021-09-17 09:35:51 GMT 54.758884 -0.809243 34,975 300 410 -1024
2021-09-17 09:35:49 GMT 54.757004 -0.803537 35,000 300 411 -1024
2021-09-17 09:35:48 GMT 54.756001 -0.800421 35,050 300 411 -1024
2021-09-17 09:35:46 GMT 54.753487 -0.792763 35,075 300 411 -1024
2021-09-17 09:35:43 GMT 54.751762 -0.787603 35,125 300 412 -1024
2021-09-17 09:35:41 GMT 54.750038 -0.782277 35,150 300 412 -1024
2021-09-17 09:35:40 GMT 54.749130 -0.779383 35,175 300 412 -1024
2021-09-17 09:35:37 GMT 54.745712 -0.769043 35,225 300 413 -1024
2021-09-17 09:35:35 GMT 54.744141 -0.764277 35,250 300 413 -1024
2021-09-17 09:35:34 GMT 54.742355 -0.758784 35,275 300 413 -1024
2021-09-17 09:35:32 GMT 54.741394 -0.755795 35,300 300 413 -1024
2021-09-17 09:35:31 GMT 54.740402 -0.752896 35,300 300 414 -1024
2021-09-17 09:35:29 GMT 54.739101 -0.748735 35,325 300 414 -1024
2021-09-17 09:35:28 GMT 54.736492 -0.740828 35,375 300 414 -1024
2021-09-17 09:35:26 GMT 54.736492 -0.740828 35,375 300 414 -1024
2021-09-17 09:35:25 GMT 54.734482 -0.734630 35,450 300 415 -1024
2021-09-17 09:35:23 GMT 54.733475 -0.731641 35,450 300 415 -1024
2021-09-17 09:35:22 GMT 54.732491 -0.728510 35,450 300 416 -1024
2021-09-17 09:35:21 GMT 54.730728 -0.723159 35,500 300 416 -1024
2021-09-17 09:35:19 GMT 54.729698 -0.720021 35,525 300 416 -1024
2021-09-17 09:35:18 GMT 54.728767 -0.717108 35,525 300 416 -1024
2021-09-17 09:35:16 GMT 54.726837 -0.711284 35,550 300 417 -1024
2021-09-17 09:35:15 GMT 54.725967 -0.708618 35,575 300 417 -1024
2021-09-17 09:35:14 GMT 54.725040 -0.705788 35,600 300 417 -1024
2021-09-17 09:35:12 GMT 54.723083 -0.699975 35,650 300 418 -1024
2021-09-17 09:35:11 GMT 54.722260 -0.697389 35,675 300 418 -1024
2021-09-17 09:35:09 GMT 54.720016 -0.690523 35,750 300 418 -1024
2021-09-17 09:35:07 GMT 54.718105 -0.684648 35,750 300 418 -1024
2021-09-17 09:35:05 GMT 54.715919 -0.677990 35,750 300 418 -1024
2021-09-17 09:35:04 GMT 54.714989 -0.675077 35,775 300 418 -1024
2021-09-17 09:35:02 GMT 54.713013 -0.669035 35,825 300 418 -1088
2021-09-17 09:35:00 GMT 54.711044 -0.663138 35,850 300 418 -1088
2021-09-17 09:34:58 GMT 54.708191 -0.654352 35,925 300 418 -1088
2021-09-17 09:34:56 GMT 54.707291 -0.651667 35,925 300 418 -1088
2021-09-17 09:34:54 GMT 54.705490 -0.646279 35,950 300 418 -1088
2021-09-17 09:34:52 GMT 54.702393 -0.636803 36,025 300 419 -1088
2021-09-17 09:34:50 GMT 54.701523 -0.634137 36,025 300 419 -1024
2021-09-17 09:34:48 GMT 54.700134 -0.629966 36,050 300 419 -1024
2021-09-17 09:34:47 GMT 54.699158 -0.627053 36,100 300 420 -1024
2021-09-17 09:34:45 GMT 54.697159 -0.620894 36,100 300 420 -1024
2021-09-17 09:34:43 GMT 54.694923 -0.614236 36,150 300 420 -1024
2021-09-17 09:34:41 GMT 54.690872 -0.601918 36,225 300 420 -1024
2021-09-17 09:34:39 GMT 54.690872 -0.601918 36,225 300 420 -1024
2021-09-17 09:34:38 GMT 54.689987 -0.599254 36,250 300 420 -1024
2021-09-17 09:34:37 GMT 54.687428 -0.591597 36,275 300 420 -1024
2021-09-17 09:34:34 GMT 54.685940 -0.586936 36,325 300 420 -1024
2021-09-17 09:34:32 GMT 54.684586 -0.582922 36,375 300 421 -1024
2021-09-17 09:34:30 GMT 54.682251 -0.575732 36,375 300 421 -1024
2021-09-17 09:34:29 GMT 54.681198 -0.572662 36,400 300 421 -1024
2021-09-17 09:34:28 GMT 54.678818 -0.565392 36,425 300 421 -1024
2021-09-17 09:34:26 GMT 54.678818 -0.565392 36,425 300 421 -960
2021-09-17 09:34:24 GMT 54.676804 -0.559253 36,475 300 421 -960
2021-09-17 09:34:22 GMT 54.675293 -0.554648 36,500 300 421 -960
2021-09-17 09:34:21 GMT 54.673882 -0.550315 36,500 300 421 -1024
2021-09-17 09:34:19 GMT 54.671860 -0.544227 36,600 300 422 -1024
2021-09-17 09:34:17 GMT 54.670296 -0.539412 36,600 300 422 -1024
2021-09-17 09:34:15 GMT 54.668201 -0.533003 36,650 300 423 -1024
2021-09-17 09:34:13 GMT 54.666199 -0.527011 36,650 300 423 -1024
2021-09-17 09:34:12 GMT 54.665176 -0.523931 36,675 300 423 -1024
2021-09-17 09:34:11 GMT 54.662476 -0.515630 36,800 300 423 -1024
2021-09-17 09:34:09 GMT 54.662476 -0.515630 36,800 300 424 -1024
2021-09-17 09:34:07 GMT 54.659683 -0.507148 36,800 300 424 -1024
2021-09-17 09:34:04 GMT 54.656284 -0.496882 36,850 300 424 -1024
2021-09-17 09:34:01 GMT 54.654968 -0.492931 36,850 300 424 -1024
2021-09-17 09:34:00 GMT 54.653442 -0.488226 36,875 300 425 -1024
2021-09-17 09:33:57 GMT 54.650883 -0.480569 36,925 300 425 -1088
2021-09-17 09:33:56 GMT 54.649338 -0.475886 36,950 300 425 -1088
2021-09-17 09:33:54 GMT 54.647598 -0.470554 37,025 300 426 -1024
2021-09-17 09:33:52 GMT 54.644039 -0.459844 37,050 300 426 -1024
2021-09-17 09:33:50 GMT 54.644039 -0.459844 37,075 300 427 -1024
2021-09-17 09:33:47 GMT 54.641006 -0.450843 37,100 300 427 -1088
2021-09-17 09:33:46 GMT 54.637573 -0.440423 37,150 300 428 -1088
2021-09-17 09:33:44 GMT 54.637573 -0.440423 37,200 300 428 -1088
2021-09-17 09:33:42 GMT 54.635925 -0.435495 37,200 300 429 -1088
2021-09-17 09:33:40 GMT 54.631851 -0.423216 37,275 300 430 -1088
2021-09-17 09:33:38 GMT 54.631851 -0.423216 37,275 300 430 -1088
2021-09-17 09:33:36 GMT 54.629890 -0.417397 37,275 300 430 -1088
2021-09-17 09:33:35 GMT 54.629097 -0.414900 37,325 300 430 -1088
2021-09-17 09:33:34 GMT 54.628029 -0.411821 37,325 300 430 -1088
2021-09-17 09:33:32 GMT 54.625980 -0.405579 37,375 300 430 -1024
2021-09-17 09:33:31 GMT 54.624939 -0.402455 37,400 300 430 -1024
2021-09-17 09:33:30 GMT 54.622162 -0.394259 37,450 300 430 -1024
2021-09-17 09:33:28 GMT 54.622162 -0.394259 37,450 300 431 -1024
2021-09-17 09:33:27 GMT 54.621185 -0.391346 37,450 300 431 -1024
2021-09-17 09:33:24 GMT 54.618439 -0.382987 37,500 300 431 -960
2021-09-17 09:33:23 GMT 54.617599 -0.380526 37,525 300 431 -960
2021-09-17 09:33:21 GMT 54.615273 -0.373535 37,550 300 432 -960
2021-09-17 09:33:20 GMT 54.614342 -0.370789 37,575 300 432 -960
2021-09-17 09:33:18 GMT 54.612442 -0.365053 37,650 300 432 -960
2021-09-17 09:33:16 GMT 54.610107 -0.358106 37,650 300 431 -960
2021-09-17 09:33:15 GMT 54.609173 -0.355225 37,650 300 431 -960
2021-09-17 09:33:13 GMT 54.606903 -0.348493 37,700 300 431 -960
2021-09-17 09:33:12 GMT 54.605850 -0.345262 37,700 300 431 -960
2021-09-17 09:33:10 GMT 54.604099 -0.340077 37,725 300 431 -960
2021-09-17 09:33:09 GMT 54.603149 -0.337183 37,750 300 431 -960
2021-09-17 09:33:08 GMT 54.602097 -0.334084 37,800 300 431 -960
2021-09-17 09:33:06 GMT 54.600098 -0.328008 37,800 301 431 -960
2021-09-17 09:33:05 GMT 54.599117 -0.325095 37,800 301 431 -960
2021-09-17 09:33:03 GMT 54.596233 -0.316523 37,850 300 432 -960
2021-09-17 09:33:01 GMT 54.595230 -0.313514 37,875 300 432 -896
2021-09-17 09:32:59 GMT 54.592163 -0.304305 37,925 300 432 -896
2021-09-17 09:32:57 GMT 54.591156 -0.301397 37,925 300 432 -896
2021-09-17 09:32:55 GMT 54.589203 -0.295382 37,975 300 432 -896
2021-09-17 09:32:53 GMT 54.587402 -0.290007 38,000 300 431 -896
2021-09-17 09:32:51 GMT 54.585434 -0.284029 38,050 300 431 -960
2021-09-17 09:32:49 GMT 54.583244 -0.277488 38,050 300 431 -896
2021-09-17 09:32:47 GMT 54.580963 -0.270580 38,125 300 431 -896
2021-09-17 09:32:45 GMT 54.579529 -0.266257 38,125 300 430 -896
2021-09-17 09:32:44 GMT 54.578449 -0.263006 38,125 300 430 -896
2021-09-17 09:32:43 GMT 54.577473 -0.260093 38,150 300 430 -896
2021-09-17 09:32:42 GMT 54.574539 -0.251231 38,175 300 430 -896
2021-09-17 09:32:40 GMT 54.574539 -0.251231 38,200 300 430 -896
2021-09-17 09:32:38 GMT 54.572536 -0.245278 38,225 300 429 -896
2021-09-17 09:32:36 GMT 54.570511 -0.239114 38,250 300 429 -896
2021-09-17 09:32:35 GMT 54.569466 -0.235956 38,275 300 429 -896
2021-09-17 09:32:33 GMT 54.567490 -0.229986 38,300 300 428 -896
2021-09-17 09:32:32 GMT 54.564251 -0.220226 38,350 300 428 -896
2021-09-17 09:32:30 GMT 54.564251 -0.220226 38,350 300 428 -896
2021-09-17 09:32:29 GMT 54.563366 -0.217563 38,375 300 427 -896
2021-09-17 09:32:27 GMT 54.561504 -0.211986 38,400 300 427 -896
2021-09-17 09:32:26 GMT 54.560528 -0.209073 38,425 300 427 -896
2021-09-17 09:32:25 GMT 54.559616 -0.206236 38,425 300 426 -896
2021-09-17 09:32:22 GMT 54.556732 -0.197592 38,500 300 426 -896
2021-09-17 09:32:20 GMT 54.554764 -0.191776 38,500 300 426 -896
2021-09-17 09:32:18 GMT 54.553253 -0.187091 38,525 300 426 -896
2021-09-17 09:32:17 GMT 54.551834 -0.182890 38,550 300 426 -896
2021-09-17 09:32:16 GMT 54.550938 -0.180192 38,575 300 425 -896
2021-09-17 09:32:13 GMT 54.547989 -0.171338 38,625 300 425 -896
2021-09-17 09:32:10 GMT 54.545013 -0.162533 38,675 300 425 -896
2021-09-17 09:32:08 GMT 54.543629 -0.158220 38,725 300 425 -896
2021-09-17 09:32:06 GMT 54.540974 -0.150313 38,725 300 425 -896
2021-09-17 09:32:05 GMT 54.540070 -0.147588 38,750 300 424 -960
2021-09-17 09:32:03 GMT 54.538147 -0.141853 38,775 300 424 -960
2021-09-17 09:32:02 GMT 54.537186 -0.138945 38,775 300 424 -960
2021-09-17 09:31:59 GMT 54.533936 -0.129332 38,850 301 423 -960
2021-09-17 09:31:57 GMT 54.533066 -0.126666 38,850 301 423 -960
2021-09-17 09:31:56 GMT 54.530869 -0.120203 38,900 301 423 -960
2021-09-17 09:31:54 GMT 54.529942 -0.117354 38,900 301 423 -960
2021-09-17 09:31:52 GMT 54.527752 -0.110945 38,975 301 423 -960
2021-09-17 09:31:50 GMT 54.525890 -0.105369 38,975 301 423 -960
2021-09-17 09:31:49 GMT 54.523842 -0.099293 39,000 301 423 -960
2021-09-17 09:31:47 GMT 54.522911 -0.096463 39,025 301 423 -960
2021-09-17 09:31:46 GMT 54.521935 -0.093550 39,025 300 423 -960
2021-09-17 09:31:44 GMT 54.520111 -0.088133 39,075 300 423 -960
2021-09-17 09:31:43 GMT 54.519234 -0.085560 39,100 300 423 -960
2021-09-17 09:31:42 GMT 54.518394 -0.082897 39,100 301 423 -960
2021-09-17 09:31:39 GMT 54.515511 -0.074407 39,125 301 422 -960
2021-09-17 09:31:38 GMT 54.512486 -0.065419 39,200 301 422 -960
2021-09-17 09:31:36 GMT 54.512486 -0.065419 39,200 301 422 -960
2021-09-17 09:31:35 GMT 54.510250 -0.058760 39,250 301 422 -960
2021-09-17 09:31:33 GMT 54.509445 -0.056386 39,250 301 423 -960
2021-09-17 09:31:31 GMT 54.507431 -0.050408 39,275 301 423 -960
2021-09-17 09:31:30 GMT 54.504848 -0.042780 39,325 301 423 -960
2021-09-17 09:31:27 GMT 54.503815 -0.039745 39,325 301 423 -960
2021-09-17 09:31:26 GMT 54.502708 -0.036455 39,350 301 423 -960
2021-09-17 09:31:25 GMT 54.501709 -0.033524 39,375 301 423 -960
2021-09-17 09:31:23 GMT 54.499355 -0.026634 39,425 301 424 -960
2021-09-17 09:31:20 GMT 54.495586 -0.015398 39,475 301 424 -1024
2021-09-17 09:31:18 GMT 54.494522 -0.012198 39,475 301 424 -1024
2021-09-17 09:31:16 GMT 54.489815 0.001665 39,525 301 424 -1024
2021-09-17 09:31:13 GMT 54.487858 0.007491 39,600 301 424 -1024
2021-09-17 09:31:11 GMT 54.487858 0.007491 39,600 301 424 -1024
2021-09-17 09:31:10 GMT 54.486786 0.010653 39,600 301 424 -1024
2021-09-17 09:31:07 GMT 54.484131 0.018418 39,650 301 424 -1024
2021-09-17 09:31:06 GMT 54.480515 0.029162 39,750 301 426 -1024
2021-09-17 09:31:04 GMT 54.480515 0.029162 39,750 301 426 -1024
2021-09-17 09:31:01 GMT 54.477943 0.036788 39,750 301 426 -1024
2021-09-17 09:30:59 GMT 54.475521 0.043862 39,800 300 426 -1024
2021-09-17 09:30:57 GMT 54.473755 0.049189 39,875 300 426 -1088
2021-09-17 09:30:54 GMT 54.471191 0.056846 39,875 301 426 -1024
2021-09-17 09:30:52 GMT 54.468262 0.065419 39,925 301 426 -896
2021-09-17 09:30:50 GMT 54.465233 0.074407 39,975 301 426 -512
2021-09-17 09:30:47 GMT 54.462708 0.081832 40,000 301 426 -320
2021-09-17 09:30:45 GMT 54.461700 0.084902 40,000 301 426 -128
2021-09-17 09:30:44 GMT 54.460648 0.087971 40,000 301 427 -64
2021-09-17 09:30:41 GMT 54.457645 0.096879 40,000 301 427 0
2021-09-17 09:30:39 GMT 54.456116 0.101462 40,000 301 427 0
2021-09-17 09:30:37 GMT 54.454014 0.107699 40,000 301 427 0
2021-09-17 09:30:36 GMT 54.450989 0.116568 40,000 301 427 0
2021-09-17 09:30:34 GMT 54.450989 0.116568 40,000 301 427 0
2021-09-17 09:30:33 GMT 54.449936 0.119557 40,000 301 427 0
2021-09-17 09:30:32 GMT 54.446892 0.128673 40,000 301 427 0
2021-09-17 09:30:30 GMT 54.446892 0.128673 40,000 301 427 0
2021-09-17 09:30:28 GMT 54.444984 0.134166 40,000 301 427 0
2021-09-17 09:30:27 GMT 54.444008 0.137079 40,000 301 427 0
2021-09-17 09:30:26 GMT 54.442982 0.140076 40,000 301 427 0
2021-09-17 09:30:25 GMT 54.439911 0.149064 40,000 301 427 0
2021-09-17 09:30:23 GMT 54.439911 0.149064 40,000 301 427 0
2021-09-17 09:30:22 GMT 54.437943 0.154940 40,000 301 427 0
2021-09-17 09:30:19 GMT 54.435951 0.160800 40,000 301 427 0
2021-09-17 09:30:18 GMT 54.434834 0.164046 40,000 301 427 0
2021-09-17 09:30:16 GMT 54.432632 0.170611 40,000 301 427 0
2021-09-17 09:30:15 GMT 54.431622 0.173617 40,000 301 427 0
2021-09-17 09:30:13 GMT 54.429993 0.178278 40,000 301 427 0
2021-09-17 09:30:11 GMT 54.427711 0.185186 40,000 301 427 0
2021-09-17 09:30:09 GMT 54.425766 0.190807 40,000 301 427 0
2021-09-17 09:30:08 GMT 54.424805 0.193715 40,000 301 427 0
2021-09-17 09:30:07 GMT 54.422058 0.201631 40,000 301 427 0
2021-09-17 09:30:05 GMT 54.422058 0.201631 40,000 301 427 0
2021-09-17 09:30:04 GMT 54.420078 0.207409 40,000 301 428 0
2021-09-17 09:30:01 GMT 54.418121 0.213183 40,000 301 428 0
2021-09-17 09:30:00 GMT 54.416775 0.217146 40,000 301 428 0
2021-09-17 09:29:59 GMT 54.415794 0.219976 40,000 301 428 0
2021-09-17 09:29:57 GMT 54.414917 0.222554 40,000 301 427 0
2021-09-17 09:29:55 GMT 54.412903 0.228370 40,000 301 427 0
2021-09-17 09:29:53 GMT 54.410908 0.234209 40,000 301 427 0
2021-09-17 09:29:50 GMT 54.407822 0.243073 40,000 301 427 0
2021-09-17 09:29:49 GMT 54.406437 0.247192 40,000 301 427 0
2021-09-17 09:29:47 GMT 54.403366 0.256098 40,000 301 427 0
2021-09-17 09:29:44 GMT 54.399269 0.268000 40,000 301 427 0
2021-09-17 09:29:40 GMT 54.398293 0.270913 40,000 301 427 0
2021-09-17 09:29:39 GMT 54.397247 0.273850 40,000 301 427 0
2021-09-17 09:29:37 GMT 54.394100 0.283064 40,000 301 427 0
2021-09-17 09:29:34 GMT 54.391075 0.291804 40,000 301 427 64
2021-09-17 09:29:32 GMT 54.389587 0.296215 40,000 301 427 64
2021-09-17 09:29:31 GMT 54.388096 0.300626 40,000 301 427 64
2021-09-17 09:29:30 GMT 54.386993 0.303901 40,000 301 427 64
2021-09-17 09:29:28 GMT 54.385025 0.309556 40,000 301 427 64
2021-09-17 09:29:25 GMT 54.382782 0.316099 40,000 301 427 0
2021-09-17 09:29:24 GMT 54.381672 0.319353 40,000 301 427 0
2021-09-17 09:29:21 GMT 54.378693 0.328175 40,000 301 427 0
2021-09-17 09:29:20 GMT 54.376644 0.334084 40,000 301 427 0
2021-09-17 09:29:17 GMT 54.374458 0.340493 40,000 301 426 -64
2021-09-17 09:29:16 GMT 54.372360 0.346569 40,000 301 426 -64
2021-09-17 09:29:14 GMT 54.371429 0.349315 40,000 301 426 -64
2021-09-17 09:29:12 GMT 54.369431 0.355225 40,000 301 426 -64
2021-09-17 09:29:11 GMT 54.368359 0.358304 40,000 301 426 0
2021-09-17 09:29:10 GMT 54.367382 0.361134 40,000 301 426 -64
2021-09-17 09:29:09 GMT 54.366402 0.364047 40,000 301 426 -64
2021-09-17 09:29:07 GMT 54.364353 0.370040 40,000 301 426 0
2021-09-17 09:29:05 GMT 54.362366 0.375878 40,000 301 426 0
2021-09-17 09:29:03 GMT 54.360256 0.382025 40,000 301 426 0
2021-09-17 09:29:01 GMT 54.358200 0.387995 40,000 301 426 0
2021-09-17 09:28:59 GMT 54.356323 0.393569 40,000 301 426 0
2021-09-17 09:28:57 GMT 54.354485 0.399003 40,000 301 426 0
2021-09-17 09:28:56 GMT 54.353371 0.402249 40,000 301 426 0
2021-09-17 09:28:54 GMT 54.351517 0.407706 40,000 301 426 0
2021-09-17 09:28:52 GMT 54.349457 0.413735 40,000 301 426 0
2021-09-17 09:28:51 GMT 54.348480 0.416565 40,000 301 426 0
2021-09-17 09:28:50 GMT 54.347504 0.419478 40,000 301 426 0
2021-09-17 09:28:48 GMT 54.345596 0.424971 40,000 301 426 0
2021-09-17 09:28:46 GMT 54.343639 0.430714 40,000 301 426 0
2021-09-17 09:28:45 GMT 54.342567 0.433877 40,000 301 425 64
2021-09-17 09:28:44 GMT 54.341537 0.436949 40,000 301 425 64
2021-09-17 09:28:43 GMT 54.339478 0.442846 40,000 301 425 0
2021-09-17 09:28:41 GMT 54.338612 0.445446 40,000 301 425 0
2021-09-17 09:28:40 GMT 54.336376 0.451938 40,000 301 425 0
2021-09-17 09:28:37 GMT 54.334282 0.458097 40,000 301 425 0
2021-09-17 09:28:36 GMT 54.331394 0.466503 40,000 301 425 0
2021-09-17 09:28:34 GMT 54.329819 0.471120 40,000 301 425 0
2021-09-17 09:28:32 GMT 54.329819 0.471120 40,000 301 425 0
2021-09-17 09:28:30 GMT 54.327297 0.478571 40,000 301 425 0
2021-09-17 09:28:28 GMT 54.325699 0.483237 40,000 301 425 0
2021-09-17 09:28:26 GMT 54.323227 0.490426 40,000 301 425 0
2021-09-17 09:28:24 GMT 54.319244 0.502059 40,000 301 425 0
2021-09-17 09:28:22 GMT 54.319244 0.502059 40,000 301 425 0
2021-09-17 09:28:21 GMT 54.318314 0.504788 40,000 301 425 0
2021-09-17 09:28:19 GMT 54.316727 0.509491 40,000 301 425 0
2021-09-17 09:28:16 GMT 54.313705 0.518272 40,000 301 425 0
2021-09-17 09:28:14 GMT 54.311378 0.525013 40,000 301 424 0
2021-09-17 09:28:12 GMT 54.309448 0.530575 40,000 301 424 0
2021-09-17 09:28:11 GMT 54.308445 0.533586 40,000 301 424 0
2021-09-17 09:28:10 GMT 54.305653 0.541576 40,000 301 425 0
2021-09-17 09:28:08 GMT 54.305653 0.541576 40,000 301 425 0
2021-09-17 09:28:07 GMT 54.304642 0.544469 40,000 301 425 0
2021-09-17 09:28:05 GMT 54.302399 0.551013 40,000 301 425 0
2021-09-17 09:28:03 GMT 54.300766 0.555725 40,000 301 425 0
2021-09-17 09:28:01 GMT 54.298599 0.561918 40,000 301 424 0
2021-09-17 09:27:59 GMT 54.296677 0.567573 40,000 301 424 0
2021-09-17 09:27:58 GMT 54.295303 0.571451 40,000 301 424 0
2021-09-17 09:27:57 GMT 54.293747 0.575974 40,000 301 424 0
2021-09-17 09:27:55 GMT 54.292694 0.579044 40,000 301 424 0
2021-09-17 09:27:53 GMT 54.290756 0.584606 40,000 301 424 0
2021-09-17 09:27:51 GMT 54.288799 0.590265 40,000 301 424 0
2021-09-17 09:27:50 GMT 54.287914 0.592846 40,000 301 424 0
2021-09-17 09:27:49 GMT 54.286377 0.597301 40,000 301 424 0
2021-09-17 09:27:48 GMT 54.285461 0.599886 40,000 301 424 0
2021-09-17 09:27:47 GMT 54.284519 0.602583 40,000 301 424 0
2021-09-17 09:27:44 GMT 54.282074 0.609660 40,000 301 424 0
2021-09-17 09:27:42 GMT 54.280235 0.614985 40,000 301 424 0
2021-09-17 09:27:41 GMT 54.279190 0.618062 40,000 301 424 0
2021-09-17 09:27:39 GMT 54.277451 0.623003 40,000 301 424 0
2021-09-17 09:27:38 GMT 54.276371 0.626140 40,000 301 424 0
2021-09-17 09:27:37 GMT 54.274338 0.631949 40,000 301 424 0
2021-09-17 09:27:35 GMT 54.273376 0.634774 40,000 301 424 0
2021-09-17 09:27:34 GMT 54.272274 0.637853 40,000 301 424 0
2021-09-17 09:27:33 GMT 54.270355 0.643485 40,000 301 424 0
2021-09-17 09:27:31 GMT 54.269257 0.646702 40,000 301 424 0
2021-09-17 09:27:29 GMT 54.266693 0.654000 40,000 301 424 0
2021-09-17 09:27:27 GMT 54.263943 0.662088 40,000 301 424 0
2021-09-17 09:27:26 GMT 54.263943 0.662088 40,000 301 424 0
2021-09-17 09:27:24 GMT 54.261978 0.667655 40,000 301 424 0
2021-09-17 09:27:22 GMT 54.260544 0.671782 40,000 301 424 0
2021-09-17 09:27:21 GMT 54.259094 0.675895 40,000 301 424 0
2021-09-17 09:27:20 GMT 54.258030 0.678971 40,000 301 424 0
2021-09-17 09:27:18 GMT 54.256401 0.683657 40,000 301 424 0
2021-09-17 09:27:17 GMT 54.255375 0.686646 40,000 301 424 0
2021-09-17 09:27:16 GMT 54.254425 0.689392 40,000 301 423 0
2021-09-17 09:27:14 GMT 54.251328 0.698278 40,000 301 423 0
2021-09-17 09:27:12 GMT 54.249756 0.702733 40,000 301 423 0
2021-09-17 09:27:10 GMT 54.247696 0.708697 40,000 301 423 0
2021-09-17 09:27:08 GMT 54.246506 0.712071 40,000 301 423 0
2021-09-17 09:27:07 GMT 54.245544 0.714975 40,000 301 423 0
2021-09-17 09:27:05 GMT 54.243164 0.721802 40,000 301 423 0
2021-09-17 09:27:04 GMT 54.242157 0.724627 40,000 301 423 0
2021-09-17 09:27:03 GMT 54.241085 0.727683 40,000 301 423 0
2021-09-17 09:27:01 GMT 54.239136 0.733337 40,000 301 423 0
2021-09-17 09:26:59 GMT 54.237076 0.739223 40,000 301 423 0
2021-09-17 09:26:57 GMT 54.234558 0.746443 40,000 301 423 0
2021-09-17 09:26:55 GMT 54.230518 0.757976 40,000 301 423 0
2021-09-17 09:26:53 GMT 54.230518 0.757976 40,000 301 423 0
2021-09-17 09:26:52 GMT 54.229431 0.761117 40,000 301 423 0
2021-09-17 09:26:49 GMT 54.226933 0.768316 40,000 301 423 0
2021-09-17 09:26:47 GMT 54.224991 0.773908 40,000 301 423 0
2021-09-17 09:26:46 GMT 54.223907 0.777040 40,000 301 423 0
2021-09-17 09:26:44 GMT 54.222336 0.781520 40,000 301 423 0
2021-09-17 09:26:43 GMT 54.221207 0.784715 40,000 301 423 0
2021-09-17 09:26:41 GMT 54.218765 0.791800 40,000 301 423 0
2021-09-17 09:26:39 GMT 54.216972 0.796993 40,000 301 423 0
2021-09-17 09:26:37 GMT 54.213806 0.806041 40,000 301 423 0
2021-09-17 09:26:34 GMT 54.211197 0.813554 40,000 301 423 0
2021-09-17 09:26:31 GMT 54.208546 0.821147 40,000 301 423 0
2021-09-17 09:26:28 GMT 54.205982 0.828579 40,000 301 423 0
2021-09-17 09:26:25 GMT 54.202835 0.837551 40,000 301 423 0
2021-09-17 09:26:24 GMT 54.202286 0.839199 40,000 301 422 0
2021-09-17 09:26:22 GMT 54.200180 0.845241 40,000 301 422 0
2021-09-17 09:26:20 GMT 54.197891 0.851754 40,000 301 422 0
2021-09-17 09:26:19 GMT 54.196884 0.854736 40,000 301 422 0
2021-09-17 09:26:17 GMT 54.194366 0.861956 40,000 301 422 0
2021-09-17 09:26:14 GMT 54.191757 0.869332 40,000 301 422 0
2021-09-17 09:26:13 GMT 54.190807 0.872040 40,000 301 422 0
2021-09-17 09:26:11 GMT 54.189011 0.877180 40,000 301 422 0
2021-09-17 09:26:09 GMT 54.186768 0.883693 40,000 301 422 0
2021-09-17 09:26:08 GMT 54.185875 0.886257 40,000 301 422 64
2021-09-17 09:26:07 GMT 54.184895 0.889085 40,000 301 422 64
2021-09-17 09:26:05 GMT 54.182785 0.895072 40,000 301 422 64
2021-09-17 09:26:04 GMT 54.181778 0.898052 40,000 301 422 64
2021-09-17 09:26:03 GMT 54.180817 0.900800 40,000 301 422 64
2021-09-17 09:26:00 GMT 54.177704 0.909746 40,000 301 422 0
2021-09-17 09:25:58 GMT 54.175827 0.915083 40,000 301 422 0
2021-09-17 09:25:57 GMT 54.174980 0.917601 40,000 301 422 0
2021-09-17 09:25:55 GMT 54.172760 0.923872 40,000 301 422 0
2021-09-17 09:25:54 GMT 54.171677 0.927052 40,000 301 422 0
2021-09-17 09:25:52 GMT 54.170105 0.931484 40,000 301 422 0
2021-09-17 09:25:50 GMT 54.167950 0.937715 40,000 301 422 0
2021-09-17 09:25:49 GMT 54.166031 0.943176 40,000 301 422 0
2021-09-17 09:25:47 GMT 54.165016 0.946198 40,000 301 422 0
2021-09-17 09:25:46 GMT 54.163925 0.949219 40,000 301 422 0
2021-09-17 09:25:45 GMT 54.161900 0.955003 40,000 301 422 0
2021-09-17 09:25:43 GMT 54.160858 0.957929 40,000 301 422 0
2021-09-17 09:25:42 GMT 54.159988 0.960440 40,000 301 422 0
2021-09-17 09:25:40 GMT 54.158035 0.965989 40,000 302 422 0
2021-09-17 09:25:37 GMT 54.155056 0.974390 40,000 302 422 0
2021-09-17 09:25:36 GMT 54.153938 0.977541 40,000 302 422 0
2021-09-17 09:25:34 GMT 54.151703 0.983904 40,000 302 422 0
2021-09-17 09:25:33 GMT 54.150726 0.986669 40,000 302 422 0
2021-09-17 09:25:31 GMT 54.148678 0.992485 40,000 301 422 0
2021-09-17 09:25:29 GMT 54.146770 0.997898 40,000 301 422 0
2021-09-17 09:25:27 GMT 54.144955 1.003068 40,000 301 422 0
2021-09-17 09:25:26 GMT 54.143829 1.006269 40,000 301 422 0
2021-09-17 09:25:25 GMT 54.142860 1.009046 40,000 301 422 0
2021-09-17 09:25:24 GMT 54.140438 1.015912 40,000 301 422 0
2021-09-17 09:25:21 GMT 54.138855 1.020274 40,000 301 422 0
2021-09-17 09:25:19 GMT 54.136917 1.025809 40,000 301 422 0
2021-09-17 09:25:18 GMT 54.135876 1.028837 40,000 301 422 0
2021-09-17 09:25:17 GMT 54.133896 1.034441 40,000 301 422 -64
2021-09-17 09:25:14 GMT 54.131927 1.040013 40,000 301 422 0
2021-09-17 09:25:12 GMT 54.129917 1.045801 40,000 301 422 0
2021-09-17 09:25:10 GMT 54.127914 1.051375 40,000 301 422 0
2021-09-17 09:25:08 GMT 54.126068 1.056728 40,000 301 422 0
2021-09-17 09:25:05 GMT 54.123734 1.063241 40,000 301 422 0
2021-09-17 09:25:04 GMT 54.122704 1.066159 40,000 301 422 0
2021-09-17 09:25:03 GMT 54.120655 1.071975 40,000 301 422 0
2021-09-17 09:25:01 GMT 54.119724 1.074641 40,000 301 422 0
2021-09-17 09:25:00 GMT 54.118652 1.077680 40,000 301 422 -64
2021-09-17 09:24:58 GMT 54.115952 1.085292 40,000 301 422 -64
2021-09-17 09:24:56 GMT 54.114368 1.089908 40,000 301 422 -64
2021-09-17 09:24:55 GMT 54.112553 1.094998 40,000 301 422 -64
2021-09-17 09:24:53 GMT 54.111374 1.098319 40,000 301 422 -64
2021-09-17 09:24:52 GMT 54.110413 1.101056 40,000 302 422 0
2021-09-17 09:24:51 GMT 54.108536 1.106323 40,000 302 422 0
2021-09-17 09:24:49 GMT 54.107529 1.109148 40,000 302 422 0
2021-09-17 09:24:47 GMT 54.104095 1.118958 40,000 302 421 0
2021-09-17 09:24:44 GMT 54.102310 1.123980 40,000 302 421 0
2021-09-17 09:24:43 GMT 54.101395 1.126491 40,000 302 421 0
2021-09-17 09:24:42 GMT 54.097641 1.137085 40,000 302 422 0
2021-09-17 09:24:40 GMT 54.095284 1.143790 40,000 301 422 0
2021-09-17 09:24:37 GMT 54.095284 1.143790 40,000 301 422 0
2021-09-17 09:24:35 GMT 54.092583 1.151383 40,000 301 422 0
2021-09-17 09:24:33 GMT 54.090630 1.156957 40,000 301 422 0
2021-09-17 09:24:32 GMT 54.089558 1.160027 40,000 301 422 0
2021-09-17 09:24:30 GMT 54.088165 1.163923 40,000 301 422 0
2021-09-17 09:24:28 GMT 54.085785 1.170690 40,000 301 422 0
2021-09-17 09:24:27 GMT 54.082306 1.180481 40,000 301 422 0
2021-09-17 09:24:25 GMT 54.082306 1.180481 40,000 301 422 64
2021-09-17 09:24:23 GMT 54.080887 1.184483 40,000 301 422 64
2021-09-17 09:24:22 GMT 54.079880 1.187387 40,000 301 422 64
2021-09-17 09:24:19 GMT 54.077454 1.194359 40,000 301 422 0
2021-09-17 09:24:17 GMT 54.073822 1.204538 40,000 301 422 0
2021-09-17 09:24:13 GMT 54.071045 1.212420 40,000 301 422 0
2021-09-17 09:24:12 GMT 54.070084 1.215166 40,000 302 421 0
2021-09-17 09:24:11 GMT 54.068253 1.220346 40,000 302 421 0
2021-09-17 09:24:08 GMT 54.066055 1.226545 40,000 302 421 0
2021-09-17 09:24:05 GMT 54.063442 1.233942 40,000 302 421 0
2021-09-17 09:24:04 GMT 54.062325 1.237012 40,000 302 421 0
2021-09-17 09:24:02 GMT 54.059784 1.244123 40,000 302 421 0
2021-09-17 09:24:01 GMT 54.058784 1.247029 40,000 302 421 0
2021-09-17 09:23:59 GMT 54.054565 1.258798 40,000 302 421 0
2021-09-17 09:23:57 GMT 54.054565 1.258798 40,000 302 422 0
2021-09-17 09:23:56 GMT 54.053665 1.261408 40,000 302 422 0
2021-09-17 09:23:55 GMT 54.051060 1.268679 40,000 302 421 0
2021-09-17 09:23:52 GMT 54.049431 1.273283 40,000 302 421 0
2021-09-17 09:23:51 GMT 54.048523 1.275827 40,000 302 421 0
2021-09-17 09:23:49 GMT 54.046497 1.281442 40,000 302 421 0
2021-09-17 09:23:48 GMT 54.044495 1.287016 40,000 302 421 0
2021-09-17 09:23:46 GMT 54.043518 1.289843 40,000 302 421 0
2021-09-17 09:23:45 GMT 54.042389 1.292934 40,000 302 421 0
2021-09-17 09:23:43 GMT 54.040539 1.298164 40,000 302 421 0
2021-09-17 09:23:42 GMT 54.039368 1.301488 40,000 302 421 0
2021-09-17 09:23:40 GMT 54.037308 1.307216 40,000 302 421 0
2021-09-17 09:23:39 GMT 54.036346 1.309963 40,000 302 421 0
2021-09-17 09:23:38 GMT 54.034393 1.315532 40,000 302 421 0
2021-09-17 09:23:36 GMT 54.033321 1.318521 40,000 302 421 0
2021-09-17 09:23:35 GMT 54.032227 1.321577 40,000 302 421 0
2021-09-17 09:23:33 GMT 54.030350 1.326913 40,000 302 421 0
2021-09-17 09:23:32 GMT 54.029457 1.329426 40,000 302 421 0
2021-09-17 09:23:30 GMT 54.027512 1.334839 40,000 302 421 0
2021-09-17 09:23:29 GMT 54.026459 1.337821 40,000 302 421 0
2021-09-17 09:23:28 GMT 54.025543 1.340489 40,000 302 421 0
2021-09-17 09:23:27 GMT 54.024124 1.344491 40,000 302 421 0
2021-09-17 09:23:25 GMT 54.022705 1.348493 40,000 302 421 64
2021-09-17 09:23:23 GMT 54.020615 1.354307 40,000 302 421 64
2021-09-17 09:23:22 GMT 54.019135 1.358616 40,000 302 421 64
2021-09-17 09:23:20 GMT 54.017120 1.364243 40,000 302 421 0
2021-09-17 09:23:17 GMT 54.014469 1.371675 40,000 302 420 0
2021-09-17 09:23:15 GMT 54.012360 1.377686 40,000 302 420 -64
2021-09-17 09:23:13 GMT 54.010712 1.382237 40,000 302 420 0
2021-09-17 09:23:12 GMT 54.008377 1.388829 40,000 302 420 0
2021-09-17 09:23:09 GMT 54.006695 1.393486 40,000 302 420 0
2021-09-17 09:23:07 GMT 54.004646 1.399222 40,000 302 420 0
2021-09-17 09:23:06 GMT 54.003670 1.402049 40,000 302 420 0
2021-09-17 09:23:04 GMT 54.002087 1.406412 40,000 302 420 0
2021-09-17 09:23:03 GMT 54.000641 1.410531 40,000 302 420 0
2021-09-17 09:23:02 GMT 53.999573 1.413520 40,000 302 420 0
2021-09-17 09:23:00 GMT 53.997196 1.420064 40,000 302 420 0
2021-09-17 09:22:59 GMT 53.996292 1.422651 40,000 302 420 0
2021-09-17 09:22:57 GMT 53.994358 1.428061 40,000 302 420 0
2021-09-17 09:22:56 GMT 53.993362 1.430891 40,000 302 420 0
2021-09-17 09:22:55 GMT 53.991440 1.436227 40,000 302 420 0
2021-09-17 09:22:53 GMT 53.990494 1.438967 40,000 302 420 0
2021-09-17 09:22:51 GMT 53.988678 1.444056 40,000 302 420 0
2021-09-17 09:22:50 GMT 53.987095 1.448418 40,000 302 420 0
2021-09-17 09:22:49 GMT 53.986038 1.451294 40,000 302 420 0
2021-09-17 09:22:48 GMT 53.983929 1.457304 40,000 302 420 -64
2021-09-17 09:22:44 GMT 53.981602 1.463767 40,000 302 420 -64
2021-09-17 09:22:42 GMT 53.979630 1.469343 40,000 302 420 -64
2021-09-17 09:22:41 GMT 53.978764 1.471602 40,000 302 420 -64
2021-09-17 09:22:40 GMT 53.977753 1.474522 40,000 302 420 0
2021-09-17 09:22:37 GMT 53.974667 1.483074 40,000 302 420 0
2021-09-17 09:22:36 GMT 53.971409 1.492202 40,000 302 420 0
2021-09-17 09:22:34 GMT 53.971409 1.492202 40,000 302 419 0
2021-09-17 09:22:32 GMT 53.969265 1.498180 40,000 302 419 0
2021-09-17 09:22:31 GMT 53.968735 1.499634 40,000 302 419 0
2021-09-17 09:22:29 GMT 53.966801 1.504965 40,000 302 419 0
2021-09-17 09:22:28 GMT 53.965347 1.509051 40,000 302 419 0
2021-09-17 09:22:27 GMT 53.964378 1.511751 40,000 302 419 0
2021-09-17 09:22:25 GMT 53.962326 1.517526 40,000 302 419 0
2021-09-17 09:22:23 GMT 53.960094 1.523626 40,000 302 419 0
2021-09-17 09:22:20 GMT 53.957626 1.530412 40,000 302 419 0
2021-09-17 09:22:17 GMT 53.954510 1.539136 40,000 302 418 0
2021-09-17 09:22:15 GMT 53.952133 1.545679 40,000 302 418 0
2021-09-17 09:22:14 GMT 53.949249 1.553758 40,000 302 418 0
2021-09-17 09:22:12 GMT 53.948273 1.556370 40,000 302 418 0
2021-09-17 09:22:10 GMT 53.947247 1.559251 40,000 302 418 0
2021-09-17 09:22:08 GMT 53.945011 1.565390 40,000 302 418 0
2021-09-17 09:22:06 GMT 53.942917 1.571206 40,000 302 418 0
2021-09-17 09:22:05 GMT 53.941708 1.574519 40,000 302 418 0
2021-09-17 09:22:03 GMT 53.939705 1.580092 40,000 302 418 0
2021-09-17 09:22:02 GMT 53.938751 1.582738 40,000 302 418 0
2021-09-17 09:22:01 GMT 53.936214 1.589786 40,000 302 418 0
2021-09-17 09:21:59 GMT 53.936214 1.589786 40,000 302 418 0
2021-09-17 09:21:57 GMT 53.934494 1.594509 40,000 302 418 0
2021-09-17 09:21:56 GMT 53.933094 1.598268 40,000 302 418 0
2021-09-17 09:21:55 GMT 53.932491 1.599965 40,000 302 418 0
2021-09-17 09:21:52 GMT 53.929325 1.608770 40,000 302 418 0
2021-09-17 09:21:50 GMT 53.927277 1.614425 40,000 302 418 0
2021-09-17 09:21:49 GMT 53.923923 1.623715 40,000 302 418 0
2021-09-17 09:21:47 GMT 53.923923 1.623715 40,000 302 418 0
2021-09-17 09:21:45 GMT 53.920898 1.632035 40,000 302 418 0
2021-09-17 09:21:44 GMT 53.920898 1.632035 40,000 302 418 0
2021-09-17 09:21:43 GMT 53.920013 1.634459 40,000 302 418 0
2021-09-17 09:21:41 GMT 53.918015 1.640023 40,000 302 418 0
2021-09-17 09:21:39 GMT 53.916504 1.644261 40,000 302 418 0
2021-09-17 09:21:37 GMT 53.913528 1.652422 40,000 302 417 -64
2021-09-17 09:21:36 GMT 53.912613 1.655012 40,000 302 417 -64
2021-09-17 09:21:34 GMT 53.909637 1.663252 40,000 302 417 -64
2021-09-17 09:21:32 GMT 53.908607 1.666044 40,000 302 417 0
2021-09-17 09:21:30 GMT 53.906479 1.671884 40,000 302 417 0
2021-09-17 09:21:28 GMT 53.904419 1.677612 40,000 302 417 0
2021-09-17 09:21:26 GMT 53.902313 1.683419 40,000 302 417 0
2021-09-17 09:21:25 GMT 53.901398 1.685931 40,000 302 417 0
2021-09-17 09:21:23 GMT 53.899437 1.691329 40,000 302 417 0
2021-09-17 09:21:22 GMT 53.898422 1.694249 40,000 302 417 0
2021-09-17 09:21:20 GMT 53.896458 1.699569 40,000 302 417 0
2021-09-17 09:21:19 GMT 53.895435 1.702477 40,000 302 417 0
2021-09-17 09:21:16 GMT 53.892502 1.710474 40,000 302 417 0
2021-09-17 09:21:14 GMT 53.890228 1.716928 40,000 302 416 0
2021-09-17 09:21:13 GMT 53.889633 1.718419 40,000 302 416 0
2021-09-17 09:21:11 GMT 53.886265 1.727762 40,000 302 416 0
2021-09-17 09:21:08 GMT 53.884689 1.732073 40,000 302 416 0
2021-09-17 09:21:07 GMT 53.883682 1.734898 40,000 302 416 0
2021-09-17 09:21:05 GMT 53.881439 1.741019 40,000 302 416 0
2021-09-17 09:21:02 GMT 53.877365 1.752241 40,000 302 416 0
2021-09-17 09:21:00 GMT 53.876358 1.754987 40,000 302 416 0
2021-09-17 09:20:58 GMT 53.874485 1.760155 40,000 302 415 0
2021-09-17 09:20:57 GMT 53.873474 1.762913 40,000 302 415 0
2021-09-17 09:20:56 GMT 53.872532 1.765568 40,000 302 415 0
2021-09-17 09:20:55 GMT 53.869270 1.774534 40,000 302 415 0
2021-09-17 09:20:53 GMT 53.869270 1.774534 40,000 302 415 0
2021-09-17 09:20:52 GMT 53.868210 1.777431 40,000 302 415 0
2021-09-17 09:20:50 GMT 53.867111 1.780491 40,000 302 415 0
2021-09-17 09:20:49 GMT 53.864990 1.786248 40,000 302 415 0
2021-09-17 09:20:46 GMT 53.863083 1.791556 40,000 302 415 64
2021-09-17 09:20:43 GMT 53.860100 1.799657 40,000 302 415 64
2021-09-17 09:20:41 GMT 53.858047 1.805368 40,000 302 415 64
2021-09-17 09:20:39 GMT 53.856628 1.809291 40,000 302 415 64
2021-09-17 09:20:38 GMT 53.853954 1.816622 40,000 302 415 0
2021-09-17 09:20:35 GMT 53.852558 1.820418 40,000 302 415 0
2021-09-17 09:20:34 GMT 53.851181 1.824280 40,000 302 415 0
2021-09-17 09:20:33 GMT 53.849716 1.828360 40,000 302 415 0
2021-09-17 09:20:31 GMT 53.847839 1.833461 40,000 302 415 0
2021-09-17 09:20:29 GMT 53.845596 1.839739 40,000 302 415 -64
2021-09-17 09:20:27 GMT 53.844086 1.843845 40,000 302 415 -64
2021-09-17 09:20:26 GMT 53.843170 1.846409 40,000 302 415 -64
2021-09-17 09:20:25 GMT 53.842133 1.849258 40,000 302 415 -64
2021-09-17 09:20:24 GMT 53.841106 1.852166 40,000 302 414 0
2021-09-17 09:20:22 GMT 53.838966 1.858063 40,000 302 414 0
2021-09-17 09:20:20 GMT 53.836594 1.864687 40,000 302 414 0
2021-09-17 09:20:18 GMT 53.834656 1.870030 40,000 302 414 0
2021-09-17 09:20:16 GMT 53.832001 1.877407 40,000 302 414 0
2021-09-17 09:20:14 GMT 53.830029 1.882782 40,000 302 414 0
2021-09-17 09:20:12 GMT 53.826538 1.892476 40,000 302 414 0
2021-09-17 09:20:10 GMT 53.826538 1.892476 40,000 302 414 0
2021-09-17 09:20:08 GMT 53.825409 1.895534 40,000 302 414 0
2021-09-17 09:20:07 GMT 53.823898 1.899693 40,000 302 414 0
2021-09-17 09:20:05 GMT 53.821884 1.905422 40,000 302 414 0
2021-09-17 09:20:03 GMT 53.819916 1.910758 40,000 302 414 0
2021-09-17 09:20:01 GMT 53.816437 1.920426 40,000 302 414 0
2021-09-17 09:20:00 GMT 53.816437 1.920426 40,000 302 414 0
2021-09-17 09:19:58 GMT 53.815018 1.924412 40,000 302 414 0
2021-09-17 09:19:56 GMT 53.812943 1.930201 40,000 302 414 0
2021-09-17 09:19:55 GMT 53.811859 1.933201 40,000 302 414 0
2021-09-17 09:19:54 GMT 53.808895 1.941430 40,000 302 414 0
2021-09-17 09:19:52 GMT 53.808895 1.941430 40,000 302 414 0
2021-09-17 09:19:51 GMT 53.806705 1.947407 40,000 302 414 0
2021-09-17 09:19:48 GMT 53.802704 1.958475 40,000 302 414 0
2021-09-17 09:19:46 GMT 53.802704 1.958475 40,000 302 414 0
2021-09-17 09:19:45 GMT 53.801697 1.961295 40,000 302 414 64
2021-09-17 09:19:43 GMT 53.799637 1.966867 40,000 302 413 0
2021-09-17 09:19:41 GMT 53.797531 1.972674 40,000 302 413 0
2021-09-17 09:19:39 GMT 53.795883 1.977147 40,000 302 413 0
2021-09-17 09:19:37 GMT 53.791672 1.988761 40,000 302 413 0
2021-09-17 09:19:35 GMT 53.791672 1.988761 40,000 302 413 0
2021-09-17 09:19:33 GMT 53.789806 1.993857 40,000 302 413 0
2021-09-17 09:19:32 GMT 53.787460 2.000296 40,000 302 413 0
2021-09-17 09:19:30 GMT 53.786457 2.002985 40,000 302 413 0
2021-09-17 09:19:29 GMT 53.785538 2.005554 40,000 302 413 0
2021-09-17 09:19:27 GMT 53.783615 2.010821 40,000 302 413 0
2021-09-17 09:19:26 GMT 53.782471 2.013872 40,000 302 413 0
2021-09-17 09:19:25 GMT 53.780590 2.019142 40,000 302 413 0
2021-09-17 09:19:23 GMT 53.779449 2.022191 40,000 302 413 0
2021-09-17 09:19:22 GMT 53.776337 2.030666 40,000 302 414 0
2021-09-17 09:19:20 GMT 53.776337 2.030666 40,000 302 414 0
2021-09-17 09:19:18 GMT 53.774368 2.036159 40,000 302 414 -64
2021-09-17 09:19:16 GMT 53.770111 2.047695 40,000 302 413 -64
2021-09-17 09:19:14 GMT 53.770111 2.047695 40,000 302 413 -64
2021-09-17 09:19:11 GMT 53.767593 2.054679 40,000 302 413 0
2021-09-17 09:19:10 GMT 53.766541 2.057425 40,000 302 413 0
2021-09-17 09:19:08 GMT 53.764530 2.062925 40,000 302 413 64
2021-09-17 09:19:07 GMT 53.763519 2.065744 40,000 302 413 64
2021-09-17 09:19:06 GMT 53.762436 2.068580 40,000 302 413 64
2021-09-17 09:19:04 GMT 53.760342 2.074316 40,000 302 413 64
2021-09-17 09:19:02 GMT 53.758713 2.078613 40,000 302 413 64
2021-09-17 09:19:01 GMT 53.755127 2.088372 40,000 302 413 0
2021-09-17 09:18:59 GMT 53.755127 2.088372 40,000 302 413 0
2021-09-17 09:18:57 GMT 53.752945 2.094308 40,000 302 413 0
2021-09-17 09:18:55 GMT 53.750889 2.099924 40,000 302 413 0
2021-09-17 09:18:53 GMT 53.749008 2.104980 40,000 302 413 0
2021-09-17 09:18:51 GMT 53.747677 2.108567 40,000 302 413 0
2021-09-17 09:18:49 GMT 53.745163 2.115496 40,000 302 413 0
2021-09-17 09:18:48 GMT 53.744110 2.118321 40,000 303 412 0
2021-09-17 09:18:46 GMT 53.742050 2.123893 40,000 303 412 -64
2021-09-17 09:18:45 GMT 53.741116 2.126420 40,000 303 412 0
2021-09-17 09:18:43 GMT 53.739120 2.131740 40,000 303 412 0
2021-09-17 09:18:42 GMT 53.738087 2.134498 40,000 303 412 0
2021-09-17 09:18:41 GMT 53.734955 2.143040 40,000 303 412 0
2021-09-17 09:18:39 GMT 53.734955 2.143040 40,000 303 412 0
2021-09-17 09:18:38 GMT 53.733944 2.145727 40,000 302 412 0
2021-09-17 09:18:36 GMT 53.731979 2.151045 40,000 302 413 0
2021-09-17 09:18:34 GMT 53.728870 2.159541 40,000 302 413 0
2021-09-17 09:18:31 GMT 53.727985 2.161883 40,000 302 412 0
2021-09-17 09:18:30 GMT 53.726822 2.165034 40,000 302 412 0
2021-09-17 09:18:28 GMT 53.723694 2.173567 40,000 302 412 0
2021-09-17 09:18:26 GMT 53.722275 2.177490 40,000 302 412 0
2021-09-17 09:18:24 GMT 53.720074 2.183452 40,000 302 412 0
2021-09-17 09:18:22 GMT 53.718933 2.186515 40,000 302 413 0
2021-09-17 09:18:20 GMT 53.716827 2.192322 40,000 302 413 0
2021-09-17 09:18:18 GMT 53.715317 2.196481 40,000 302 413 0
2021-09-17 09:18:17 GMT 53.713696 2.200901 40,000 302 413 0
2021-09-17 09:18:16 GMT 53.712715 2.203567 40,000 302 413 0
2021-09-17 09:18:15 GMT 53.711334 2.207232 40,000 302 413 0
2021-09-17 09:18:13 GMT 53.709785 2.211564 40,000 302 412 0
2021-09-17 09:18:11 GMT 53.706711 2.219945 40,000 302 412 0
2021-09-17 09:18:09 GMT 53.705688 2.222793 40,000 302 412 0
2021-09-17 09:18:07 GMT 53.703598 2.228420 40,000 302 413 0
2021-09-17 09:18:05 GMT 53.701405 2.234344 40,000 302 413 0
2021-09-17 09:18:03 GMT 53.699341 2.240034 40,000 302 413 0
2021-09-17 09:18:02 GMT 53.698238 2.242988 40,000 302 413 0
2021-09-17 09:18:00 GMT 53.695259 2.250986 40,000 302 413 0
2021-09-17 09:17:58 GMT 53.694305 2.253610 40,000 302 412 0
2021-09-17 09:17:57 GMT 53.692421 2.258660 40,000 302 412 0
2021-09-17 09:17:55 GMT 53.691284 2.261850 40,000 303 412 0
2021-09-17 09:17:54 GMT 53.690372 2.264234 40,000 303 412 0
2021-09-17 09:17:52 GMT 53.688354 2.269775 40,000 303 412 0
2021-09-17 09:17:51 GMT 53.687531 2.271908 40,000 303 412 0
2021-09-17 09:17:50 GMT 53.684738 2.279428 40,000 303 412 0
2021-09-17 09:17:47 GMT 53.683136 2.283744 40,000 303 412 0
2021-09-17 09:17:46 GMT 53.680252 2.291513 40,000 303 412 0
2021-09-17 09:17:44 GMT 53.680252 2.291513 40,000 303 412 0
2021-09-17 09:17:43 GMT 53.679245 2.294204 40,000 303 412 0
2021-09-17 09:17:42 GMT 53.677185 2.299752 40,000 303 412 0
2021-09-17 09:17:40 GMT 53.675987 2.302928 40,000 303 412 0
2021-09-17 09:17:38 GMT 53.674301 2.307443 40,000 303 412 0
2021-09-17 09:17:36 GMT 53.671936 2.313834 40,000 303 412 0
2021-09-17 09:17:34 GMT 53.669861 2.319449 40,000 303 412 0
2021-09-17 09:17:32 GMT 53.667652 2.325305 40,000 303 412 0
2021-09-17 09:17:30 GMT 53.664722 2.333141 40,000 303 412 0
2021-09-17 09:17:27 GMT 53.663361 2.336792 40,000 303 412 0
2021-09-17 09:17:26 GMT 53.661743 2.341219 40,000 303 412 0
2021-09-17 09:17:24 GMT 53.659695 2.346631 40,000 303 412 0
2021-09-17 09:17:21 GMT 53.656483 2.355275 40,000 303 412 0
2021-09-17 09:17:19 GMT 53.652710 2.365453 40,000 303 412 0
2021-09-17 09:17:17 GMT 53.652710 2.365453 40,000 303 412 0
2021-09-17 09:17:16 GMT 53.650543 2.371242 40,000 303 413 0
2021-09-17 09:17:13 GMT 53.648895 2.375637 40,000 303 413 0
2021-09-17 09:17:11 GMT 53.646240 2.382778 40,000 303 413 0
2021-09-17 09:17:10 GMT 53.645264 2.385406 40,000 303 413 0
2021-09-17 09:17:07 GMT 53.642376 2.393162 40,000 303 412 0
2021-09-17 09:17:05 GMT 53.640282 2.398735 40,000 303 412 0
2021-09-17 09:17:04 GMT 53.639236 2.401454 40,000 303 412 0
2021-09-17 09:17:02 GMT 53.635300 2.412064 40,000 303 412 -64
2021-09-17 09:17:00 GMT 53.635300 2.412064 40,000 303 412 -64
2021-09-17 09:16:58 GMT 53.633160 2.417881 40,000 303 412 0
2021-09-17 09:16:57 GMT 53.632233 2.420367 40,000 303 412 0
2021-09-17 09:16:56 GMT 53.629620 2.427413 40,000 303 412 0
2021-09-17 09:16:53 GMT 53.628159 2.431353 40,000 303 412 0
2021-09-17 09:16:51 GMT 53.626053 2.437081 40,000 302 412 0
2021-09-17 09:16:49 GMT 53.624081 2.442277 40,000 302 412 0
2021-09-17 09:16:46 GMT 53.621750 2.448617 40,000 302 412 0
2021-09-17 09:16:44 GMT 53.618683 2.456898 40,000 302 412 0
2021-09-17 09:16:41 GMT 53.615753 2.464783 40,000 302 412 0
2021-09-17 09:16:37 GMT 53.611977 2.474913 40,000 303 412 0
2021-09-17 09:16:34 GMT 53.609436 2.481890 40,000 303 412 0
2021-09-17 09:16:32 GMT 53.607323 2.487515 40,000 303 412 0
2021-09-17 09:16:29 GMT 53.604401 2.495387 40,000 303 412 0
2021-09-17 09:16:25 GMT 53.600372 2.506138 40,000 303 412 0
2021-09-17 09:16:22 GMT 53.597359 2.514254 40,000 303 412 0
2021-09-17 09:16:19 GMT 53.594238 2.522539 40,000 303 412 64
2021-09-17 09:16:16 GMT 53.591492 2.529994 40,000 303 412 64
2021-09-17 09:16:14 GMT 53.589569 2.535174 40,000 303 412 0
2021-09-17 09:16:12 GMT 53.587025 2.541962 40,000 303 412 0
2021-09-17 09:16:09 GMT 53.583939 2.550241 40,000 303 412 0
2021-09-17 09:16:05 GMT 53.580181 2.560299 40,000 303 412 0
2021-09-17 09:16:03 GMT 53.577988 2.566092 40,000 303 412 0
2021-09-17 09:16:00 GMT 53.575104 2.573940 40,000 303 413 0
2021-09-17 09:15:58 GMT 53.572037 2.582110 40,000 303 413 0
2021-09-17 09:15:55 GMT 53.569839 2.588065 40,000 303 413 0
2021-09-17 09:15:52 GMT 53.566635 2.596489 40,000 303 413 0
2021-09-17 09:15:49 GMT 53.563423 2.605133 40,000 303 413 0
2021-09-17 09:15:46 GMT 53.561325 2.610822 40,000 303 413 0
2021-09-17 09:15:44 GMT 53.558304 2.618866 40,000 303 412 0
2021-09-17 09:15:41 GMT 53.555325 2.626702 40,000 303 412 0
2021-09-17 09:15:36 GMT 53.549744 2.641663 40,000 303 413 0
2021-09-17 09:15:33 GMT 53.548141 2.645822 40,000 303 413 0
2021-09-17 09:15:31 GMT 53.545406 2.653037 40,000 303 413 0
2021-09-17 09:15:29 GMT 53.543976 2.656887 40,000 303 413 64
2021-09-17 09:15:26 GMT 53.538334 2.671859 40,000 303 413 0
2021-09-17 09:15:24 GMT 53.538334 2.671859 40,000 303 413 0
2021-09-17 09:15:21 GMT 53.535168 2.680260 40,000 303 413 0
2021-09-17 09:15:18 GMT 53.528557 2.697709 40,000 303 413 0
2021-09-17 09:15:15 GMT 53.528557 2.697709 40,000 303 413 0
2021-09-17 09:15:12 GMT 53.526031 2.704285 40,000 303 413 0
2021-09-17 09:15:10 GMT 53.523331 2.711504 40,000 303 413 0
2021-09-17 09:15:07 GMT 53.519760 2.720843 40,000 303 413 0
2021-09-17 09:15:04 GMT 53.517746 2.726179 40,000 303 413 0
2021-09-17 09:15:02 GMT 53.512684 2.739635 40,000 303 413 0
2021-09-17 09:14:59 GMT 53.512684 2.739635 40,000 303 413 0
2021-09-17 09:14:55 GMT 53.509186 2.748858 40,000 303 413 0
2021-09-17 09:14:53 GMT 53.506165 2.756761 40,000 303 413 0
2021-09-17 09:14:51 GMT 53.502579 2.766293 40,000 303 413 0
2021-09-17 09:14:49 GMT 53.502579 2.766293 40,000 303 413 0
2021-09-17 09:14:46 GMT 53.499390 2.774754 40,000 303 413 0
2021-09-17 09:14:41 GMT 53.494354 2.788173 40,000 303 413 0
2021-09-17 09:14:38 GMT 53.491875 2.794809 40,000 303 413 0
2021-09-17 09:14:35 GMT 53.488129 2.804653 40,000 303 413 0
2021-09-17 09:14:33 GMT 53.485886 2.810695 40,000 303 413 0
2021-09-17 09:14:31 GMT 53.484379 2.814681 40,000 303 413 0
2021-09-17 09:14:28 GMT 53.480095 2.825910 40,000 303 413 0
2021-09-17 09:14:25 GMT 53.474991 2.839417 40,000 303 413 0
2021-09-17 09:14:22 GMT 53.474991 2.839417 40,000 303 413 0
2021-09-17 09:14:20 GMT 53.472786 2.845217 40,000 303 413 0
2021-09-17 09:14:16 GMT 53.465378 2.864685 40,000 303 413 0
2021-09-17 09:14:13 GMT 53.463757 2.868966 40,000 303 413 0
2021-09-17 09:14:11 GMT 53.460449 2.877691 40,000 303 413 0
2021-09-17 09:14:08 GMT 53.457565 2.885446 40,000 303 413 0
2021-09-17 09:14:05 GMT 53.457565 2.885446 40,000 303 413 0
2021-09-17 09:14:03 GMT 53.455563 2.890616 40,000 303 413 0
2021-09-17 09:14:01 GMT 53.453468 2.896190 40,000 303 413 0
2021-09-17 09:13:59 GMT 53.451420 2.901602 40,000 303 413 0
2021-09-17 09:13:56 GMT 53.447754 2.911220 40,000 303 413 0
2021-09-17 09:13:53 GMT 53.442902 2.923979 40,000 303 413 0
2021-09-17 09:13:51 GMT 53.442902 2.923979 40,000 303 413 0
2021-09-17 09:13:48 GMT 53.439316 2.933511 40,000 303 413 0
2021-09-17 09:13:45 GMT 53.437683 2.937744 40,000 303 413 0
2021-09-17 09:13:43 GMT 53.434612 2.945871 40,000 303 413 0
2021-09-17 09:13:40 GMT 53.432465 2.951477 40,000 303 413 0
2021-09-17 09:13:38 GMT 53.429958 2.958150 40,000 303 413 0
2021-09-17 09:13:35 GMT 53.426189 2.968086 40,000 303 413 0
2021-09-17 09:13:32 GMT 53.421066 2.981611 40,000 303 413 0
2021-09-17 09:13:29 GMT 53.421066 2.981611 40,000 303 413 0
2021-09-17 09:13:27 GMT 53.418915 2.987183 40,000 303 413 0
2021-09-17 09:13:25 GMT 53.416924 2.992482 40,000 303 413 0
2021-09-17 09:13:22 GMT 53.413513 3.001386 40,000 303 413 0
2021-09-17 09:13:19 GMT 53.410172 3.010254 40,000 303 413 -64
2021-09-17 09:13:15 GMT 53.404587 3.024929 40,000 303 414 -64
2021-09-17 09:13:13 GMT 53.400467 3.035758 40,000 303 414 0
2021-09-17 09:13:10 GMT 53.400467 3.035758 40,000 303 414 64
2021-09-17 09:13:07 GMT 53.397884 3.042405 40,000 303 414 0
2021-09-17 09:13:05 GMT 53.396439 3.046273 40,000 303 414 0
2021-09-17 09:13:02 GMT 53.393143 3.054827 40,000 303 414 0
2021-09-17 09:13:00 GMT 53.390030 3.063067 40,000 303 414 0
2021-09-17 09:12:57 GMT 53.387829 3.068740 40,000 303 414 0
2021-09-17 09:12:55 GMT 53.385818 3.074053 40,000 303 414 -64
2021-09-17 09:12:52 GMT 53.382797 3.081979 40,000 303 414 0
2021-09-17 09:12:50 GMT 53.380783 3.087315 40,000 303 414 -64
2021-09-17 09:12:47 GMT 53.374374 3.103952 40,000 303 414 -64
2021-09-17 09:12:44 GMT 53.374374 3.103952 40,000 303 414 -64
2021-09-17 09:12:41 GMT 53.371395 3.111877 40,000 303 414 -64
2021-09-17 09:12:38 GMT 53.368092 3.120360 40,000 303 414 0
2021-09-17 09:12:35 GMT 53.364319 3.130215 40,000 303 414 0
2021-09-17 09:12:31 GMT 53.361694 3.137146 40,000 303 414 0
2021-09-17 09:12:29 GMT 53.358398 3.145700 40,000 303 414 0
2021-09-17 09:12:26 GMT 53.356174 3.151461 40,000 303 414 0
2021-09-17 09:12:23 GMT 53.351795 3.162851 40,000 303 414 0
2021-09-17 09:12:20 GMT 53.349842 3.167940 40,000 303 414 0
2021-09-17 09:12:17 GMT 53.345764 3.178580 40,000 303 414 0
2021-09-17 09:12:14 GMT 53.343613 3.184073 40,000 303 414 0
2021-09-17 09:12:12 GMT 53.338257 3.198120 40,000 303 415 0
2021-09-17 09:12:09 GMT 53.335327 3.205654 40,000 303 415 0
2021-09-17 09:12:06 GMT 53.333221 3.211225 40,000 303 415 0
2021-09-17 09:12:04 GMT 53.333221 3.211225 40,000 303 415 0
2021-09-17 09:12:01 GMT 53.330246 3.218994 40,000 303 415 0
2021-09-17 09:11:58 GMT 53.326797 3.228042 40,000 303 415 0
2021-09-17 09:11:54 GMT 53.323059 3.237828 40,000 303 415 0
2021-09-17 09:11:51 GMT 53.319214 3.247872 40,000 299 412 0
2021-09-17 09:11:48 GMT 53.316326 3.255346 40,000 303 415 0
2021-09-17 09:11:45 GMT 53.313858 3.261809 40,000 303 415 0
2021-09-17 09:11:40 GMT 53.308044 3.277143 40,000 303 415 0
2021-09-17 09:11:37 GMT 53.306084 3.282166 40,000 303 415 0
2021-09-17 09:11:34 GMT 53.302731 3.290890 40,000 303 415 0
2021-09-17 09:11:32 GMT 53.300766 3.296055 40,000 303 414 0
2021-09-17 09:11:30 GMT 53.298031 3.303088 40,000 303 414 0
2021-09-17 09:11:27 GMT 53.294632 3.312055 40,000 303 414 0
2021-09-17 09:11:25 GMT 53.292664 3.317086 40,000 303 414 0
2021-09-17 09:11:22 GMT 53.287033 3.331839 40,000 303 414 0
2021-09-17 09:11:19 GMT 53.287033 3.331839 40,000 303 415 64
2021-09-17 09:11:16 GMT 53.283226 3.341621 40,000 303 414 64
2021-09-17 09:11:13 GMT 53.280533 3.348711 40,000 303 415 64
2021-09-17 09:11:10 GMT 53.272247 3.370370 40,000 303 415 -64
2021-09-17 09:11:06 GMT 53.270782 3.374137 40,000 304 415 -64
2021-09-17 09:11:03 GMT 53.270782 3.374137 40,000 304 415 -64
2021-09-17 09:11:00 GMT 53.267071 3.383224 40,000 306 414 -64
2021-09-17 09:10:57 GMT 53.263393 3.391383 40,000 309 414 -64
2021-09-17 09:10:54 GMT 53.259766 3.398976 40,000 312 413 0
2021-09-17 09:10:51 GMT 53.256039 3.406246 40,000 313 413 0
2021-09-17 09:10:48 GMT 53.248352 3.419730 40,000 319 413 0
2021-09-17 09:10:45 GMT 53.248352 3.419730 40,000 319 413 0
2021-09-17 09:10:42 GMT 53.244186 3.426322 40,000 331 412 0
2021-09-17 09:10:39 GMT 53.239288 3.433620 40,000 321 412 0
2021-09-17 09:10:36 GMT 53.235352 3.439035 40,000 323 413 0
2021-09-17 09:10:33 GMT 53.231506 3.443891 40,000 331 412 0
2021-09-17 09:10:30 GMT 53.225224 3.451484 40,000 331 412 0
2021-09-17 09:10:27 GMT 53.216610 3.460613 40,000 329 413 64
2021-09-17 09:10:24 GMT 53.211548 3.465480 40,000 331 413 0
2021-09-17 09:10:21 GMT 53.206879 3.469875 40,000 331 414 0
2021-09-17 09:10:19 GMT 53.206879 3.469875 40,000 331 414 0
2021-09-17 09:10:16 GMT 53.203762 3.472891 40,000 331 413 0
2021-09-17 09:10:13 GMT 53.198456 3.477879 40,000 331 413 0
2021-09-17 09:10:11 GMT 53.194405 3.481697 40,000 331 413 0
2021-09-17 09:10:08 GMT 53.189514 3.486301 40,000 331 413 0
2021-09-17 09:10:05 GMT 53.185280 3.490340 40,000 331 413 0
2021-09-17 09:10:02 GMT 53.180904 3.494460 40,000 331 412 0
2021-09-17 09:09:59 GMT 53.174248 3.500761 40,000 331 412 0
2021-09-17 09:09:56 GMT 53.168930 3.505816 40,000 331 412 0
2021-09-17 09:09:53 GMT 53.166412 3.508170 40,000 331 412 0
2021-09-17 09:09:51 GMT 53.161697 3.512643 40,000 331 412 0
2021-09-17 09:09:49 GMT 53.157394 3.516675 40,000 331 412 0
2021-09-17 09:09:46 GMT 53.154327 3.519627 40,000 331 412 0
2021-09-17 09:09:43 GMT 53.149979 3.523708 40,000 331 412 0
2021-09-17 09:09:41 GMT 53.144760 3.528652 40,000 331 412 0
2021-09-17 09:09:38 GMT 53.140594 3.532575 40,000 331 412 0
2021-09-17 09:09:35 GMT 53.135796 3.537113 40,000 331 412 0
2021-09-17 09:09:32 GMT 53.130066 3.542542 40,000 331 412 0
2021-09-17 09:09:29 GMT 53.125854 3.546544 40,000 331 412 0
2021-09-17 09:09:26 GMT 53.121269 3.550846 40,000 331 411 0
2021-09-17 09:09:23 GMT 53.116241 3.555612 40,000 331 412 0
2021-09-17 09:09:21 GMT 53.106857 3.564436 40,000 331 412 0
2021-09-17 09:09:18 GMT 53.106857 3.564436 40,000 331 412 0
2021-09-17 09:09:15 GMT 53.103207 3.567891 40,000 331 412 0
2021-09-17 09:09:13 GMT 53.093155 3.577384 40,000 331 412 0
2021-09-17 09:09:10 GMT 53.093155 3.577384 40,000 331 412 0
2021-09-17 09:09:06 GMT 53.083420 3.586502 40,000 331 412 0
2021-09-17 09:09:03 GMT 53.083420 3.586502 40,000 331 412 0
2021-09-17 09:09:01 GMT 53.075775 3.593674 40,000 331 411 0
2021-09-17 09:08:59 GMT 53.075775 3.593674 40,000 331 411 0
2021-09-17 09:08:56 GMT 53.070667 3.598415 40,000 331 411 0
2021-09-17 09:08:53 GMT 53.066299 3.602524 40,000 331 411 0
2021-09-17 09:08:50 GMT 53.061401 3.607101 40,000 331 411 64
2021-09-17 09:08:48 GMT 53.058239 3.610107 40,000 331 411 0
2021-09-17 09:08:45 GMT 53.052887 3.615036 40,000 331 411 0
2021-09-17 09:08:42 GMT 53.046021 3.621445 40,000 331 411 0
2021-09-17 09:08:39 GMT 53.041759 3.625410 40,000 303 411 128
2021-09-17 09:08:36 GMT 53.037323 3.629608 40,000 331 411 64
2021-09-17 09:08:33 GMT 53.033707 3.632965 40,000 331 411 64
2021-09-17 09:08:30 GMT 53.028442 3.637848 40,000 299 412 0
2021-09-17 09:08:28 GMT 53.023464 3.642439 40,000 331 410 0
2021-09-17 09:08:25 GMT 53.019554 3.646127 40,000 330 410 -64
2021-09-17 09:08:22 GMT 53.014713 3.650521 40,000 331 411 -64
2021-09-17 09:08:20 GMT 53.010849 3.654131 40,000 330 410 -128
2021-09-17 09:08:18 GMT 53.007889 3.656921 40,000 328 410 0
2021-09-17 09:08:15 GMT 53.003262 3.661429 40,000 324 410 0
2021-09-17 09:08:12 GMT 52.999374 3.665619 40,000 324 410 0
2021-09-17 09:08:10 GMT 52.995438 3.670120 40,000 324 410 0
2021-09-17 09:08:08 GMT 52.992367 3.673907 40,000 317 410 0
2021-09-17 09:08:05 GMT 52.987900 3.679792 40,000 319 410 0
2021-09-17 09:08:02 GMT 52.982872 3.687090 40,000 314 410 0
2021-09-17 09:07:59 GMT 52.979752 3.691956 40,000 314 410 0
2021-09-17 09:07:57 GMT 52.977005 3.696429 40,000 312 410 -64
2021-09-17 09:07:54 GMT 52.972641 3.704300 40,000 304 411 0
2021-09-17 09:07:51 GMT 52.968300 3.712830 40,000 308 411 0
2021-09-17 09:07:48 GMT 52.965958 3.717880 40,000 304 411 64
2021-09-17 09:07:45 GMT 52.962891 3.724976 40,000 304 411 64
2021-09-17 09:07:42 GMT 52.956474 3.742022 40,000 300 412 0
2021-09-17 09:07:39 GMT 52.956474 3.742022 40,000 300 412 0
2021-09-17 09:07:36 GMT 52.950657 3.759286 40,000 299 412 0
2021-09-17 09:07:33 GMT 52.950657 3.759286 40,000 299 412 0
2021-09-17 09:07:30 GMT 52.948059 3.767166 40,000 299 412 0
2021-09-17 09:07:28 GMT 52.945267 3.775482 40,000 299 412 0
2021-09-17 09:07:25 GMT 52.943436 3.780975 40,000 299 412 0
2021-09-17 09:07:23 GMT 52.941650 3.786392 40,000 299 412 0
2021-09-17 09:07:21 GMT 52.939762 3.792167 40,000 299 412 0
2021-09-17 09:07:18 GMT 52.933731 3.810120 40,000 299 412 0
2021-09-17 09:07:15 GMT 52.933731 3.810120 40,000 299 412 0
2021-09-17 09:07:12 GMT 52.931351 3.817368 40,000 299 412 0
2021-09-17 09:07:09 GMT 52.926453 3.832016 40,000 299 412 0
2021-09-17 09:07:07 GMT 52.926453 3.832016 40,000 299 412 0
2021-09-17 09:07:04 GMT 52.924122 3.838937 40,000 299 412 0
2021-09-17 09:07:01 GMT 52.922215 3.844744 40,000 299 412 0
2021-09-17 09:06:58 GMT 52.918945 3.854523 40,000 299 412 0
2021-09-17 09:06:55 GMT 52.915604 3.864441 40,000 299 412 0
2021-09-17 09:06:52 GMT 52.912437 3.873858 40,000 299 412 0
2021-09-17 09:06:49 GMT 52.910156 3.880692 40,000 299 412 0
2021-09-17 09:06:47 GMT 52.907684 3.888168 40,000 299 412 0
2021-09-17 09:06:44 GMT 52.906200 3.892535 40,000 299 412 0
2021-09-17 09:06:42 GMT 52.904385 3.897949 40,000 299 412 0
2021-09-17 09:06:39 GMT 52.901688 3.906021 40,000 299 412 0
2021-09-17 09:06:36 GMT 52.896835 3.920441 40,000 299 412 0
2021-09-17 09:06:34 GMT 52.896835 3.920441 40,000 299 412 0
2021-09-17 09:06:32 GMT 52.894958 3.926010 40,000 299 412 0
2021-09-17 09:06:29 GMT 52.891117 3.937500 40,000 300 413 0
2021-09-17 09:06:26 GMT 52.889374 3.942719 40,000 300 413 0
2021-09-17 09:06:23 GMT 52.886719 3.950577 40,000 300 413 0
2021-09-17 09:06:20 GMT 52.884064 3.958588 40,000 300 413 0
2021-09-17 09:06:17 GMT 52.878204 3.975983 40,000 300 413 0
2021-09-17 09:06:14 GMT 52.878204 3.975983 40,000 300 413 0
2021-09-17 09:06:12 GMT 52.876785 3.980103 40,000 300 413 0
2021-09-17 09:06:09 GMT 52.873764 3.989182 40,000 300 413 0
2021-09-17 09:06:07 GMT 52.871796 3.995056 40,000 300 413 0
2021-09-17 09:06:04 GMT 52.869049 4.003143 40,000 300 413 0
2021-09-17 09:06:02 GMT 52.867329 4.008205 40,000 300 413 0
2021-09-17 09:05:59 GMT 52.862045 4.023895 40,000 300 413 64
2021-09-17 09:05:56 GMT 52.862045 4.023895 40,000 299 412 0
2021-09-17 09:05:53 GMT 52.858749 4.033661 40,000 299 412 0
2021-09-17 09:05:51 GMT 52.856964 4.039001 40,000 300 413 64
2021-09-17 09:05:48 GMT 52.851688 4.054661 40,000 300 413 0
2021-09-17 09:05:45 GMT 52.851688 4.054661 40,000 300 413 0
2021-09-17 09:05:42 GMT 52.847450 4.067296 40,000 299 412 0
2021-09-17 09:05:39 GMT 52.843632 4.078596 40,000 299 412 0
2021-09-17 09:05:37 GMT 52.840851 4.086990 40,000 299 412 0
2021-09-17 09:05:34 GMT 52.840851 4.086990 40,000 299 412 0
2021-09-17 09:05:32 GMT 52.836372 4.100255 40,000 299 412 0
2021-09-17 09:05:29 GMT 52.836372 4.100255 40,000 299 412 0
2021-09-17 09:05:27 GMT 52.833847 4.107819 40,000 299 412 0
2021-09-17 09:05:24 GMT 52.831970 4.113388 40,000 299 412 0
2021-09-17 09:05:22 GMT 52.830227 4.118617 40,000 299 412 0
2021-09-17 09:05:19 GMT 52.827015 4.128113 40,000 299 412 0
2021-09-17 09:05:17 GMT 52.824360 4.136117 40,000 299 412 0
2021-09-17 09:05:14 GMT 52.822453 4.141689 40,000 300 412 0
2021-09-17 09:05:11 GMT 52.820126 4.148673 40,000 300 412 0
2021-09-17 09:05:08 GMT 52.816818 4.158482 40,000 300 412 0
2021-09-17 09:05:05 GMT 52.813980 4.166870 40,000 300 412 0
2021-09-17 09:05:02 GMT 52.808853 4.181976 40,000 300 412 0
2021-09-17 09:04:59 GMT 52.808853 4.181976 40,000 300 412 0
2021-09-17 09:04:56 GMT 52.803268 4.198532 40,000 300 412 0
2021-09-17 09:04:53 GMT 52.803268 4.198532 40,000 300 412 0
2021-09-17 09:04:50 GMT 52.799652 4.209213 40,000 300 412 0
2021-09-17 09:04:47 GMT 52.794334 4.224871 40,000 300 411 64
2021-09-17 09:04:44 GMT 52.794334 4.224871 40,000 300 411 0
2021-09-17 09:04:41 GMT 52.789864 4.237976 40,000 300 411 64
2021-09-17 09:04:38 GMT 52.789864 4.237976 40,000 300 411 0
2021-09-17 09:04:36 GMT 52.787304 4.245431 40,000 300 411 0
2021-09-17 09:04:33 GMT 52.782372 4.259949 40,000 300 411 0
2021-09-17 09:04:31 GMT 52.782372 4.259949 40,000 300 411 0
2021-09-17 09:04:28 GMT 52.780136 4.266541 40,000 300 411 -64
2021-09-17 09:04:26 GMT 52.777359 4.274673 40,000 300 411 0
2021-09-17 09:04:23 GMT 52.772964 4.287567 40,000 300 411 0
2021-09-17 09:04:21 GMT 52.772964 4.287567 40,000 300 411 0
2021-09-17 09:04:18 GMT 52.771042 4.293137 40,000 300 411 0
2021-09-17 09:04:16 GMT 52.768917 4.299500 40,000 300 412 64
2021-09-17 09:04:13 GMT 52.765640 4.309082 40,000 300 411 0
2021-09-17 09:04:11 GMT 52.763237 4.316136 40,000 300 411 64
2021-09-17 09:04:08 GMT 52.761200 4.322052 40,000 300 411 64
2021-09-17 09:04:05 GMT 52.758133 4.331055 40,000 299 412 0
2021-09-17 09:04:02 GMT 52.753555 4.344864 40,000 298 412 0
2021-09-17 09:04:00 GMT 52.753555 4.344864 40,000 297 412 0
2021-09-17 09:03:57 GMT 52.750622 4.354353 40,000 293 413 0
2021-09-17 09:03:54 GMT 52.748978 4.360046 40,000 295 413 -64
2021-09-17 09:03:51 GMT 52.746616 4.368399 40,000 295 413 -64
2021-09-17 09:03:48 GMT 52.744354 4.376831 40,000 293 413 0
2021-09-17 09:03:45 GMT 52.741310 4.388803 40,000 293 413 0
2021-09-17 09:03:42 GMT 52.739868 4.394608 40,000 293 413 0
2021-09-17 09:03:40 GMT 52.738403 4.400558 40,000 293 413 0
2021-09-17 09:03:37 GMT 52.736237 4.409441 40,000 293 413 0
2021-09-17 09:03:34 GMT 52.734097 4.417995 40,000 293 413 0
2021-09-17 09:03:31 GMT 52.731262 4.429474 40,000 293 413 0
2021-09-17 09:03:28 GMT 52.729115 4.438163 40,000 293 413 0
2021-09-17 09:03:25 GMT 52.726730 4.447708 40,000 293 413 0
2021-09-17 09:03:22 GMT 52.725437 4.452994 40,000 293 413 0
2021-09-17 09:03:20 GMT 52.723068 4.462509 40,000 293 413 0
2021-09-17 09:03:17 GMT 52.719040 4.478683 40,000 293 413 0
2021-09-17 09:03:14 GMT 52.719040 4.478683 40,000 293 413 0
2021-09-17 09:03:11 GMT 52.716751 4.487762 40,000 293 413 0
2021-09-17 09:03:08 GMT 52.712822 4.503610 40,000 293 413 0
2021-09-17 09:03:05 GMT 52.712822 4.503610 40,000 293 413 0
2021-09-17 09:03:02 GMT 52.710434 4.513245 40,000 293 414 0
2021-09-17 09:02:59 GMT 52.709015 4.518890 40,000 293 414 0
2021-09-17 09:02:57 GMT 52.707329 4.525818 40,000 293 414 0
2021-09-17 09:02:54 GMT 52.705078 4.534988 40,000 293 414 0
2021-09-17 09:02:51 GMT 52.703293 4.542084 40,000 293 414 0
2021-09-17 09:02:49 GMT 52.701096 4.551010 40,000 293 414 0
2021-09-17 09:02:46 GMT 52.699219 4.558563 40,000 293 414 0
2021-09-17 09:02:43 GMT 52.696518 4.569473 40,000 293 414 0
2021-09-17 09:02:40 GMT 52.694992 4.575649 40,000 293 414 0
2021-09-17 09:02:37 GMT 52.692848 4.584202 40,000 293 414 0
2021-09-17 09:02:34 GMT 52.690247 4.594803 40,000 293 414 0
2021-09-17 09:02:31 GMT 52.688522 4.601702 40,000 293 414 0
2021-09-17 09:02:29 GMT 52.687180 4.607010 40,000 293 414 0
2021-09-17 09:02:27 GMT 52.685402 4.614258 40,000 293 414 0
2021-09-17 09:02:25 GMT 52.683975 4.619904 40,000 293 414 0
2021-09-17 09:02:21 GMT 52.681366 4.630356 40,000 293 414 0
2021-09-17 09:02:19 GMT 52.679855 4.636459 40,000 293 414 0
2021-09-17 09:02:17 GMT 52.677536 4.645804 40,000 293 414 0
2021-09-17 09:02:14 GMT 52.673813 4.660793 40,000 293 414 0
2021-09-17 09:02:11 GMT 52.673813 4.660793 40,000 293 411 0
2021-09-17 09:02:08 GMT 52.671616 4.669495 40,000 293 414 0
2021-09-17 09:02:05 GMT 52.669575 4.677586 40,000 293 414 0
2021-09-17 09:02:02 GMT 52.667313 4.686737 40,000 293 414 0
2021-09-17 09:01:59 GMT 52.664337 4.698563 40,000 293 414 0
2021-09-17 09:01:56 GMT 52.662403 4.706229 40,000 293 414 0
2021-09-17 09:01:53 GMT 52.660858 4.712372 40,000 293 413 0
2021-09-17 09:01:50 GMT 52.658386 4.722290 40,000 293 414 0
2021-09-17 09:01:47 GMT 52.654449 4.737854 40,000 293 413 0
2021-09-17 09:01:44 GMT 52.654449 4.737854 40,000 293 413 0
2021-09-17 09:01:41 GMT 52.651978 4.747663 40,000 293 413 0
2021-09-17 09:01:39 GMT 52.648041 4.763336 40,000 293 413 0
2021-09-17 09:01:36 GMT 52.648041 4.763336 40,000 293 413 0
2021-09-17 09:01:33 GMT 52.645554 4.773167 40,000 293 413 0
2021-09-17 09:01:30 GMT 52.644012 4.779282 40,000 293 413 0
2021-09-17 09:01:27 GMT 52.641876 4.787685 40,000 293 413 0
2021-09-17 09:01:24 GMT 52.639709 4.796371 40,000 293 413 0
2021-09-17 09:01:21 GMT 52.637329 4.805832 40,000 293 413 0
2021-09-17 09:01:19 GMT 52.635498 4.812927 40,000 293 413 -64
2021-09-17 09:01:16 GMT 52.633667 4.820251 40,000 293 412 0
2021-09-17 09:01:13 GMT 52.631214 4.829982 40,000 293 412 0
2021-09-17 09:01:10 GMT 52.627075 4.846420 40,000 293 412 0
2021-09-17 09:01:07 GMT 52.625244 4.853668 40,000 293 412 64
2021-09-17 09:01:04 GMT 52.625244 4.853668 40,000 293 412 0
2021-09-17 09:01:01 GMT 52.621078 4.870148 40,000 293 412 0
2021-09-17 09:00:59 GMT 52.621078 4.870148 40,000 293 412 0
2021-09-17 09:00:56 GMT 52.619293 4.877090 40,000 293 411 0
2021-09-17 09:00:53 GMT 52.616550 4.887896 40,000 293 412 0
2021-09-17 09:00:50 GMT 52.614349 4.896698 40,000 293 411 0
2021-09-17 09:00:47 GMT 52.612316 4.904611 40,000 293 411 0
2021-09-17 09:00:44 GMT 52.610546 4.911516 40,000 293 411 0
2021-09-17 09:00:41 GMT 52.606075 4.929173 40,000 293 411 0
2021-09-17 09:00:39 GMT 52.606075 4.929173 40,000 293 411 0
2021-09-17 09:00:36 GMT 52.604416 4.935608 40,000 293 411 0
2021-09-17 09:00:33 GMT 52.602585 4.942749 40,000 293 411 0
2021-09-17 09:00:30 GMT 52.599838 4.953613 40,000 293 411 0
2021-09-17 09:00:27 GMT 52.597698 4.961975 40,000 293 411 0
2021-09-17 09:00:25 GMT 52.596359 4.967346 40,000 293 411 0
2021-09-17 09:00:22 GMT 52.594254 4.975473 40,000 293 411 0
2021-09-17 09:00:19 GMT 52.591599 4.985910 40,000 293 411 0
2021-09-17 09:00:16 GMT 52.589813 4.992828 40,000 293 407 0
2021-09-17 09:00:13 GMT 52.587250 5.003052 40,000 293 411 0
2021-09-17 09:00:10 GMT 52.584805 5.012669 40,000 293 411 0
2021-09-17 09:00:07 GMT 52.582893 5.020124 40,000 293 411 0
2021-09-17 09:00:05 GMT 52.581173 5.026951 40,000 294 406 0
2021-09-17 09:00:02 GMT 52.578983 5.035427 40,000 293 410 0
2021-09-17 08:59:59 GMT 52.577309 5.042097 40,000 293 410 0
2021-09-17 08:59:56 GMT 52.575577 5.048981 40,000 293 410 0
2021-09-17 08:59:54 GMT 52.573723 5.056144 40,000 293 410 0
2021-09-17 08:59:51 GMT 52.571182 5.066147 40,000 293 410 0
2021-09-17 08:59:48 GMT 52.569206 5.073879 40,000 293 410 0
2021-09-17 08:59:45 GMT 52.566738 5.083609 40,000 293 410 0
2021-09-17 08:59:42 GMT 52.562782 5.099147 40,000 293 410 64
2021-09-17 08:59:39 GMT 52.562782 5.099147 40,000 293 410 64
2021-09-17 08:59:36 GMT 52.559464 5.112152 40,000 293 410 0
2021-09-17 08:59:34 GMT 52.559464 5.112152 40,000 293 410 0
2021-09-17 08:59:32 GMT 52.557430 5.120335 40,000 293 409 0
2021-09-17 08:59:29 GMT 52.555206 5.128937 40,000 293 410 0
2021-09-17 08:59:26 GMT 52.553658 5.134931 40,000 293 410 0
2021-09-17 08:59:24 GMT 52.549610 5.150783 40,000 293 410 0
2021-09-17 08:59:22 GMT 52.549610 5.150783 40,000 293 410 0
2021-09-17 08:59:19 GMT 52.547981 5.157061 40,000 293 407 0
2021-09-17 08:59:16 GMT 52.545822 5.165405 40,000 293 409 0
2021-09-17 08:59:13 GMT 52.543976 5.172520 40,000 293 409 0
2021-09-17 08:59:11 GMT 52.541508 5.182173 40,000 293 409 0
2021-09-17 08:59:08 GMT 52.539322 5.190805 40,000 293 409 0
2021-09-17 08:59:05 GMT 52.537170 5.199203 40,000 293 409 0
2021-09-17 08:59:02 GMT 52.533600 5.213013 40,000 293 409 0
2021-09-17 08:58:59 GMT 52.533600 5.213013 40,000 293 409 0
2021-09-17 08:58:56 GMT 52.531448 5.221405 40,000 293 408 0
2021-09-17 08:58:54 GMT 52.529499 5.228943 40,000 293 408 0
2021-09-17 08:58:51 GMT 52.527603 5.236282 40,000 293 408 0
2021-09-17 08:58:48 GMT 52.524982 5.246443 40,000 293 408 0
2021-09-17 08:58:45 GMT 52.522980 5.254211 40,000 293 408 0
2021-09-17 08:58:42 GMT 52.520782 5.262680 40,000 293 408 0
2021-09-17 08:58:39 GMT 52.518402 5.271912 40,000 293 408 0
2021-09-17 08:58:36 GMT 52.516342 5.279846 40,000 293 407 0
2021-09-17 08:58:33 GMT 52.514557 5.286700 40,000 293 407 0
2021-09-17 08:58:31 GMT 52.512321 5.295489 40,000 293 407 0
2021-09-17 08:58:28 GMT 52.510895 5.300903 40,000 293 407 0
2021-09-17 08:58:25 GMT 52.508224 5.311262 40,000 293 407 0
2021-09-17 08:58:22 GMT 52.506042 5.319748 40,000 293 407 0
2021-09-17 08:58:19 GMT 52.502686 5.332764 40,000 293 407 0
2021-09-17 08:58:17 GMT 52.502686 5.332764 40,000 293 407 0
2021-09-17 08:58:14 GMT 52.500229 5.342255 40,000 293 407 0
2021-09-17 08:58:11 GMT 52.498821 5.347674 40,000 293 407 0
2021-09-17 08:58:08 GMT 52.495834 5.359268 40,000 293 406 0
2021-09-17 08:58:05 GMT 52.493698 5.367449 40,000 293 406 0
2021-09-17 08:58:02 GMT 52.491184 5.377180 40,000 293 406 0
2021-09-17 08:57:59 GMT 52.489418 5.384007 40,000 293 406 0
2021-09-17 08:57:57 GMT 52.487823 5.390320 40,000 293 406 0
2021-09-17 08:57:54 GMT 52.485947 5.397491 40,000 294 406 64
2021-09-17 08:57:51 GMT 52.483597 5.406686 40,000 294 406 64
2021-09-17 08:57:48 GMT 52.481365 5.415240 40,000 293 406 0
2021-09-17 08:57:45 GMT 52.478619 5.425912 40,000 294 406 0
2021-09-17 08:57:42 GMT 52.477158 5.431519 40,000 294 405 0
2021-09-17 08:57:39 GMT 52.474548 5.441666 40,000 294 406 64
2021-09-17 08:57:37 GMT 52.471310 5.454084 40,000 294 406 0
2021-09-17 08:57:34 GMT 52.471310 5.454084 40,000 294 406 0
2021-09-17 08:57:31 GMT 52.468700 5.464207 40,000 294 406 -64
2021-09-17 08:57:28 GMT 52.466858 5.471344 40,000 294 406 0
2021-09-17 08:57:25 GMT 52.464420 5.480608 40,000 293 406 0
2021-09-17 08:57:22 GMT 52.461857 5.490496 40,000 294 406 0
2021-09-17 08:57:19 GMT 52.459579 5.499344 40,000 293 406 0
2021-09-17 08:57:16 GMT 52.458225 5.504621 40,000 293 406 0
2021-09-17 08:57:13 GMT 52.455185 5.516281 40,000 293 406 0
2021-09-17 08:57:10 GMT 52.453445 5.523071 40,000 293 406 0
2021-09-17 08:57:07 GMT 52.451710 5.529968 40,000 293 406 0
2021-09-17 08:57:04 GMT 52.448547 5.542145 40,000 293 406 0
2021-09-17 08:57:01 GMT 52.446991 5.548096 40,000 293 406 0
2021-09-17 08:56:58 GMT 52.444794 5.556717 40,000 293 406 0
2021-09-17 08:56:56 GMT 52.443283 5.562592 40,000 293 406 0
2021-09-17 08:56:53 GMT 52.440399 5.573807 40,000 293 405 0
2021-09-17 08:56:50 GMT 52.439026 5.579071 40,000 294 405 0
2021-09-17 08:56:47 GMT 52.436954 5.586940 40,000 294 405 0
2021-09-17 08:56:44 GMT 52.434906 5.594864 40,000 294 405 0
2021-09-17 08:56:41 GMT 52.430157 5.613150 40,000 294 405 0
2021-09-17 08:56:38 GMT 52.430157 5.613150 40,000 294 405 0
2021-09-17 08:56:35 GMT 52.427876 5.621861 40,000 294 405 0
2021-09-17 08:56:33 GMT 52.426804 5.625992 40,000 294 405 0
2021-09-17 08:56:30 GMT 52.424522 5.634574 40,000 294 405 0
2021-09-17 08:56:27 GMT 52.421860 5.644760 40,000 294 405 0
2021-09-17 08:56:24 GMT 52.419708 5.653076 40,000 294 405 64
2021-09-17 08:56:21 GMT 52.415260 5.669887 40,000 294 405 0
2021-09-17 08:56:18 GMT 52.415260 5.669887 40,000 294 406 0
2021-09-17 08:56:15 GMT 52.410965 5.686264 40,000 294 406 0
2021-09-17 08:56:12 GMT 52.410965 5.686264 40,000 294 406 0
2021-09-17 08:56:09 GMT 52.409069 5.693508 40,000 294 406 0
2021-09-17 08:56:06 GMT 52.406460 5.703317 40,000 294 406 0
2021-09-17 08:56:03 GMT 52.404510 5.710754 40,000 294 406 0
2021-09-17 08:56:00 GMT 52.402180 5.719482 40,000 294 407 0
2021-09-17 08:55:57 GMT 52.399990 5.727722 40,000 294 407 0
2021-09-17 08:55:55 GMT 52.396221 5.742004 40,000 294 407 0
2021-09-17 08:55:52 GMT 52.396221 5.742004 40,000 294 407 0
2021-09-17 08:55:49 GMT 52.391418 5.760345 40,000 294 407 0
2021-09-17 08:55:46 GMT 52.391418 5.760345 40,000 294 407 0
2021-09-17 08:55:43 GMT 52.389236 5.768685 40,000 294 407 0
2021-09-17 08:55:40 GMT 52.387283 5.776062 40,000 294 407 0
2021-09-17 08:55:37 GMT 52.382996 5.792389 40,000 294 407 0
2021-09-17 08:55:34 GMT 52.382996 5.792389 40,000 294 407 0
2021-09-17 08:55:32 GMT 52.380753 5.800781 40,000 294 407 0
2021-09-17 08:55:29 GMT 52.378601 5.809097 40,000 294 407 0
2021-09-17 08:55:26 GMT 52.376678 5.816345 40,000 294 407 0
2021-09-17 08:55:23 GMT 52.374207 5.825653 40,000 294 407 0
2021-09-17 08:55:20 GMT 52.371593 5.835467 40,000 294 407 0
2021-09-17 08:55:17 GMT 52.368008 5.848964 40,000 294 408 0
2021-09-17 08:55:14 GMT 52.368008 5.848964 40,000 294 408 0
2021-09-17 08:55:11 GMT 52.365772 5.857518 40,000 294 408 0
2021-09-17 08:55:08 GMT 52.363541 5.866071 40,000 294 408 0
2021-09-17 08:55:06 GMT 52.361160 5.875092 40,000 294 408 0
2021-09-17 08:55:03 GMT 52.359585 5.880981 40,000 294 408 0
2021-09-17 08:55:00 GMT 52.357304 5.889771 40,000 294 408 -64
2021-09-17 08:54:57 GMT 52.352875 5.906372 40,000 294 408 -64
2021-09-17 08:54:54 GMT 52.352875 5.906372 40,000 294 408 0
2021-09-17 08:54:52 GMT 52.351158 5.912842 40,000 294 409 0
2021-09-17 08:54:49 GMT 52.348801 5.921860 40,000 294 408 0
2021-09-17 08:54:46 GMT 52.347015 5.928497 40,000 294 408 0
2021-09-17 08:54:44 GMT 52.345459 5.934296 40,000 294 408 0
2021-09-17 08:54:42 GMT 52.343987 5.939915 40,000 294 408 64
2021-09-17 08:54:39 GMT 52.342033 5.947213 40,000 294 408 64
2021-09-17 08:54:36 GMT 52.339462 5.956879 40,000 294 408 64
2021-09-17 08:54:33 GMT 52.337677 5.963593 40,000 294 409 64
2021-09-17 08:54:30 GMT 52.334538 5.975464 40,000 294 410 0
2021-09-17 08:54:27 GMT 52.332397 5.983547 40,000 294 409 0
2021-09-17 08:54:25 GMT 52.330906 5.989354 40,000 294 409 0
2021-09-17 08:54:22 GMT 52.328766 5.997280 40,000 294 410 0
2021-09-17 08:54:19 GMT 52.326672 6.005284 40,000 294 410 0
2021-09-17 08:54:16 GMT 52.322617 6.020737 40,000 294 410 0
2021-09-17 08:54:13 GMT 52.322617 6.020737 40,000 294 410 0
2021-09-17 08:54:11 GMT 52.321365 6.025452 40,000 294 410 0
2021-09-17 08:54:08 GMT 52.318451 6.036377 40,000 294 411 0
2021-09-17 08:54:05 GMT 52.316383 6.044207 40,000 294 410 -64
2021-09-17 08:54:03 GMT 52.313961 6.053388 40,000 294 411 -64
2021-09-17 08:54:00 GMT 52.312656 6.058175 40,000 294 411 0
2021-09-17 08:53:57 GMT 52.310284 6.067200 40,000 294 411 -64
2021-09-17 08:53:55 GMT 52.306465 6.081403 40,000 294 411 0
2021-09-17 08:53:52 GMT 52.306465 6.081403 40,000 294 411 0
2021-09-17 08:53:49 GMT 52.303814 6.091448 40,000 294 411 0
2021-09-17 08:53:46 GMT 52.301926 6.098480 40,000 294 411 0
2021-09-17 08:53:44 GMT 52.297390 6.115383 40,000 294 412 64
2021-09-17 08:53:41 GMT 52.297390 6.115383 40,000 294 411 0
2021-09-17 08:53:38 GMT 52.295944 6.120876 40,000 294 412 0
2021-09-17 08:53:35 GMT 52.293106 6.131470 40,000 294 411 0
2021-09-17 08:53:32 GMT 52.291351 6.138000 40,000 294 412 64
2021-09-17 08:53:29 GMT 52.288265 6.149362 40,000 294 412 64
2021-09-17 08:53:26 GMT 52.286591 6.155718 40,000 294 412 64
2021-09-17 08:53:24 GMT 52.284355 6.164115 40,000 294 412 0
2021-09-17 08:53:21 GMT 52.282494 6.171021 40,000 294 412 0
2021-09-17 08:53:18 GMT 52.279930 6.180594 40,000 294 412 0
2021-09-17 08:53:15 GMT 52.278351 6.186480 40,000 294 412 0
2021-09-17 08:53:12 GMT 52.276253 6.194327 40,000 294 413 0
2021-09-17 08:53:09 GMT 52.274094 6.202469 40,000 294 413 0
2021-09-17 08:53:06 GMT 52.271740 6.211199 40,000 294 413 0
2021-09-17 08:53:04 GMT 52.269737 6.218733 40,000 294 413 0
2021-09-17 08:53:02 GMT 52.268051 6.224976 40,000 294 413 0
2021-09-17 08:52:59 GMT 52.264198 6.239371 40,000 294 414 -64
2021-09-17 08:52:56 GMT 52.264198 6.239371 40,000 294 414 0
2021-09-17 08:52:54 GMT 52.262241 6.246669 40,000 294 414 -64
2021-09-17 08:52:51 GMT 52.259903 6.255417 40,000 294 414 -64
2021-09-17 08:52:48 GMT 52.256882 6.266708 40,000 294 415 -64
2021-09-17 08:52:45 GMT 52.255920 6.270294 40,000 294 415 0
2021-09-17 08:52:43 GMT 52.253311 6.279831 40,000 294 416 0
2021-09-17 08:52:40 GMT 52.251255 6.287476 40,000 294 416 0
2021-09-17 08:52:37 GMT 52.248650 6.297128 40,000 294 416 0
2021-09-17 08:52:34 GMT 52.246460 6.305289 40,000 294 416 0
2021-09-17 08:52:31 GMT 52.244247 6.313553 40,000 294 419 0
2021-09-17 08:52:28 GMT 52.242416 6.320114 40,000 294 417 0
2021-09-17 08:52:25 GMT 52.239807 6.329803 40,000 294 418 -64
2021-09-17 08:52:22 GMT 52.236732 6.341073 40,000 294 418 -64
2021-09-17 08:52:19 GMT 52.232849 6.355362 40,000 294 419 -64
2021-09-17 08:52:16 GMT 52.230911 6.362575 40,000 294 419 0
2021-09-17 08:52:14 GMT 52.230911 6.362575 40,000 295 419 64
2021-09-17 08:52:11 GMT 52.228271 6.372147 40,000 294 419 0
2021-09-17 08:52:08 GMT 52.225800 6.381073 40,000 295 419 0
2021-09-17 08:52:05 GMT 52.224426 6.386185 40,000 295 419 0
2021-09-17 08:52:02 GMT 52.221138 6.398124 40,000 294 419 0
2021-09-17 08:51:59 GMT 52.218887 6.406403 40,000 294 419 0
2021-09-17 08:51:56 GMT 52.217239 6.412506 40,000 294 419 0
2021-09-17 08:51:54 GMT 52.212757 6.428807 40,000 294 419 0
2021-09-17 08:51:51 GMT 52.212757 6.428807 40,000 294 419 0
2021-09-17 08:51:48 GMT 52.210709 6.436340 40,000 294 419 0
2021-09-17 08:51:45 GMT 52.205868 6.454075 40,000 294 419 0
2021-09-17 08:51:42 GMT 52.205868 6.454075 40,000 294 419 0
2021-09-17 08:51:40 GMT 52.204239 6.460039 40,000 294 419 0
2021-09-17 08:51:37 GMT 52.201401 6.470490 40,000 294 419 0
2021-09-17 08:51:34 GMT 52.198608 6.480789 40,000 294 419 0
2021-09-17 08:51:32 GMT 52.198608 6.480789 40,000 294 419 0
2021-09-17 08:51:30 GMT 52.196320 6.489182 40,000 294 419 0
2021-09-17 08:51:27 GMT 52.192337 6.503906 40,000 294 419 0
2021-09-17 08:51:24 GMT 52.192337 6.503906 40,000 294 419 0
2021-09-17 08:51:22 GMT 52.189945 6.512695 40,000 290 421 0
2021-09-17 08:51:19 GMT 52.188038 6.519758 40,000 293 420 0
2021-09-17 08:51:16 GMT 52.184555 6.533356 40,000 291 420 0
2021-09-17 08:51:12 GMT 52.182777 6.540867 40,000 291 420 0
2021-09-17 08:51:09 GMT 52.180389 6.551514 40,000 290 421 0
2021-09-17 08:51:06 GMT 52.178726 6.559073 40,000 290 420 0
2021-09-17 08:51:03 GMT 52.176586 6.568726 40,000 290 420 0
2021-09-17 08:51:00 GMT 52.174896 6.576538 40,000 290 420 64
2021-09-17 08:50:57 GMT 52.171143 6.593552 40,000 290 421 0
2021-09-17 08:50:54 GMT 52.171143 6.593552 40,000 290 421 0
2021-09-17 08:50:52 GMT 52.169907 6.598969 40,000 290 421 0
2021-09-17 08:50:49 GMT 52.167526 6.609802 40,000 290 420 -64
2021-09-17 08:50:46 GMT 52.165646 6.618164 40,000 290 420 0
2021-09-17 08:50:43 GMT 52.163830 6.626482 40,000 290 420 0
2021-09-17 08:50:40 GMT 52.161346 6.637650 40,000 290 419 0
2021-09-17 08:50:37 GMT 52.159973 6.643982 40,000 290 420 64
2021-09-17 08:50:34 GMT 52.156082 6.661530 40,000 290 420 0
2021-09-17 08:50:31 GMT 52.156082 6.661530 40,000 290 420 0
2021-09-17 08:50:28 GMT 52.154114 6.670227 40,000 291 419 0
2021-09-17 08:50:25 GMT 52.152420 6.677780 40,000 291 419 0
2021-09-17 08:50:23 GMT 52.150681 6.685486 40,000 290 419 0
2021-09-17 08:50:20 GMT 52.148792 6.693891 40,000 289 420 0
2021-09-17 08:50:17 GMT 52.146973 6.702576 40,000 287 421 0
2021-09-17 08:50:14 GMT 52.145302 6.711312 40,000 285 422 0
2021-09-17 08:50:11 GMT 52.143173 6.723862 40,000 283 423 0
2021-09-17 08:50:08 GMT 52.141205 6.737976 40,000 282 423 0
2021-09-17 08:50:05 GMT 52.141205 6.737976 40,000 281 424 0
2021-09-17 08:50:03 GMT 52.140289 6.745682 40,000 280 424 0
2021-09-17 08:50:00 GMT 52.139206 6.756592 40,000 277 426 0
2021-09-17 08:49:57 GMT 52.138596 6.764145 40,000 276 426 0
2021-09-17 08:49:54 GMT 52.137856 6.775269 40,000 275 427 0
2021-09-17 08:49:51 GMT 52.137497 6.783447 40,000 272 429 0
2021-09-17 08:49:49 GMT 52.137249 6.792140 40,000 272 429 0
2021-09-17 08:49:46 GMT 52.137112 6.801636 40,000 267 432 64
2021-09-17 08:49:43 GMT 52.137177 6.810379 40,000 269 432 0
2021-09-17 08:49:41 GMT 52.137344 6.818115 40,000 266 434 64
2021-09-17 08:49:38 GMT 52.137714 6.828238 40,000 265 434 0
2021-09-17 08:49:35 GMT 52.138088 6.835144 40,000 265 435 0
2021-09-17 08:49:33 GMT 52.138596 6.842804 40,000 265 435 0
2021-09-17 08:49:31 GMT 52.138916 6.847916 40,000 265 435 0
2021-09-17 08:49:29 GMT 52.139603 6.858902 40,000 265 440 -64
2021-09-17 08:49:26 GMT 52.140015 6.865311 40,000 264 436 0
2021-09-17 08:49:24 GMT 52.141068 6.881679 40,000 264 436 0
2021-09-17 08:49:21 GMT 52.141068 6.881679 40,000 264 436 0
2021-09-17 08:49:19 GMT 52.141525 6.888733 40,000 265 436 0
2021-09-17 08:49:16 GMT 52.142303 6.900635 40,000 264 437 0
2021-09-17 08:49:13 GMT 52.142853 6.909256 40,000 264 437 0
2021-09-17 08:49:10 GMT 52.143536 6.919974 40,000 265 439 64
2021-09-17 08:49:07 GMT 52.144234 6.930411 40,000 264 438 -64
2021-09-17 08:49:04 GMT 52.145302 6.947597 40,000 264 438 -64
2021-09-17 08:49:01 GMT 52.145302 6.947597 40,000 264 438 0
2021-09-17 08:48:58 GMT 52.146011 6.958542 40,000 265 439 64
2021-09-17 08:48:55 GMT 52.146561 6.966553 40,000 265 439 64
2021-09-17 08:48:53 GMT 52.147678 6.984401 40,000 265 439 64
2021-09-17 08:48:50 GMT 52.147678 6.984401 40,000 265 440 0
2021-09-17 08:48:47 GMT 52.148254 6.993866 40,000 265 440 0
2021-09-17 08:48:44 GMT 52.148792 7.001822 40,000 265 440 0
2021-09-17 08:48:41 GMT 52.149399 7.011642 40,000 265 440 -64
2021-09-17 08:48:38 GMT 52.150284 7.025600 40,000 265 440 -64
2021-09-17 08:48:35 GMT 52.150658 7.031642 40,000 265 440 0
2021-09-17 08:48:33 GMT 52.151093 7.038498 40,000 265 440 0
2021-09-17 08:48:30 GMT 52.151821 7.050005 40,000 265 440 0
2021-09-17 08:48:27 GMT 52.152328 7.058182 40,000 265 440 0
2021-09-17 08:48:24 GMT 52.152798 7.065935 40,000 265 440 0
2021-09-17 08:48:22 GMT 52.153404 7.075431 40,000 265 440 0
2021-09-17 08:48:20 GMT 52.153824 7.082023 40,000 265 440 0
2021-09-17 08:48:17 GMT 52.154617 7.094803 40,000 265 440 0
2021-09-17 08:48:14 GMT 52.155033 7.101406 40,000 265 440 0
2021-09-17 08:48:11 GMT 52.156448 7.124481 40,000 265 440 64
2021-09-17 08:48:08 GMT 52.156448 7.124481 40,000 265 440 64
2021-09-17 08:48:05 GMT 52.156815 7.130737 40,000 265 440 64
2021-09-17 08:48:03 GMT 52.157272 7.137909 40,000 265 440 0
2021-09-17 08:48:00 GMT 52.157825 7.146371 40,000 265 440 -64
2021-09-17 08:47:57 GMT 52.158600 7.159576 40,000 265 440 0
2021-09-17 08:47:54 GMT 52.159035 7.166225 40,000 265 440 -64
2021-09-17 08:47:51 GMT 52.159641 7.176191 40,000 265 440 0
2021-09-17 08:47:48 GMT 52.160339 7.187271 40,000 265 440 0
2021-09-17 08:47:45 GMT 52.160889 7.196503 40,000 265 439 0
2021-09-17 08:47:43 GMT 52.161457 7.205383 40,000 265 440 0
2021-09-17 08:47:40 GMT 52.161896 7.212219 40,000 265 440 64
2021-09-17 08:47:37 GMT 52.162621 7.224139 40,000 265 440 64
2021-09-17 08:47:34 GMT 52.163223 7.233963 40,000 265 440 64
2021-09-17 08:47:31 GMT 52.163773 7.242508 40,000 265 440 0
2021-09-17 08:47:28 GMT 52.164391 7.252311 40,000 265 440 0
2021-09-17 08:47:25 GMT 52.165089 7.263846 40,000 265 440 0
2021-09-17 08:47:23 GMT 52.165459 7.269339 40,000 265 439 0
2021-09-17 08:47:20 GMT 52.166199 7.281342 40,000 265 439 0
2021-09-17 08:47:17 GMT 52.166622 7.287859 40,000 265 439 0
2021-09-17 08:47:14 GMT 52.167183 7.296962 40,000 265 439 0
2021-09-17 08:47:12 GMT 52.167618 7.303772 40,000 265 439 0
2021-09-17 08:47:09 GMT 52.168945 7.324524 40,000 265 438 0
2021-09-17 08:47:06 GMT 52.168945 7.324524 40,000 265 438 0
2021-09-17 08:47:03 GMT 52.169540 7.334442 40,000 265 439 0
2021-09-17 08:47:00 GMT 52.170254 7.345381 40,000 265 438 0
2021-09-17 08:46:57 GMT 52.170731 7.353516 40,000 265 438 0
2021-09-17 08:46:54 GMT 52.171875 7.371826 40,000 265 438 0
2021-09-17 08:46:52 GMT 52.171875 7.371826 40,000 265 438 0
2021-09-17 08:46:49 GMT 52.172489 7.382342 40,000 265 438 0
2021-09-17 08:46:46 GMT 52.173466 7.398664 40,000 265 438 64
2021-09-17 08:46:43 GMT 52.173466 7.398664 40,000 265 438 64
2021-09-17 08:46:40 GMT 52.174210 7.410507 40,000 265 438 0
2021-09-17 08:46:37 GMT 52.174957 7.422834 40,000 265 437 0
2021-09-17 08:46:34 GMT 52.175262 7.427750 40,000 265 438 0
2021-09-17 08:46:32 GMT 52.175903 7.438660 40,000 265 438 0
2021-09-17 08:46:29 GMT 52.176308 7.445435 40,000 265 438 0
2021-09-17 08:46:27 GMT 52.176865 7.454694 40,000 265 438 0
2021-09-17 08:46:24 GMT 52.177368 7.463074 40,000 265 438 0
2021-09-17 08:46:21 GMT 52.177937 7.472665 40,000 265 438 0
2021-09-17 08:46:18 GMT 52.178635 7.484750 40,000 265 438 0
2021-09-17 08:46:15 GMT 52.179062 7.491684 40,000 265 438 0
2021-09-17 08:46:12 GMT 52.179565 7.500229 40,000 265 437 0
2021-09-17 08:46:09 GMT 52.180172 7.510411 40,000 265 437 0
2021-09-17 08:46:06 GMT 52.180775 7.520299 40,000 265 437 0
2021-09-17 08:46:03 GMT 52.181290 7.529637 40,000 265 437 0
2021-09-17 08:46:00 GMT 52.181900 7.539520 40,000 265 437 0
2021-09-17 08:45:58 GMT 52.183102 7.560085 40,000 265 436 0
2021-09-17 08:45:55 GMT 52.183102 7.560085 40,000 265 436 0
2021-09-17 08:45:52 GMT 52.183430 7.566284 40,000 265 436 0
2021-09-17 08:45:49 GMT 52.184143 7.578125 40,000 265 435 0
2021-09-17 08:45:46 GMT 52.184639 7.586609 40,000 265 435 0
2021-09-17 08:45:43 GMT 52.185200 7.596340 40,000 265 436 0
2021-09-17 08:45:40 GMT 52.185699 7.605438 40,000 265 436 0
2021-09-17 08:45:36 GMT 52.186661 7.621307 40,000 265 436 0
2021-09-17 08:45:33 GMT 52.187016 7.627572 40,000 265 435 0
2021-09-17 08:45:30 GMT 52.187622 7.637405 40,000 265 435 0
2021-09-17 08:45:27 GMT 52.188362 7.649780 40,000 265 435 0
2021-09-17 08:45:24 GMT 52.188904 7.659378 40,000 265 435 0
2021-09-17 08:45:21 GMT 52.189529 7.669713 40,000 265 435 0
2021-09-17 08:45:18 GMT 52.189911 7.676468 40,000 265 435 0
2021-09-17 08:45:15 GMT 52.190598 7.688370 40,000 265 433 0
2021-09-17 08:45:12 GMT 52.191204 7.698120 40,000 265 434 0
2021-09-17 08:45:09 GMT 52.191715 7.706752 40,000 265 434 0
2021-09-17 08:45:06 GMT 52.192337 7.717743 40,000 265 433 0
2021-09-17 08:45:03 GMT 52.192879 7.727155 40,000 265 433 0
2021-09-17 08:45:00 GMT 52.193531 7.737828 40,000 265 433 0
2021-09-17 08:44:57 GMT 52.193905 7.744106 40,000 265 433 0
2021-09-17 08:44:54 GMT 52.194672 7.757874 40,000 265 433 0
2021-09-17 08:44:51 GMT 52.195023 7.763646 40,000 265 433 0
2021-09-17 08:44:48 GMT 52.195724 7.775650 40,000 265 433 0
2021-09-17 08:44:45 GMT 52.196930 7.796526 40,000 265 432 0
2021-09-17 08:44:42 GMT 52.196930 7.796526 40,000 265 432 0
2021-09-17 08:44:39 GMT 52.197304 7.802726 40,000 265 432 0
2021-09-17 08:44:37 GMT 52.197765 7.810416 40,000 265 432 0
2021-09-17 08:44:34 GMT 52.198288 7.820206 40,000 265 432 0
2021-09-17 08:44:31 GMT 52.198883 7.829971 40,000 265 432 0
2021-09-17 08:44:28 GMT 52.199490 7.840550 40,000 265 432 64
2021-09-17 08:44:25 GMT 52.199955 7.849025 40,000 265 432 64
2021-09-17 08:44:22 GMT 52.200577 7.860489 40,000 265 431 0
2021-09-17 08:44:19 GMT 52.201767 7.881012 40,000 265 431 -64
2021-09-17 08:44:16 GMT 52.201767 7.881012 40,000 265 431 -64
2021-09-17 08:44:13 GMT 52.202236 7.890224 40,000 265 431 -64
2021-09-17 08:44:10 GMT 52.202747 7.899719 40,000 265 431 0
2021-09-17 08:44:07 GMT 52.203140 7.906494 40,000 265 430 0
2021-09-17 08:44:04 GMT 52.203819 7.918867 40,000 265 430 0
2021-09-17 08:44:01 GMT 52.204422 7.929611 40,000 265 430 0
2021-09-17 08:43:58 GMT 52.204834 7.937393 40,000 265 430 0
2021-09-17 08:43:55 GMT 52.205311 7.946490 40,000 265 430 0
2021-09-17 08:43:52 GMT 52.205914 7.957633 40,000 265 429 -64
2021-09-17 08:43:49 GMT 52.206985 7.977565 40,000 265 430 0
2021-09-17 08:43:46 GMT 52.206985 7.977565 40,000 265 429 -64
2021-09-17 08:43:43 GMT 52.207310 7.983608 40,000 266 429 0
2021-09-17 08:43:40 GMT 52.208038 7.996902 40,000 265 429 0
2021-09-17 08:43:37 GMT 52.208473 8.005266 40,000 265 428 64
2021-09-17 08:43:34 GMT 52.209503 8.024368 40,000 265 428 0
2021-09-17 08:43:31 GMT 52.209869 8.031241 40,000 265 428 64
2021-09-17 08:43:28 GMT 52.209869 8.031241 40,000 265 428 64
2021-09-17 08:43:26 GMT 52.210430 8.041207 40,000 266 423 0
2021-09-17 08:43:23 GMT 52.211361 8.058315 40,000 265 427 0
2021-09-17 08:43:20 GMT 52.211361 8.058315 40,000 265 428 0
2021-09-17 08:43:17 GMT 52.212570 8.080444 40,000 265 428 0
2021-09-17 08:43:14 GMT 52.212570 8.080444 40,000 265 427 0
2021-09-17 08:43:11 GMT 52.213074 8.089371 40,000 265 427 0
2021-09-17 08:43:08 GMT 52.213623 8.099289 40,000 265 427 0
2021-09-17 08:43:05 GMT 52.214108 8.108459 40,000 265 427 0
2021-09-17 08:43:01 GMT 52.214619 8.117641 40,000 265 427 0
2021-09-17 08:42:58 GMT 52.215225 8.129044 40,000 266 426 0
2021-09-17 08:42:55 GMT 52.215832 8.140241 40,000 266 426 0
2021-09-17 08:42:52 GMT 52.216156 8.146676 40,000 266 426 0
2021-09-17 08:42:49 GMT 52.216713 8.157035 40,000 266 426 0
2021-09-17 08:42:46 GMT 52.217319 8.168256 40,000 266 426 0
2021-09-17 08:42:43 GMT 52.217739 8.175868 40,000 266 425 0
2021-09-17 08:42:40 GMT 52.218342 8.187561 40,000 266 425 0
2021-09-17 08:42:37 GMT 52.218842 8.197098 40,000 266 425 -64
2021-09-17 08:42:34 GMT 52.219345 8.206787 40,000 266 425 0
2021-09-17 08:42:31 GMT 52.219692 8.213379 40,000 266 425 -64
2021-09-17 08:42:28 GMT 52.220352 8.225403 40,000 266 425 -64
2021-09-17 08:42:25 GMT 52.221405 8.244781 40,000 266 425 -64
2021-09-17 08:42:22 GMT 52.221973 8.255519 40,000 266 424 0
2021-09-17 08:42:19 GMT 52.221973 8.255519 40,000 266 424 0
2021-09-17 08:42:16 GMT 52.222393 8.263367 40,000 266 424 0
2021-09-17 08:42:13 GMT 52.222954 8.273961 40,000 266 424 0
2021-09-17 08:42:10 GMT 52.223419 8.283005 40,000 266 424 0
2021-09-17 08:42:07 GMT 52.224380 8.301315 40,000 266 424 0
2021-09-17 08:42:04 GMT 52.224976 8.312454 40,000 266 423 0
2021-09-17 08:42:01 GMT 52.224976 8.312454 40,000 266 424 0
2021-09-17 08:41:58 GMT 52.225296 8.319016 40,000 266 424 0
2021-09-17 08:41:55 GMT 52.225845 8.329315 40,000 266 424 0
2021-09-17 08:41:52 GMT 52.226440 8.340759 40,000 266 423 64
2021-09-17 08:41:49 GMT 52.226898 8.348999 40,000 266 423 0
2021-09-17 08:41:46 GMT 52.227402 8.358841 40,000 266 423 0
2021-09-17 08:41:43 GMT 52.227905 8.368454 40,000 266 422 0
2021-09-17 08:41:40 GMT 52.228317 8.376236 40,000 266 423 0
2021-09-17 08:41:37 GMT 52.229507 8.398895 40,000 266 423 0
2021-09-17 08:41:34 GMT 52.229507 8.398895 40,000 266 423 0
2021-09-17 08:41:31 GMT 52.229980 8.408151 40,000 266 423 0
2021-09-17 08:41:28 GMT 52.230469 8.417053 40,000 266 423 0
2021-09-17 08:41:25 GMT 52.230820 8.423924 40,000 266 423 -64
2021-09-17 08:41:22 GMT 52.231426 8.435067 40,000 266 422 -64
2021-09-17 08:41:19 GMT 52.231750 8.441973 40,000 266 422 0
2021-09-17 08:41:16 GMT 52.232307 8.452488 40,000 266 422 0
2021-09-17 08:41:14 GMT 52.232777 8.461748 40,000 266 422 0
2021-09-17 08:41:11 GMT 52.233753 8.480504 40,000 266 422 0
2021-09-17 08:41:08 GMT 52.234085 8.486633 40,000 266 422 0
2021-09-17 08:41:05 GMT 52.234085 8.486633 40,000 266 422 0
2021-09-17 08:41:02 GMT 52.234684 8.498396 40,000 266 422 0
2021-09-17 08:40:59 GMT 52.235046 8.505554 40,000 266 422 0
2021-09-17 08:40:56 GMT 52.235641 8.516693 40,000 266 422 0
2021-09-17 08:40:53 GMT 52.236034 8.524684 40,000 266 422 0
2021-09-17 08:40:50 GMT 52.236740 8.538361 40,000 266 420 0
2021-09-17 08:40:47 GMT 52.237057 8.544460 40,000 266 422 0
2021-09-17 08:40:45 GMT 52.237522 8.554190 40,000 266 422 64
2021-09-17 08:40:42 GMT 52.237988 8.563293 40,000 266 422 64
2021-09-17 08:40:39 GMT 52.238316 8.569179 40,000 266 421 0
2021-09-17 08:40:36 GMT 52.238873 8.580322 40,000 266 421 0
2021-09-17 08:40:33 GMT 52.239338 8.590053 40,000 266 421 0
2021-09-17 08:40:30 GMT 52.239803 8.598371 40,000 266 421 0
2021-09-17 08:40:27 GMT 52.240223 8.607003 40,000 266 421 0
2021-09-17 08:40:25 GMT 52.240547 8.613674 40,000 266 421 0
2021-09-17 08:40:22 GMT 52.241592 8.633804 40,000 266 421 0
2021-09-17 08:40:19 GMT 52.241592 8.633804 40,000 266 421 0
2021-09-17 08:40:16 GMT 52.242233 8.646317 40,000 266 421 0
2021-09-17 08:40:13 GMT 52.242691 8.655624 40,000 266 421 0
2021-09-17 08:40:10 GMT 52.243515 8.671722 40,000 266 420 0
2021-09-17 08:40:07 GMT 52.243515 8.671722 40,000 266 420 0
2021-09-17 08:40:04 GMT 52.243973 8.681107 40,000 266 420 0
2021-09-17 08:40:01 GMT 52.244431 8.690491 40,000 266 420 0
2021-09-17 08:39:58 GMT 52.244972 8.700780 40,000 266 420 0
2021-09-17 08:39:55 GMT 52.245342 8.708784 40,000 266 420 0
2021-09-17 08:39:52 GMT 52.245804 8.718109 40,000 266 420 0
2021-09-17 08:39:49 GMT 52.246925 8.740487 40,000 266 420 0
2021-09-17 08:39:46 GMT 52.246925 8.740487 40,000 266 420 0
2021-09-17 08:39:43 GMT 52.247208 8.746451 40,000 266 420 0
2021-09-17 08:39:40 GMT 52.247681 8.755875 40,000 266 420 -64
2021-09-17 08:39:37 GMT 52.248138 8.764801 40,000 266 420 0
2021-09-17 08:39:35 GMT 52.248508 8.772818 40,000 266 420 0
2021-09-17 08:39:32 GMT 52.248882 8.780901 40,000 266 420 0
2021-09-17 08:39:29 GMT 52.249329 8.790207 40,000 266 420 0
2021-09-17 08:39:26 GMT 52.250336 8.811340 40,000 266 420 64
2021-09-17 08:39:23 GMT 52.250336 8.811340 40,000 266 420 0
2021-09-17 08:39:20 GMT 52.251160 8.829041 40,000 266 420 -64
2021-09-17 08:39:17 GMT 52.251160 8.829041 40,000 266 420 -64
2021-09-17 08:39:15 GMT 52.251846 8.843155 40,000 266 420 -64
2021-09-17 08:39:12 GMT 52.252304 8.853607 40,000 266 420 -64
2021-09-17 08:39:09 GMT 52.252304 8.853607 40,000 266 420 -64
2021-09-17 08:39:06 GMT 52.252792 8.863534 40,000 266 419 0
2021-09-17 08:39:03 GMT 52.253265 8.874283 40,000 266 419 0
2021-09-17 08:39:00 GMT 52.253677 8.883591 40,000 266 419 0
2021-09-17 08:38:57 GMT 52.254135 8.893356 40,000 266 419 0
2021-09-17 08:38:55 GMT 52.254456 8.899994 40,000 266 419 64
2021-09-17 08:38:52 GMT 52.255417 8.920746 40,000 266 419 0
2021-09-17 08:38:48 GMT 52.255417 8.920746 40,000 266 419 0
2021-09-17 08:38:45 GMT 52.255863 8.930237 40,000 266 419 0
2021-09-17 08:38:42 GMT 52.256145 8.936201 40,000 266 420 0
2021-09-17 08:38:39 GMT 52.256798 8.950405 40,000 266 420 0
2021-09-17 08:38:36 GMT 52.257076 8.956369 40,000 266 420 0
2021-09-17 08:38:34 GMT 52.257401 8.962568 40,000 266 420 -64
2021-09-17 08:38:32 GMT 52.257729 8.970023 40,000 266 420 0
2021-09-17 08:38:29 GMT 52.258347 8.982773 40,000 266 420 0
2021-09-17 08:38:26 GMT 52.258751 8.990897 40,000 266 420 0
2021-09-17 08:38:23 GMT 52.259125 8.999215 40,000 266 420 0
2021-09-17 08:38:20 GMT 52.259628 9.010239 40,000 266 420 0
2021-09-17 08:38:17 GMT 52.260040 9.019470 40,000 266 420 0
2021-09-17 08:38:15 GMT 52.260193 9.022365 40,000 266 420 0
2021-09-17 08:38:12 GMT 52.260754 9.035078 40,000 266 420 -64
2021-09-17 08:38:08 GMT 52.261322 9.047623 40,000 266 420 -64
2021-09-17 08:38:05 GMT 52.262054 9.064348 40,000 266 420 0
2021-09-17 08:38:02 GMT 52.262054 9.064348 40,000 266 420 0
2021-09-17 08:37:59 GMT 52.262512 9.073792 40,000 266 420 0
2021-09-17 08:37:56 GMT 52.263016 9.084930 40,000 266 420 0
2021-09-17 08:37:53 GMT 52.263840 9.102020 40,000 266 420 0
2021-09-17 08:37:50 GMT 52.263840 9.102020 40,000 266 420 0
2021-09-17 08:37:47 GMT 52.264431 9.114101 40,000 266 420 0
2021-09-17 08:37:44 GMT 52.265083 9.126892 40,000 266 421 0
2021-09-17 08:37:42 GMT 52.265083 9.126892 40,000 266 421 0
2021-09-17 08:37:39 GMT 52.265579 9.137115 40,000 266 421 0
2021-09-17 08:37:36 GMT 52.266014 9.145726 40,000 266 421 0
2021-09-17 08:37:33 GMT 52.266632 9.157333 40,000 266 421 0
2021-09-17 08:37:30 GMT 52.266953 9.163818 40,000 266 421 -64
2021-09-17 08:37:27 GMT 52.267597 9.176958 40,000 266 421 -64
2021-09-17 08:37:25 GMT 52.268295 9.190063 40,000 266 421 -64
2021-09-17 08:37:22 GMT 52.268295 9.190063 40,000 266 421 0
2021-09-17 08:37:19 GMT 52.268761 9.199480 40,000 266 421 0
2021-09-17 08:37:16 GMT 52.269131 9.207328 40,000 266 421 0
2021-09-17 08:37:13 GMT 52.269745 9.219437 40,000 266 421 0
2021-09-17 08:37:10 GMT 52.270660 9.238358 39,925 266 421 64
2021-09-17 08:37:07 GMT 52.270660 9.238358 40,000 266 421 0
2021-09-17 08:37:05 GMT 52.270981 9.245453 40,000 266 421 0
2021-09-17 08:37:02 GMT 52.271393 9.254379 40,000 266 421 0
2021-09-17 08:36:59 GMT 52.271832 9.264064 40,000 266 421 0
2021-09-17 08:36:56 GMT 52.272205 9.272932 40,000 266 421 0
2021-09-17 08:36:53 GMT 52.272621 9.282113 40,000 266 421 0
2021-09-17 08:36:50 GMT 52.273041 9.291844 40,000 266 422 0
2021-09-17 08:36:47 GMT 52.273506 9.301889 40,000 266 422 0
2021-09-17 08:36:45 GMT 52.274158 9.316328 40,000 266 422 64
2021-09-17 08:36:42 GMT 52.274158 9.316328 40,000 266 422 0
2021-09-17 08:36:39 GMT 52.274578 9.325745 40,000 266 422 0
2021-09-17 08:36:36 GMT 52.275192 9.339676 40,000 266 422 -64
2021-09-17 08:36:33 GMT 52.275833 9.354401 40,000 266 422 -64
2021-09-17 08:36:30 GMT 52.275833 9.354401 40,000 266 422 -64
2021-09-17 08:36:27 GMT 52.276337 9.365311 40,000 266 422 0
2021-09-17 08:36:25 GMT 52.276535 9.369847 40,000 267 421 64
2021-09-17 08:36:22 GMT 52.277115 9.383545 40,000 266 422 64
2021-09-17 08:36:19 GMT 52.277527 9.393158 40,000 266 422 0
2021-09-17 08:36:16 GMT 52.277790 9.399353 40,000 267 421 0
2021-09-17 08:36:14 GMT 52.278442 9.414498 40,000 267 421 0
2021-09-17 08:36:11 GMT 52.278442 9.414498 40,000 267 421 0
2021-09-17 08:36:08 GMT 52.278854 9.425049 40,000 267 422 0
2021-09-17 08:36:05 GMT 52.279327 9.436707 40,000 267 422 0
2021-09-17 08:36:02 GMT 52.279587 9.443130 40,000 267 423 0
2021-09-17 08:35:59 GMT 52.280071 9.454677 40,000 267 425 0
2021-09-17 08:35:56 GMT 52.280411 9.463043 40,000 267 424 0
2021-09-17 08:35:53 GMT 52.281143 9.481659 40,000 267 423 -64
2021-09-17 08:35:50 GMT 52.281143 9.481659 40,000 267 424 0
2021-09-17 08:35:47 GMT 52.281654 9.494149 40,000 267 424 0
2021-09-17 08:35:44 GMT 52.281887 9.500427 40,000 267 425 0
2021-09-17 08:35:41 GMT 52.282379 9.512939 40,000 267 425 0
2021-09-17 08:35:38 GMT 52.282772 9.522871 40,000 267 426 0
2021-09-17 08:35:35 GMT 52.283432 9.539032 40,000 267 429 0
2021-09-17 08:35:32 GMT 52.283432 9.539032 40,000 267 429 0
2021-09-17 08:35:29 GMT 52.283794 9.548453 40,000 267 429 0
2021-09-17 08:35:26 GMT 52.284256 9.559479 40,000 267 430 0
2021-09-17 08:35:23 GMT 52.284760 9.571075 40,000 267 430 0
2021-09-17 08:35:20 GMT 52.285034 9.578552 40,000 267 432 0
2021-09-17 08:35:17 GMT 52.285378 9.586435 40,000 267 432 0
2021-09-17 08:35:14 GMT 52.285904 9.598923 40,000 267 432 0
2021-09-17 08:35:11 GMT 52.286407 9.610519 40,000 267 432 0
2021-09-17 08:35:08 GMT 52.286682 9.617118 40,000 267 432 64
2021-09-17 08:35:05 GMT 52.287102 9.627162 40,000 267 432 0
2021-09-17 08:35:02 GMT 52.287552 9.637985 40,000 267 432 0
2021-09-17 08:34:59 GMT 52.287891 9.645604 40,000 267 432 64
2021-09-17 08:34:56 GMT 52.288406 9.658160 40,000 267 432 64
2021-09-17 08:34:53 GMT 52.288731 9.665771 40,000 267 431 0
2021-09-17 08:34:50 GMT 52.289474 9.683914 40,000 267 431 0
2021-09-17 08:34:47 GMT 52.289474 9.683914 40,000 267 431 0
2021-09-17 08:34:44 GMT 52.289894 9.694571 40,000 267 431 0
2021-09-17 08:34:41 GMT 52.290405 9.707049 40,000 267 431 0
2021-09-17 08:34:38 GMT 52.291103 9.723528 40,000 267 431 0
2021-09-17 08:34:35 GMT 52.291103 9.723528 40,000 267 431 0
2021-09-17 08:34:32 GMT 52.291855 9.742203 40,000 267 431 0
2021-09-17 08:34:30 GMT 52.292221 9.751465 40,000 267 431 0
2021-09-17 08:34:27 GMT 52.292221 9.751465 40,000 267 428 64
2021-09-17 08:34:24 GMT 52.292633 9.762268 40,000 267 430 0
2021-09-17 08:34:21 GMT 52.292873 9.768729 40,000 267 431 0
2021-09-17 08:34:18 GMT 52.293293 9.779088 40,000 267 431 64
2021-09-17 08:34:15 GMT 52.293713 9.789132 40,000 267 431 64
2021-09-17 08:34:12 GMT 52.294556 9.811096 40,000 267 431 0
2021-09-17 08:34:09 GMT 52.294556 9.811096 40,000 267 431 0
2021-09-17 08:34:06 GMT 52.294830 9.818324 40,000 267 430 0
2021-09-17 08:34:03 GMT 52.295200 9.827898 40,000 267 430 0
2021-09-17 08:34:00 GMT 52.295574 9.837237 40,000 267 430 0
2021-09-17 08:33:57 GMT 52.295944 9.847281 40,000 267 430 -64
2021-09-17 08:33:54 GMT 52.296318 9.856620 40,000 267 427 0
2021-09-17 08:33:51 GMT 52.296783 9.868940 40,000 267 430 -64
2021-09-17 08:33:48 GMT 52.297165 9.878082 40,000 267 430 -64
2021-09-17 08:33:45 GMT 52.297527 9.887695 40,000 267 429 0
2021-09-17 08:33:42 GMT 52.298309 9.907761 40,000 267 429 0
2021-09-17 08:33:39 GMT 52.298309 9.907761 40,000 267 427 0
2021-09-17 08:33:36 GMT 52.298645 9.917045 40,000 267 429 0
2021-09-17 08:33:33 GMT 52.299019 9.926932 40,000 267 429 0
2021-09-17 08:33:30 GMT 52.299774 9.945602 40,000 267 429 0
2021-09-17 08:33:27 GMT 52.299774 9.945602 40,000 267 429 0
2021-09-17 08:33:24 GMT 52.300095 9.954224 40,000 267 428 0
2021-09-17 08:33:21 GMT 52.300461 9.963913 40,000 267 428 64
2021-09-17 08:33:18 GMT 52.300789 9.971741 40,000 267 428 64
2021-09-17 08:33:15 GMT 52.301254 9.983826 40,000 267 428 64
2021-09-17 08:33:12 GMT 52.301533 9.991673 40,000 267 428 64
2021-09-17 08:33:09 GMT 52.302017 10.003891 40,000 267 428 0
2021-09-17 08:33:05 GMT 52.302509 10.018040 40,000 267 428 0
2021-09-17 08:33:02 GMT 52.302841 10.026550 40,000 267 427 0
2021-09-17 08:32:59 GMT 52.303207 10.035629 39,400 267 427 0
2021-09-17 08:32:56 GMT 52.303482 10.043564 40,000 267 427 0
2021-09-17 08:32:53 GMT 52.303905 10.054531 40,000 267 427 0
2021-09-17 08:32:50 GMT 52.304325 10.065595 40,000 267 427 64
2021-09-17 08:32:47 GMT 52.304581 10.071945 40,000 267 427 0
2021-09-17 08:32:44 GMT 52.305023 10.083566 40,000 267 427 64
2021-09-17 08:32:41 GMT 52.305405 10.093155 40,000 267 427 64
2021-09-17 08:32:38 GMT 52.305771 10.103734 40,000 267 427 0
2021-09-17 08:32:35 GMT 52.306141 10.113857 40,000 267 427 0
2021-09-17 08:32:32 GMT 52.306686 10.128250 40,000 267 427 0
2021-09-17 08:32:29 GMT 52.306686 10.128250 40,000 267 427 0
2021-09-17 08:32:26 GMT 52.307144 10.141373 40,000 267 427 64
2021-09-17 08:32:23 GMT 52.307465 10.149307 40,000 267 427 64
2021-09-17 08:32:20 GMT 52.307877 10.160370 39,975 267 427 128
2021-09-17 08:32:17 GMT 52.308197 10.169449 39,975 267 427 192
2021-09-17 08:32:14 GMT 52.308517 10.178680 39,975 267 427 128
2021-09-17 08:32:11 GMT 52.308983 10.190133 39,950 267 427 256
2021-09-17 08:32:08 GMT 52.309296 10.199738 39,950 267 426 256
2021-09-17 08:32:04 GMT 52.309708 10.210953 39,925 267 424 256
2021-09-17 08:32:01 GMT 52.310486 10.232468 39,900 267 425 256
2021-09-17 08:31:58 GMT 52.310486 10.232468 39,900 267 425 256
2021-09-17 08:31:55 GMT 52.310749 10.239336 39,900 267 424 256
2021-09-17 08:31:52 GMT 52.311077 10.248989 39,450 267 418 640
2021-09-17 08:31:49 GMT 52.311447 10.260620 39,875 267 423 128
2021-09-17 08:31:46 GMT 52.311726 10.268607 39,850 267 420 640
2021-09-17 08:31:43 GMT 52.312145 10.279829 39,850 267 419 1152
2021-09-17 08:31:40 GMT 52.312363 10.286713 39,875 267 420 256
2021-09-17 08:31:38 GMT 52.312729 10.296326 39,825 267 419 704
2021-09-17 08:31:35 GMT 52.313004 10.304184 39,800 267 418 576
2021-09-17 08:31:32 GMT 52.313587 10.321420 39,800 267 419 704
2021-09-17 08:31:29 GMT 52.314011 10.333328 39,750 267 419 640
2021-09-17 08:31:23 GMT 52.314381 10.345197 39,700 267 419 512
2021-09-17 08:31:20 GMT 52.314606 10.351486 39,650 267 418 576
2021-09-17 08:31:17 GMT 52.314938 10.360578 39,575 267 418 704
2021-09-17 08:31:14 GMT 52.315266 10.369995 39,600 267 418 832
2021-09-17 08:31:11 GMT 52.315659 10.381470 39,500 267 418 960
2021-09-17 08:31:08 GMT 52.315979 10.390472 39,500 267 418 960
2021-09-17 08:31:05 GMT 52.316242 10.398795 39,450 267 418 1024
2021-09-17 08:31:02 GMT 52.316521 10.406328 39,400 267 418 1088
2021-09-17 08:30:59 GMT 52.316895 10.417252 39,350 267 418 1024
2021-09-17 08:30:56 GMT 52.317219 10.425398 39,300 267 418 1024
2021-09-17 08:30:53 GMT 52.317581 10.435486 39,250 267 419 1088
2021-09-17 08:30:50 GMT 52.317947 10.445633 39,175 267 419 1152
2021-09-17 08:30:47 GMT 52.318359 10.457916 39,125 267 419 1344
2021-09-17 08:30:44 GMT 52.318680 10.465698 39,050 267 420 1344
2021-09-17 08:30:41 GMT 52.318954 10.473709 38,900 267 420 1152
2021-09-17 08:30:38 GMT 52.319366 10.484619 38,275 267 425 1216
2021-09-17 08:30:35 GMT 52.319641 10.492401 38,900 267 421 1088
2021-09-17 08:30:32 GMT 52.319965 10.500811 38,775 267 421 1472
2021-09-17 08:30:29 GMT 52.320385 10.511719 38,750 267 422 1536
2021-09-17 08:30:26 GMT 52.320850 10.524667 38,550 267 425 1280
2021-09-17 08:30:23 GMT 52.321133 10.532828 38,575 267 423 1536
2021-09-17 08:30:20 GMT 52.321426 10.540924 38,525 267 423 1408
2021-09-17 08:30:17 GMT 52.321781 10.550642 38,450 267 424 1280
2021-09-17 08:30:14 GMT 52.322109 10.559666 38,350 267 424 1216
2021-09-17 08:30:11 GMT 52.322529 10.571594 38,350 267 424 1216
2021-09-17 08:30:08 GMT 52.323227 10.590742 38,275 267 424 1280
2021-09-17 08:30:05 GMT 52.323227 10.590742 38,200 267 425 1280
2021-09-17 08:30:02 GMT 52.323505 10.598589 38,125 267 425 1216
2021-09-17 08:29:59 GMT 52.323761 10.606766 38,100 267 425 1088
2021-09-17 08:29:56 GMT 52.324158 10.619071 38,050 267 425 896
2021-09-17 08:29:52 GMT 52.324528 10.630136 38,000 267 426 320
2021-09-17 08:29:49 GMT 52.324905 10.641479 38,000 268 425 64
2021-09-17 08:29:46 GMT 52.325226 10.651855 38,000 268 425 0
2021-09-17 08:29:43 GMT 52.325459 10.658779 38,000 268 425 0
2021-09-17 08:29:40 GMT 52.325729 10.667877 38,000 268 425 0
2021-09-17 08:29:37 GMT 52.326111 10.678868 38,000 268 425 0
2021-09-17 08:29:34 GMT 52.326389 10.687657 38,000 268 426 0
2021-09-17 08:29:31 GMT 52.326782 10.700684 38,000 268 426 -64
2021-09-17 08:29:28 GMT 52.327057 10.709915 38,000 268 426 0
2021-09-17 08:29:25 GMT 52.327240 10.716095 38,000 268 427 -64
2021-09-17 08:29:22 GMT 52.327507 10.725403 38,000 268 427 -64
2021-09-17 08:29:19 GMT 52.327835 10.736313 38,000 268 427 0
2021-09-17 08:29:16 GMT 52.328156 10.747604 38,000 268 427 0
2021-09-17 08:29:13 GMT 52.328392 10.755694 38,000 268 427 0
2021-09-17 08:29:10 GMT 52.328705 10.765915 38,000 268 428 0
2021-09-17 08:29:07 GMT 52.328934 10.773468 38,000 268 428 0
2021-09-17 08:29:04 GMT 52.329277 10.786220 38,000 268 429 192
2021-09-17 08:29:01 GMT 52.329510 10.794538 38,000 268 429 192
2021-09-17 08:28:58 GMT 52.330124 10.814819 37,950 268 429 832
2021-09-17 08:28:55 GMT 52.330124 10.814819 37,900 268 429 1280
2021-09-17 08:28:52 GMT 52.330444 10.825043 37,750 268 429 1536
2021-09-17 08:28:49 GMT 52.330952 10.843427 37,775 268 431 1344
2021-09-17 08:28:46 GMT 52.331177 10.851059 37,700 268 431 1472
2021-09-17 08:28:43 GMT 52.331177 10.851059 37,625 268 431 1344
2021-09-17 08:28:40 GMT 52.331543 10.862274 37,550 268 432 1344
2021-09-17 08:28:37 GMT 52.331791 10.871286 37,325 268 432 1344
2021-09-17 08:28:34 GMT 52.332092 10.881271 37,425 268 432 1344
2021-09-17 08:28:31 GMT 52.332367 10.890808 37,250 268 432 1216
2021-09-17 08:28:28 GMT 52.332722 10.902911 37,300 268 432 1216
2021-09-17 08:28:25 GMT 52.332909 10.909424 37,200 268 432 1216
2021-09-17 08:28:21 GMT 52.333328 10.922843 37,125 268 432 1216
2021-09-17 08:28:18 GMT 52.333694 10.934601 37,050 268 432 1216
2021-09-17 08:28:15 GMT 52.333935 10.943011 37,025 268 432 1216
2021-09-17 08:28:12 GMT 52.334290 10.954361 36,975 268 432 1152
2021-09-17 08:28:08 GMT 52.334633 10.965454 36,900 268 432 1088
2021-09-17 08:28:05 GMT 52.335049 10.978245 36,850 268 432 1088
2021-09-17 08:28:02 GMT 52.335281 10.986564 36,800 268 431 1088
2021-09-17 08:27:59 GMT 52.335480 10.992813 36,725 268 431 1024
2021-09-17 08:27:56 GMT 52.336166 11.014500 36,675 268 431 960
2021-09-17 08:27:53 GMT 52.336445 11.024152 36,200 268 426 1152
2021-09-17 08:27:50 GMT 52.336445 11.024152 36,600 268 430 960
2021-09-17 08:27:47 GMT 52.336773 11.034825 36,450 268 429 960
2021-09-17 08:27:44 GMT 52.337036 11.043549 36,475 268 429 896
2021-09-17 08:27:41 GMT 52.337379 11.054836 36,450 268 429 832
2021-09-17 08:27:38 GMT 52.337677 11.064301 36,425 268 428 768
2021-09-17 08:27:35 GMT 52.337891 11.072100 36,325 268 426 1024
2021-09-17 08:27:32 GMT 52.338261 11.085754 36,325 268 427 960
2021-09-17 08:27:29 GMT 52.338455 11.092377 36,025 268 426 1216
2021-09-17 08:27:26 GMT 52.338776 11.102829 36,200 268 426 1152
2021-09-17 08:27:23 GMT 52.339054 11.112671 36,125 268 426 1216
2021-09-17 08:27:20 GMT 52.339378 11.124442 36,125 268 426 1152
2021-09-17 08:27:17 GMT 52.339520 11.129307 36,050 268 425 1088
2021-09-17 08:27:14 GMT 52.339844 11.140215 36,000 268 425 1088
2021-09-17 08:27:11 GMT 52.340103 11.149063 35,925 268 425 1216
2021-09-17 08:27:08 GMT 52.340332 11.158524 35,875 268 424 1344
2021-09-17 08:27:05 GMT 52.340637 11.168544 35,750 268 424 1408
2021-09-17 08:27:02 GMT 52.340973 11.180649 35,725 268 425 1344
2021-09-17 08:26:59 GMT 52.341156 11.187515 35,700 268 425 1280
2021-09-17 08:26:55 GMT 52.341568 11.203073 35,600 268 424 1280
2021-09-17 08:26:51 GMT 52.342117 11.223221 35,500 268 424 1408
2021-09-17 08:26:48 GMT 52.342117 11.223221 35,400 268 424 1536
2021-09-17 08:26:45 GMT 52.342358 11.231794 35,225 268 424 1472
2021-09-17 08:26:42 GMT 52.342636 11.241446 35,250 268 424 1472
2021-09-17 08:26:39 GMT 52.342873 11.250942 35,175 268 424 1472
2021-09-17 08:26:36 GMT 52.343216 11.263580 35,050 268 424 1344
2021-09-17 08:26:33 GMT 52.343399 11.269989 35,075 268 424 1408
2021-09-17 08:26:30 GMT 52.343708 11.280526 34,975 268 424 1344
2021-09-17 08:26:27 GMT 52.343987 11.291591 34,875 268 424 1344
2021-09-17 08:26:24 GMT 52.344315 11.302795 34,825 268 424 1344
2021-09-17 08:26:21 GMT 52.344498 11.308746 34,775 268 424 1344
2021-09-17 08:26:18 GMT 52.344734 11.318508 32,975 268 424 1600
2021-09-17 08:26:15 GMT 52.345058 11.330436 34,575 268 424 1600
2021-09-17 08:26:12 GMT 52.345291 11.338361 34,575 268 424 1600
2021-09-17 08:26:09 GMT 52.345898 11.359471 34,500 268 424 1600
2021-09-17 08:26:06 GMT 52.346146 11.368408 34,350 268 424 1600
2021-09-17 08:26:03 GMT 52.346146 11.368408 34,325 268 424 1600
2021-09-17 08:26:00 GMT 52.346375 11.376419 34,250 268 424 1600
2021-09-17 08:25:57 GMT 52.346924 11.395264 34,150 268 424 1728
2021-09-17 08:25:54 GMT 52.346924 11.395264 34,025 268 425 1856
2021-09-17 08:25:51 GMT 52.347198 11.405487 33,975 268 425 1856
2021-09-17 08:25:48 GMT 52.347527 11.416678 33,875 272 428 2048
2021-09-17 08:25:45 GMT 52.347794 11.425781 33,725 268 425 1856
2021-09-17 08:25:42 GMT 52.348297 11.443100 33,650 268 426 1856
2021-09-17 08:25:39 GMT 52.348297 11.443100 33,500 268 426 1920
2021-09-17 08:25:36 GMT 52.348618 11.454926 33,550 268 426 1920
2021-09-17 08:25:33 GMT 52.348846 11.461945 33,475 268 426 1792
2021-09-17 08:25:30 GMT 52.349121 11.471786 33,325 268 426 1600
2021-09-17 08:25:27 GMT 52.349480 11.483695 33,250 268 426 1856
2021-09-17 08:25:24 GMT 52.349808 11.495309 33,175 268 426 1920
2021-09-17 08:25:20 GMT 52.350086 11.505668 33,075 268 427 2048
2021-09-17 08:25:17 GMT 52.350319 11.515006 32,975 268 427 2112
2021-09-17 08:25:14 GMT 52.350586 11.524353 32,800 268 428 2112
2021-09-17 08:25:11 GMT 52.350906 11.536636 32,600 268 428 2112
2021-09-17 08:25:08 GMT 52.351063 11.543100 32,600 268 429 2112
2021-09-17 08:25:05 GMT 52.351341 11.556597 32,450 270 428 2112
2021-09-17 08:25:02 GMT 52.351391 11.564680 32,425 271 428 2112
2021-09-17 08:24:59 GMT 52.351364 11.572647 32,350 272 427 2112
2021-09-17 08:24:56 GMT 52.351181 11.584396 32,125 272 428 2048
2021-09-17 08:24:53 GMT 52.351063 11.590733 32,075 272 428 2112
2021-09-17 08:24:50 GMT 52.350830 11.604623 32,000 272 428 2240
2021-09-17 08:24:47 GMT 52.350677 11.612473 31,875 272 429 2240
2021-09-17 08:24:44 GMT 52.350494 11.623688 31,750 272 429 2176
2021-09-17 08:24:41 GMT 52.350357 11.629562 31,600 273 413 2304
2021-09-17 08:24:38 GMT 52.350174 11.641006 31,575 272 430 2240
2021-09-17 08:24:35 GMT 52.349949 11.651001 31,375 272 431 2048
2021-09-17 08:24:32 GMT 52.349808 11.659088 31,325 272 431 1792
2021-09-17 08:24:29 GMT 52.349579 11.669998 31,200 272 431 1600
2021-09-17 08:24:26 GMT 52.349388 11.681056 31,125 272 430 1536
2021-09-17 08:24:23 GMT 52.349155 11.691415 31,100 272 430 1536
2021-09-17 08:24:19 GMT 52.348938 11.702881 31,000 272 428 1536
2021-09-17 08:24:16 GMT 52.348755 11.711502 30,900 272 429 1600
2021-09-17 08:24:13 GMT 52.348598 11.721470 30,800 272 428 1536
2021-09-17 08:24:10 GMT 52.348114 11.744156 30,775 272 428 1536
2021-09-17 08:24:07 GMT 52.348114 11.744156 30,650 272 427 1472
2021-09-17 08:24:04 GMT 52.347946 11.751369 30,600 272 427 1536
2021-09-17 08:24:01 GMT 52.347748 11.760712 30,575 272 427 1536
2021-09-17 08:23:58 GMT 52.347610 11.767654 30,500 272 426 1472
2021-09-17 08:23:56 GMT 52.347431 11.776167 30,075 272 425 1408
2021-09-17 08:23:53 GMT 52.347198 11.787567 30,300 272 425 1472
2021-09-17 08:23:50 GMT 52.346966 11.799159 30,200 272 424 1664
2021-09-17 08:23:47 GMT 52.346832 11.807404 30,175 272 423 1664
2021-09-17 08:23:44 GMT 52.346695 11.813889 30,100 273 422 1536
2021-09-17 08:23:41 GMT 52.346268 11.832511 30,025 273 422 1536
2021-09-17 08:23:38 GMT 52.346268 11.832511 29,925 273 422 1536
2021-09-17 08:23:35 GMT 52.346054 11.842194 29,850 272 421 1536
2021-09-17 08:23:32 GMT 52.345852 11.853071 29,775 272 420 1600
2021-09-17 08:23:29 GMT 52.345459 11.871643 29,700 272 420 1664
2021-09-17 08:23:26 GMT 52.345459 11.871643 29,625 272 419 1664
2021-09-17 08:23:23 GMT 52.345245 11.880929 29,500 272 418 1664
2021-09-17 08:23:20 GMT 52.344872 11.899684 29,450 272 416 1792
2021-09-17 08:23:17 GMT 52.344872 11.899684 29,350 272 417 1728
2021-09-17 08:23:14 GMT 52.344589 11.911850 29,200 272 416 1792
2021-09-17 08:23:11 GMT 52.344406 11.920853 29,225 272 416 1792
2021-09-17 08:23:08 GMT 52.344269 11.928877 29,100 272 415 1856
2021-09-17 08:23:05 GMT 52.343895 11.946376 29,000 272 415 1856
2021-09-17 08:23:02 GMT 52.343895 11.946376 28,900 273 414 2112
2021-09-17 08:22:59 GMT 52.343628 11.957779 28,850 273 414 2048
2021-09-17 08:22:57 GMT 52.343536 11.962280 28,800 273 413 2048
2021-09-17 08:22:54 GMT 52.343307 11.972122 28,600 273 414 1920
2021-09-17 08:22:51 GMT 52.342896 11.991806 28,575 273 414 1920
2021-09-17 08:22:48 GMT 52.342896 11.991806 28,425 273 413 1984
2021-09-17 08:22:45 GMT 52.342731 11.999817 28,350 273 413 2112
2021-09-17 08:22:42 GMT 52.342545 12.007272 28,350 273 413 2112
2021-09-17 08:22:39 GMT 52.342033 12.029637 28,100 273 413 2304
2021-09-17 08:22:36 GMT 52.342033 12.029637 28,000 273 413 2240
2021-09-17 08:22:33 GMT 52.341843 12.039185 27,925 273 413 1856
2021-09-17 08:22:30 GMT 52.341614 12.049726 27,800 273 412 1344
2021-09-17 08:22:27 GMT 52.341473 12.056161 27,750 273 412 1216
2021-09-17 08:22:24 GMT 52.341202 12.067032 27,725 273 412 896
2021-09-17 08:22:21 GMT 52.341057 12.073190 27,675 273 412 896
2021-09-17 08:22:18 GMT 52.340820 12.084569 27,600 273 411 896
2021-09-17 08:22:15 GMT 52.340561 12.095413 27,550 273 410 1152
2021-09-17 08:22:12 GMT 52.340405 12.103245 27,425 273 409 1472
2021-09-17 08:22:08 GMT 52.339985 12.120510 27,350 273 408 1920
2021-09-17 08:22:06 GMT 52.339985 12.120510 27,300 273 408 1920
2021-09-17 08:22:03 GMT 52.339783 12.129898 27,225 273 407 1856
2021-09-17 08:22:00 GMT 52.339565 12.137852 27,200 273 407 1856
2021-09-17 08:21:57 GMT 52.339325 12.149506 27,050 273 405 1984
2021-09-17 08:21:54 GMT 52.339096 12.158508 26,950 273 405 2048
2021-09-17 08:21:51 GMT 52.338634 12.177168 26,800 273 404 1984
2021-09-17 08:21:48 GMT 52.338634 12.177168 26,725 273 404 1920
2021-09-17 08:21:45 GMT 52.338409 12.187653 26,650 273 403 1920
2021-09-17 08:21:42 GMT 52.338310 12.191921 26,550 273 402 1984
2021-09-17 08:21:39 GMT 52.338028 12.203692 26,325 273 398 1984
2021-09-17 08:21:36 GMT 52.337749 12.213501 26,375 273 401 1984
2021-09-17 08:21:33 GMT 52.337540 12.223434 26,075 273 399 1984
2021-09-17 08:21:30 GMT 52.337330 12.231079 26,125 273 399 1984
2021-09-17 08:21:27 GMT 52.337128 12.239304 26,050 273 398 1984
2021-09-17 08:21:24 GMT 52.336678 12.257368 25,925 273 398 1984
2021-09-17 08:21:21 GMT 52.336678 12.257368 25,875 273 397 1920
2021-09-17 08:21:18 GMT 52.336258 12.275391 25,750 273 396 1920
2021-09-17 08:21:15 GMT 52.336258 12.275391 25,650 273 395 1920
2021-09-17 08:21:12 GMT 52.336029 12.284441 25,600 273 394 1920
2021-09-17 08:21:08 GMT 52.335747 12.296448 25,425 273 387 2048
2021-09-17 08:21:06 GMT 52.335571 12.303162 25,375 273 392 1920
2021-09-17 08:21:03 GMT 52.335377 12.311201 25,275 273 391 1920
2021-09-17 08:21:00 GMT 52.335114 12.322159 25,200 273 390 1984
2021-09-17 08:20:57 GMT 52.334839 12.332230 25,050 273 389 1984
2021-09-17 08:20:54 GMT 52.334724 12.337960 24,675 273 388 2048
2021-09-17 08:20:51 GMT 52.334538 12.345572 24,875 273 386 2112
2021-09-17 08:20:48 GMT 52.334152 12.361298 24,800 273 386 2176
2021-09-17 08:20:46 GMT 52.334152 12.361298 24,675 273 380 2176
2021-09-17 08:20:43 GMT 52.333935 12.369350 24,525 273 385 2112
2021-09-17 08:20:40 GMT 52.333698 12.378217 24,475 273 384 2048
2021-09-17 08:20:37 GMT 52.333466 12.388458 24,400 273 382 1856
2021-09-17 08:20:34 GMT 52.333191 12.398834 24,275 273 380 2112
2021-09-17 08:20:31 GMT 52.333099 12.403488 24,200 273 380 2240
2021-09-17 08:20:28 GMT 52.332630 12.421300 23,925 273 375 1024
2021-09-17 08:20:26 GMT 52.332630 12.421300 23,350 273 366 2688
2021-09-17 08:20:23 GMT 52.332458 12.427902 23,925 273 375 1024
2021-09-17 08:20:20 GMT 52.332230 12.436447 23,925 273 373 1024
2021-09-17 08:20:17 GMT 52.332047 12.443161 23,825 273 371 1600
2021-09-17 08:20:14 GMT 52.331772 12.453156 23,750 273 370 2176
2021-09-17 08:20:11 GMT 52.331326 12.469090 23,625 273 369 2496
2021-09-17 08:20:08 GMT 52.331184 12.474583 23,550 273 369 2496
2021-09-17 08:20:03 GMT 52.330948 12.484131 22,725 273 365 2560
2021-09-17 08:20:00 GMT 52.330769 12.490435 23,100 273 367 2688
2021-09-17 08:19:57 GMT 52.330536 12.499084 23,125 273 367 2688
2021-09-17 08:19:54 GMT 52.330307 12.508621 22,900 273 366 2752
2021-09-17 08:19:51 GMT 52.330078 12.516785 22,750 273 365 2496
2021-09-17 08:19:48 GMT 52.329788 12.526454 22,675 273 365 2432
2021-09-17 08:19:46 GMT 52.329666 12.531662 22,600 273 364 2432
2021-09-17 08:19:43 GMT 52.329437 12.538986 22,475 273 364 2560
2021-09-17 08:19:40 GMT 52.329185 12.548584 22,325 273 363 2816
2021-09-17 08:19:37 GMT 52.328999 12.555019 21,825 273 361 2432
2021-09-17 08:19:34 GMT 52.328720 12.565691 22,050 273 361 2496
2021-09-17 08:19:30 GMT 52.328293 12.580948 21,850 273 360 2496
2021-09-17 08:19:27 GMT 52.328293 12.580948 21,800 273 359 2624
2021-09-17 08:19:24 GMT 52.328022 12.590646 21,700 273 358 2688
2021-09-17 08:19:21 GMT 52.327789 12.597885 21,400 273 358 2624
2021-09-17 08:19:18 GMT 52.327423 12.611542 21,275 273 353 2688
2021-09-17 08:19:16 GMT 52.327183 12.619446 21,275 273 353 2688
2021-09-17 08:19:13 GMT 52.327183 12.619446 21,175 273 355 2688
2021-09-17 08:19:10 GMT 52.326950 12.629020 20,950 273 354 2816
2021-09-17 08:19:06 GMT 52.326626 12.639927 20,825 273 352 2496
2021-09-17 08:19:02 GMT 52.326370 12.649841 20,600 273 352 2496
2021-09-17 08:18:59 GMT 52.326157 12.657584 20,325 273 350 2496
2021-09-17 08:18:56 GMT 52.325958 12.664413 20,325 273 350 2496
2021-09-17 08:18:52 GMT 52.325638 12.677917 20,200 273 348 2944
2021-09-17 08:18:49 GMT 52.325226 12.691422 20,025 273 348 3072
2021-09-17 08:18:46 GMT 52.325226 12.691422 19,675 273 347 3072
2021-09-17 08:18:43 GMT 52.325043 12.698975 19,700 273 347 2944
2021-09-17 08:18:40 GMT 52.324814 12.706757 19,625 273 346 2944
2021-09-17 08:18:37 GMT 52.324356 12.723236 19,400 273 345 3264
2021-09-17 08:18:34 GMT 52.324356 12.723236 19,225 273 345 3392
2021-09-17 08:18:31 GMT 52.323925 12.738647 19,075 273 345 3392
2021-09-17 08:18:28 GMT 52.323925 12.738647 18,900 273 345 3392
2021-09-17 08:18:25 GMT 52.323715 12.746277 18,900 273 345 3392
2021-09-17 08:18:22 GMT 52.323486 12.754517 18,625 273 345 3456
2021-09-17 08:18:19 GMT 52.323257 12.762604 18,450 273 345 3456
2021-09-17 08:18:16 GMT 52.323086 12.768232 18,350 273 345 3392
2021-09-17 08:18:13 GMT 52.322762 12.780082 18,050 273 344 3648
2021-09-17 08:18:10 GMT 52.322575 12.786438 17,825 273 344 3904
2021-09-17 08:18:07 GMT 52.322388 12.793030 17,700 273 345 3968
2021-09-17 08:18:05 GMT 52.322021 12.806473 17,525 273 346 3840
2021-09-17 08:18:02 GMT 52.322021 12.806473 17,400 273 346 3840
2021-09-17 08:17:59 GMT 52.321877 12.811785 17,275 273 346 3776
2021-09-17 08:17:57 GMT 52.321701 12.818375 17,125 273 346 3648
2021-09-17 08:17:55 GMT 52.321548 12.825204 16,675 273 345 3008
2021-09-17 08:17:52 GMT 52.321335 12.832870 16,825 273 344 3136
2021-09-17 08:17:49 GMT 52.321133 12.839643 16,650 273 344 3136
2021-09-17 08:17:46 GMT 52.320896 12.849139 16,425 273 343 3456
2021-09-17 08:17:43 GMT 52.320713 12.855181 16,325 273 343 3712
2021-09-17 08:17:40 GMT 52.320511 12.862549 16,075 273 343 3520
2021-09-17 08:17:37 GMT 52.320293 12.871739 15,975 273 342 3392
2021-09-17 08:17:35 GMT 52.320099 12.878876 15,900 273 342 3328
2021-09-17 08:17:31 GMT 52.319824 12.888718 15,600 273 340 3328
2021-09-17 08:17:28 GMT 52.319687 12.893982 15,375 273 340 3392
2021-09-17 08:17:25 GMT 52.319458 12.901688 15,350 273 340 3392
2021-09-17 08:17:22 GMT 52.319229 12.911072 14,900 273 338 3456
2021-09-17 08:17:19 GMT 52.319046 12.917252 14,825 273 338 3456
2021-09-17 08:17:16 GMT 52.318802 12.925337 14,775 273 337 3456
2021-09-17 08:17:14 GMT 52.318726 12.929382 14,575 273 336 3456
2021-09-17 08:17:11 GMT 52.318497 12.936859 14,000 273 335 3264
2021-09-17 08:17:08 GMT 52.318314 12.943649 14,025 273 335 3264
2021-09-17 08:17:06 GMT 52.318058 12.951076 14,150 273 335 3264
2021-09-17 08:17:03 GMT 52.317810 12.959900 14,025 273 334 3264
2021-09-17 08:17:00 GMT 52.317627 12.965469 13,675 273 331 3264
2021-09-17 08:16:57 GMT 52.317406 12.973755 13,700 273 333 3328
2021-09-17 08:16:55 GMT 52.317314 12.976580 13,250 273 330 3264
2021-09-17 08:16:53 GMT 52.317123 12.981796 13,250 273 330 3264
2021-09-17 08:16:50 GMT 52.316849 12.990723 13,250 274 330 3328
2021-09-17 08:16:47 GMT 52.316616 12.998553 13,150 274 330 3328
2021-09-17 08:16:45 GMT 52.316483 13.002243 13,025 274 329 3328
2021-09-17 08:16:43 GMT 52.316345 13.007202 13,025 274 329 3328
2021-09-17 08:16:40 GMT 52.316010 13.017072 12,600 274 327 3456
2021-09-17 08:16:37 GMT 52.315796 13.023224 12,600 274 327 3456
2021-09-17 08:16:34 GMT 52.315453 13.032218 12,400 274 327 3392
2021-09-17 08:16:30 GMT 52.315155 13.039703 12,150 274 326 3264
2021-09-17 08:16:27 GMT 52.314835 13.048019 12,050 274 325 3328
2021-09-17 08:16:24 GMT 52.314568 13.054818 11,850 275 324 3392
2021-09-17 08:16:21 GMT 52.314148 13.063965 11,675 275 323 3392
2021-09-17 08:16:17 GMT 52.313774 13.072553 11,475 275 322 3136
2021-09-17 08:16:15 GMT 52.313324 13.081131 11,350 275 322 2816
2021-09-17 08:16:13 GMT 52.313324 13.081131 11,300 276 318 2304
2021-09-17 08:16:10 GMT 52.312820 13.091202 11,075 276 318 2432
2021-09-17 08:16:07 GMT 52.312565 13.095232 11,075 274 306 1280
2021-09-17 08:16:05 GMT 52.312286 13.100333 10,975 276 317 2112
2021-09-17 08:16:02 GMT 52.311867 13.107631 10,925 276 311 1216
2021-09-17 08:15:59 GMT 52.311447 13.113988 10,000 275 308 1216
2021-09-17 08:15:56 GMT 52.311077 13.120187 10,775 274 306 1280
2021-09-17 08:15:54 GMT 52.310844 13.127642 10,725 270 301 1024
2021-09-17 08:15:50 GMT 52.310898 13.135529 10,650 265 295 832
2021-09-17 08:15:47 GMT 52.311260 13.142081 10,625 262 292 896
2021-09-17 08:15:45 GMT 52.311584 13.146133 10,600 260 289 1024
2021-09-17 08:15:43 GMT 52.312195 13.151420 10,550 256 286 1600
2021-09-17 08:15:39 GMT 52.313553 13.159866 10,425 252 283 2240
2021-09-17 08:15:36 GMT 52.316196 13.171038 10,275 247 282 2944
2021-09-17 08:15:34 GMT 52.316196 13.171038 10,150 245 282 3136
2021-09-17 08:15:30 GMT 52.318588 13.179169 9,925 245 282 3520
2021-09-17 08:15:26 GMT 52.320053 13.183975 9,775 246 281 3584
2021-09-17 08:15:24 GMT 52.320923 13.187103 9,675 247 281 3520
2021-09-17 08:15:22 GMT 52.322201 13.191912 9,450 250 280 3136
2021-09-17 08:15:19 GMT 52.323738 13.198190 9,375 260 271 3136
2021-09-17 08:15:16 GMT 52.324856 13.203448 9,250 252 277 2944
2021-09-17 08:15:14 GMT 52.326157 13.210589 9,050 258 272 3072
2021-09-17 08:15:11 GMT 52.327011 13.215561 8,900 258 272 3072
2021-09-17 08:15:08 GMT 52.327602 13.219770 8,725 260 271 3136
2021-09-17 08:15:05 GMT 52.328392 13.226676 8,650 261 270 3200
2021-09-17 08:15:02 GMT 52.328796 13.230743 6,625 263 268 3200
2021-09-17 08:14:58 GMT 52.329483 13.240204 8,300 265 266 3008
2021-09-17 08:14:55 GMT 52.329895 13.246689 8,100 265 265 2880
2021-09-17 08:14:53 GMT 52.330078 13.249741 7,925 265 261 3136
2021-09-17 08:14:49 GMT 52.330673 13.259888 7,800 265 261 3264
2021-09-17 08:14:46 GMT 52.330902 13.263931 7,675 265 260 3456
2021-09-17 08:14:42 GMT 52.331726 13.278198 7,350 265 259 3328
2021-09-17 08:14:39 GMT 52.331726 13.278198 7,225 265 257 2944
2021-09-17 08:14:36 GMT 52.332047 13.283081 7,150 265 256 2880
2021-09-17 08:14:34 GMT 52.332302 13.288042 7,025 265 256 2816
2021-09-17 08:14:31 GMT 52.332642 13.293991 6,900 265 251 1856
2021-09-17 08:14:28 GMT 52.332870 13.298340 6,825 265 250 1536
2021-09-17 08:14:25 GMT 52.333237 13.304825 6,750 265 242 1024
2021-09-17 08:14:22 GMT 52.333878 13.315506 6,700 265 238 1024
2021-09-17 08:14:19 GMT 52.333878 13.315506 6,625 265 230 1024
2021-09-17 08:14:16 GMT 52.334198 13.320770 6,600 265 226 1088
2021-09-17 08:14:13 GMT 52.334473 13.325272 6,525 263 216 1408
2021-09-17 08:14:10 GMT 52.334839 13.330536 6,475 263 214 1472
2021-09-17 08:14:06 GMT 52.335388 13.337173 6,325 261 209 2304
2021-09-17 08:14:04 GMT 52.335609 13.339207 6,250 259 206 2816
2021-09-17 08:14:02 GMT 52.336075 13.343277 6,175 258 206 3456
2021-09-17 08:13:58 GMT 52.336853 13.349228 5,900 257 206 3712
2021-09-17 08:13:55 GMT 52.337379 13.352862 5,800 256 206 3712
2021-09-17 08:13:53 GMT 52.338959 13.362043 5,625 255 207 3712
2021-09-17 08:13:50 GMT 52.338959 13.362043 5,425 253 207 3776
2021-09-17 08:13:47 GMT 52.339691 13.365784 5,125 251 208 3776
2021-09-17 08:13:44 GMT 52.340496 13.369577 5,125 250 208 3776
2021-09-17 08:13:42 GMT 52.341064 13.372040 5,000 250 209 3648
2021-09-17 08:13:39 GMT 52.342823 13.379621 4,625 250 208 2752
2021-09-17 08:13:35 GMT 52.343849 13.383937 4,575 250 208 2752
2021-09-17 08:13:32 GMT 52.344452 13.386612 4,500 250 207 2688
2021-09-17 08:13:29 GMT 52.345596 13.391724 4,250 250 204 2432
2021-09-17 08:13:26 GMT 52.347248 13.398847 4,150 250 202 2112
2021-09-17 08:13:22 GMT 52.348038 13.402300 4,025 250 196 1024
2021-09-17 08:13:18 GMT 52.349575 13.408970 3,925 249 183 1280
2021-09-17 08:13:15 GMT 52.350082 13.411179 3,950 250 187 1216
2021-09-17 08:13:13 GMT 52.350693 13.413757 3,900 249 181 1280
2021-09-17 08:13:10 GMT 52.351810 13.418466 3,825 250 174 1408
2021-09-17 08:13:07 GMT 52.352600 13.421936 3,700 250 168 1792
2021-09-17 08:13:04 GMT 52.353390 13.425293 3,650 250 162 1984
2021-09-17 08:13:02 GMT 52.354183 13.428667 3,600 250 163 1984
2021-09-17 08:12:59 GMT 52.354889 13.431702 3,525 250 160 2112
2021-09-17 08:12:56 GMT 52.355579 13.434710 3,375 251 158 2240
2021-09-17 08:12:53 GMT 52.356232 13.437613 3,325 251 155 2368
2021-09-17 08:12:50 GMT 52.356949 13.441162 3,200 251 154 2496
2021-09-17 08:12:47 GMT 52.357861 13.445304 3,025 251 153 2624
2021-09-17 08:12:44 GMT 52.358414 13.448029 2,925 251 153 2560
2021-09-17 08:12:40 GMT 52.359283 13.451843 2,700 250 151 2432
2021-09-17 08:12:37 GMT 52.360233 13.456133 2,625 250 150 2496
2021-09-17 08:12:34 GMT 52.360840 13.458880 2,500 250 150 2624
2021-09-17 08:12:31 GMT 52.361679 13.462646 2,350 249 150 2816
2021-09-17 08:12:27 GMT 52.362656 13.466649 2,150 249 149 2880
2021-09-17 08:12:24 GMT 52.363308 13.469317 2,025 248 150 2944
2021-09-17 08:12:23 GMT 52.363586 13.470459 1,975 248 149 3072
2021-09-17 08:12:21 GMT 52.364136 13.472672 1,800 247 149 3392
2021-09-17 08:12:18 GMT 52.364868 13.475418 1,725 247 149 3392
2021-09-17 08:12:16 GMT 52.365261 13.477007 1,625 247 149 3456
2021-09-17 08:12:15 GMT 52.365692 13.478699 1,525 247 150 3392
2021-09-17 08:12:13 GMT 52.366150 13.480453 1,475 247 150 3456
2021-09-17 08:12:12 GMT 52.366333 13.481064 1,400 248 149 3520
2021-09-17 08:12:11 GMT 52.366707 13.482579 1,325 248 150 3648
2021-09-17 08:12:10 GMT 52.367020 13.483658 1,250 248 151 3968
2021-09-17 08:12:09 GMT 52.367386 13.485260 1,150 248 151 3968
2021-09-17 08:12:07 GMT 52.367798 13.486786 1,050 248 152 3968
2021-09-17 08:12:05 GMT 52.368668 13.490372 850 248 153 3584
2021-09-17 08:12:02 GMT 52.369221 13.492388 750 248 155 3584
2021-09-17 08:12:00 GMT 52.369766 13.494644 625 247 157 3456
2021-09-17 08:11:59 GMT 52.370476 13.497253 275 248 160 3072
2021-09-17 08:11:54 GMT 52.371506 13.501358 275 248 159 1856
2021-09-17 08:11:51 GMT 52.372330 13.504715 200 249 155 1024
2021-09-17 08:11:48 GMT 52.372944 13.507063 200 249 149 320
2021-09-17 08:11:45 GMT 52.373703 13.510208 175 249 124 0
2021-09-17 08:11:43 GMT 52.374153 13.512242 175 249 124 0
2021-09-17 08:11:42 GMT 52.374481 13.513576 175 249 115 0
2021-09-17 08:11:41 GMT 52.374664 13.514404 200 249 115 0
2021-09-17 08:11:38 GMT 52.375179 13.516558 200 250 106 0
2021-09-17 08:11:37 GMT 52.375351 13.517227 200 249 101 0
2021-09-17 08:11:35 GMT 52.375832 13.519305 200 250 92 0
2021-09-17 08:11:34 GMT 52.375969 13.519859 0 250 84
2021-09-17 08:11:33 GMT 52.376110 13.520462 0 250 78
2021-09-17 08:11:32 GMT 52.376225 13.520952 0 250 74
2021-09-17 08:11:30 GMT 52.376472 13.521957 0 250 63
2021-09-17 08:11:29 GMT 52.376575 13.522396 0 250 58
2021-09-17 08:11:27 GMT 52.376713 13.523006 0 250 52
2021-09-17 08:11:26 GMT 52.376877 13.523699 0 250 41
2021-09-17 08:11:24 GMT 52.376976 13.524151 0 250 30
2021-09-17 08:11:23 GMT 52.377052 13.524464 0 247 25
2021-09-17 08:11:22 GMT 52.377102 13.524666 0 247 19
2021-09-17 08:11:20 GMT 52.377155 13.524876 0 247 13
2021-09-17 08:11:19 GMT 52.377182 13.524971 0 247 12
2021-09-17 08:11:16 GMT 52.377239 13.525238 0 250 10
2021-09-17 08:11:15 GMT 52.377262 13.525288 0 250 9
2021-09-17 08:11:12 GMT 52.377308 13.525484 0 264 9
2021-09-17 08:11:09 GMT 52.377331 13.525681 0 292 10
2021-09-17 08:11:08 GMT 52.377331 13.525739 0 303 10
2021-09-17 08:11:07 GMT 52.377274 13.525887 0 323 11
2021-09-17 08:11:05 GMT 52.377251 13.525944 0 326 12
2021-09-17 08:11:04 GMT 52.377216 13.525994 0 331 14
2021-09-17 08:11:03 GMT 52.377159 13.526039 0 331 15
2021-09-17 08:11:01 GMT 52.377045 13.526134 0 334 16
2021-09-17 08:11:00 GMT 52.376968 13.526191 0 334 16
2021-09-17 08:10:59 GMT 52.376900 13.526230 0 337 16
2021-09-17 08:10:57 GMT 52.376770 13.526325 0 337 16
2021-09-17 08:10:56 GMT 52.376633 13.526406 0 337 15
2021-09-17 08:10:54 GMT 52.376575 13.526446 0 337 15
2021-09-17 08:10:53 GMT 52.376514 13.526485 0 337 14
2021-09-17 08:10:52 GMT 52.376400 13.526563 0 337 13
2021-09-17 08:10:50 GMT 52.376347 13.526592 0 337 13
2021-09-17 08:10:49 GMT 52.376301 13.526630 0 337 12
2021-09-17 08:10:48 GMT 52.376247 13.526661 0 337 12
2021-09-17 08:10:45 GMT 52.376099 13.526760 0 337 11
2021-09-17 08:10:44 GMT 52.376053 13.526779 0 337 10
2021-09-17 08:10:42 GMT 52.375957 13.526838 0 337 10
2021-09-17 08:10:41 GMT 52.375923 13.526877 0 337 10
2021-09-17 08:10:39 GMT 52.375839 13.526917 0 337 10
2021-09-17 08:10:38 GMT 52.375793 13.526956 0 337 10
2021-09-17 08:10:37 GMT 52.375736 13.526975 0 337 10
2021-09-17 08:10:33 GMT 52.375568 13.527088 0 337 11
2021-09-17 08:10:31 GMT 52.375477 13.527145 0 337 11
2021-09-17 08:10:27 GMT 52.375282 13.527279 0 337 12
2021-09-17 08:10:23 GMT 52.374992 13.527446 0 343 10
2021-09-17 08:10:21 GMT 52.374992 13.527446 0 343 10
2021-09-17 08:10:19 GMT 52.374924 13.527485 0 351 9
2021-09-17 08:10:18 GMT 52.374874 13.527505 0 354 9
2021-09-17 08:10:16 GMT 52.374783 13.527544 0 8 7
2021-09-17 08:10:12 GMT 52.374714 13.527525 0 16 6
2021-09-17 08:10:10 GMT 52.374653 13.527508 0 25 5
2021-09-17 08:10:08 GMT 52.374619 13.527485 0 28 4
2021-09-17 08:10:06 GMT 52.374516 13.527407 0 42 3
2021-09-17 08:10:00 GMT 52.374516 13.527407 0 42 3
2021-09-17 08:09:58 GMT 52.374481 13.527374 0 47 3
2021-09-17 08:09:57 GMT 52.374481 13.527368 0 47 3
2021-09-17 08:09:55 GMT 52.374458 13.527355 0 53 4
2021-09-17 08:09:54 GMT 52.374447 13.527336 0 53 4
2021-09-17 08:09:52 GMT 52.374424 13.527298 0 59 4
2021-09-17 08:09:51 GMT 52.374420 13.527270 0 61 3
2021-09-17 08:09:50 GMT 52.374401 13.527241 0 64 3
2021-09-17 08:09:46 GMT 52.374378 13.527203 0 67 0
2021-09-17 08:09:43 GMT 52.374374 13.527172 0 67 0
2021-09-17 08:09:40 GMT 52.374374 13.527172 0 67 0
2021-09-17 08:09:37 GMT 52.374378 13.527164 0 67 0
2021-09-17 08:09:34 GMT 52.374374 13.527172 0 67 0
2021-09-17 08:09:32 GMT 52.374378 13.527164 0 67 0
2021-09-17 08:09:29 GMT 52.374378 13.527164 0 67 3
2021-09-17 08:09:26 GMT 52.374340 13.527054 0 67 8
2021-09-17 08:09:24 GMT 52.374340 13.527054 0 67 8
2021-09-17 08:09:21 GMT 52.374294 13.526877 0 67 14
2021-09-17 08:09:19 GMT 52.374172 13.526325 0 70 18
2021-09-17 08:09:16 GMT 52.374172 13.526325 0 70 18
2021-09-17 08:09:13 GMT 52.374081 13.525963 0 67 19
2021-09-17 08:09:11 GMT 52.374016 13.525661 0 67 21
2021-09-17 08:09:10 GMT 52.373989 13.525582 0 67 21
2021-09-17 08:09:07 GMT 52.373875 13.525105 0 67 23
2021-09-17 08:09:06 GMT 52.373840 13.524952 0 67 23
2021-09-17 08:09:05 GMT 52.373806 13.524817 0 70 23
2021-09-17 08:09:03 GMT 52.373734 13.524484 0 70 23
2021-09-17 08:09:02 GMT 52.373692 13.524303 0 67 23
2021-09-17 08:09:01 GMT 52.373657 13.524132 0 67 23
2021-09-17 08:09:00 GMT 52.373623 13.523998 0 67 23
2021-09-17 08:08:57 GMT 52.373508 13.523521 0 67 23
2021-09-17 08:08:56 GMT 52.373444 13.523228 0 67 23
2021-09-17 08:08:53 GMT 52.373383 13.522987 0 67 23
2021-09-17 08:08:51 GMT 52.373302 13.522659 0 67 23
2021-09-17 08:08:50 GMT 52.373245 13.522434 0 67 22
2021-09-17 08:08:49 GMT 52.373211 13.522263 0 67 22
2021-09-17 08:08:47 GMT 52.373142 13.521976 0 67 22
2021-09-17 08:08:46 GMT 52.373081 13.521776 0 70 22
2021-09-17 08:08:44 GMT 52.373016 13.521461 0 67 21
2021-09-17 08:08:42 GMT 52.372925 13.521080 0 67 17
2021-09-17 08:08:38 GMT 52.372822 13.520641 0 67 17
2021-09-17 08:08:34 GMT 52.372700 13.520109 0 67 17
2021-09-17 08:08:33 GMT 52.372662 13.519993 0 67 16
2021-09-17 08:08:32 GMT 52.372620 13.519775 0 67 15
2021-09-17 08:08:30 GMT 52.372593 13.519669 0 67 15
2021-09-17 08:08:29 GMT 52.372570 13.519573 0 67 15
2021-09-17 08:08:28 GMT 52.372524 13.519363 0 67 15
2021-09-17 08:08:25 GMT 52.372467 13.519167 0 67 14
2021-09-17 08:08:23 GMT 52.372421 13.518971 0 67 14
2021-09-17 08:08:22 GMT 52.372395 13.518873 0 67 13
2021-09-17 08:08:21 GMT 52.372375 13.518772 0 67 13
2021-09-17 08:08:19 GMT 52.372337 13.518598 0 67 12
2021-09-17 08:08:18 GMT 52.372314 13.518500 0 67 12
2021-09-17 08:08:16 GMT 52.372272 13.518353 0 67 11
2021-09-17 08:08:15 GMT 52.372261 13.518257 0 67 11
2021-09-17 08:08:14 GMT 52.372246 13.518206 0 67 11
2021-09-17 08:08:03 GMT 52.372047 13.517382 0 67 10
2021-09-17 08:08:01 GMT 52.372036 13.517323 0 67 10
2021-09-17 08:07:58 GMT 52.371975 13.517094 0 70 10
2021-09-17 08:07:51 GMT 52.371861 13.516617 0 67 13
2021-09-17 08:07:45 GMT 52.371758 13.516126 0 67 13
2021-09-17 08:07:41 GMT 52.371666 13.515759 0 67 12
2021-09-17 08:07:35 GMT 52.371559 13.515302 0 64 11
2021-09-17 08:07:31 GMT 52.371464 13.515008 0 36 10
2021-09-17 08:07:21 GMT 52.371037 13.514824 0 348 11
2021-09-17 08:07:10 GMT 52.370533 13.514733 0 45 12
2021-09-17 08:07:05 GMT 52.370373 13.514400 0 67 12
2021-09-17 08:07:01 GMT 52.370270 13.513966 0 67 14
2021-09-17 08:06:51 GMT 52.370045 13.512987 0 67 17
2021-09-17 08:06:48 GMT 52.369965 13.512654 0 67 17
2021-09-17 08:06:41 GMT 52.369766 13.511810 0 67 16
2021-09-17 08:06:34 GMT 52.369591 13.511104 0 67 16
2021-09-17 08:06:31 GMT 52.369488 13.510633 0 67 16
2021-09-17 08:06:21 GMT 52.369232 13.509593 0 67 14
2021-09-17 08:06:10 GMT 52.369034 13.508730 0 70 9
2021-09-17 08:06:04 GMT 52.368954 13.508357 0 67 6
2021-09-17 08:06:00 GMT 52.368919 13.508263 0 67 5
2021-09-17 08:05:54 GMT 52.368893 13.508122 0 67 0
2021-09-17 08:05:49 GMT 52.368885 13.508091 0 67 0
2021-09-17 08:05:44 GMT 52.368885 13.508091 0 67 0
2021-09-17 08:05:39 GMT 52.368881 13.508083 0 67 0
2021-09-17 08:05:35 GMT 52.368885 13.508091 0 67 0
2021-09-17 08:05:19 GMT 52.368885 13.508091 0 67 0
2021-09-17 08:05:09 GMT 52.368881 13.508083 0 67 0
2021-09-17 08:05:05 GMT 52.368885 13.508091 0 67 0
2021-09-17 08:04:59 GMT 52.368885 13.508091 0 67 0
2021-09-17 08:04:54 GMT 52.368881 13.508083 0 67 0
2021-09-17 08:04:49 GMT 52.368881 13.508083 0 67 0
2021-09-17 08:04:39 GMT 52.368885 13.508091 0 67 0
2021-09-17 08:04:29 GMT 52.368881 13.508083 0 67 0
2021-09-17 08:04:19 GMT 52.368885 13.508091 0 67 0
2021-09-17 08:04:09 GMT 52.368885 13.508091 0 67 0
2021-09-17 08:03:49 GMT 52.368881 13.508083 0 67 0
2021-09-17 08:03:40 GMT 52.368885 13.508091 0 67 0
2021-09-17 08:03:30 GMT 52.368881 13.508083 0 67 0
2021-09-17 08:03:20 GMT 52.368885 13.508091 0 67 0
2021-09-17 08:03:10 GMT 52.368881 13.508083 0 67 0
2021-09-17 08:02:59 GMT 52.368885 13.508091 0 67 0
2021-09-17 08:02:49 GMT 52.368885 13.508091 0 67 0
2021-09-17 08:02:39 GMT 52.368881 13.508083 0 67 0
2021-09-17 08:02:28 GMT 52.368881 13.508102 0 67 0
2021-09-17 08:02:18 GMT 52.368881 13.508083 0 67 0
2021-09-17 08:02:08 GMT 52.368885 13.508091 0 67 0
2021-09-17 08:01:59 GMT 52.368904 13.508220 0 70 5
2021-09-17 08:01:57 GMT 52.368919 13.508282 0 70 6
2021-09-17 08:01:48 GMT 52.368916 13.508652 0 95 6
2021-09-17 08:01:38 GMT 52.368778 13.508946 0 132 5
2021-09-17 08:01:28 GMT 52.368546 13.509083 0 157 5
2021-09-17 08:01:19 GMT 52.368359 13.509181 0 160 4

Making use of Plane Finder data

You are free to use the raw flight data, aircraft information and images provided in this report for your own purposes provided the data is correctly attributed to Plane Finder. We ask that you please credit Plane Finder and link to planefinder.net in close proximity to the content.

Optionally one of the following logos (no smaller then 150x24px) can be used and must link to planefinder.net

Embedding the Plane Finder map

You are welcome to embed the Plane Finder playback map on your website to offer visitors a more interactive experience. We suggest using the following HTML code:

<iframe src="//planefinder.net/data/report/FR2377-EI-DPG-7700-squawk-2021-09-17/map" width="800" height="600" seamless="seamless"></iframe>

Where our data comes from

Plane Finder has a global network of data feeds and antenna radars that receive data broadcast directly from aircraft. The primary technologies used are ADS-B and MLAT. We also show feeds from the FAA and a FLARM glider feed.

Click here to find out more about the Plane Finder network.

How we collect our data